<?xml version="1.0" encoding="UTF-8" standalone="no" ?>
<gpx xmlns="http://www.topografix.com/GPX/1/1" xmlns:xsi="http://www.w3.org/2001/XMLSchema-instance" xsi:schemaLocation="http://www.topografix.com/GPX/1/1 http://www.topografix.com/GPX/1/1/gpx.xsd" version="1.1" creator="VisuGPX - https://www.visugpx.com">
  <metadata>
    <name>83-D-2014-23-02-Cotignac - Les Hauts de Cotignac</name>
    <desc><![CDATA[Cotignac - Les Hauts de Cotignac
\"LE GRAND HUIT\" deux boucles autour de Cotignac]]></desc>
  </metadata>
  <trk>
    <name><![CDATA[2014-02-23-cotignac]]></name>
    <trkseg>
      <trkpt lat="43.534" lon="6.1252">
        <ele>384.4</ele>
        <time>2014-02-23T08:40:24Z</time>
      </trkpt>
      <trkpt lat="43.53408" lon="6.12519">
        <ele>384.5</ele>
        <time>2014-02-23T08:42:25Z</time>
      </trkpt>
      <trkpt lat="43.5341" lon="6.12519">
        <ele>384.5</ele>
        <time>2014-02-23T08:42:26Z</time>
      </trkpt>
      <trkpt lat="43.53413" lon="6.12529">
        <ele>383.4</ele>
        <time>2014-02-23T08:43:01Z</time>
      </trkpt>
      <trkpt lat="43.53405" lon="6.1253">
        <ele>383.7</ele>
        <time>2014-02-23T08:43:21Z</time>
      </trkpt>
      <trkpt lat="43.53413" lon="6.12529">
        <ele>383.2</ele>
        <time>2014-02-23T08:44:20Z</time>
      </trkpt>
      <trkpt lat="43.53414" lon="6.12528">
        <ele>383.2</ele>
        <time>2014-02-23T08:44:21Z</time>
      </trkpt>
      <trkpt lat="43.53403" lon="6.12509">
        <ele>383.6</ele>
        <time>2014-02-23T08:44:43Z</time>
      </trkpt>
      <trkpt lat="43.53395" lon="6.12505">
        <ele>383.2</ele>
        <time>2014-02-23T08:45:03Z</time>
      </trkpt>
      <trkpt lat="43.5339" lon="6.12515">
        <ele>385.5</ele>
        <time>2014-02-23T08:47:16Z</time>
      </trkpt>
      <trkpt lat="43.5339" lon="6.12517">
        <ele>385.5</ele>
        <time>2014-02-23T08:47:17Z</time>
      </trkpt>
      <trkpt lat="43.53392" lon="6.12516">
        <ele>385.3</ele>
        <time>2014-02-23T08:48:30Z</time>
      </trkpt>
      <trkpt lat="43.53392" lon="6.12516">
        <ele>385.4</ele>
        <time>2014-02-23T08:48:31Z</time>
      </trkpt>
      <trkpt lat="43.53386" lon="6.12511">
        <ele>383</ele>
        <time>2014-02-23T08:49:31Z</time>
      </trkpt>
      <trkpt lat="43.53386" lon="6.1251">
        <ele>383</ele>
        <time>2014-02-23T08:49:32Z</time>
      </trkpt>
      <trkpt lat="43.5339" lon="6.12488">
        <ele>383.1</ele>
        <time>2014-02-23T08:49:51Z</time>
      </trkpt>
      <trkpt lat="43.53388" lon="6.12477">
        <ele>384.1</ele>
        <time>2014-02-23T08:49:59Z</time>
      </trkpt>
      <trkpt lat="43.5339" lon="6.12465">
        <ele>384.6</ele>
        <time>2014-02-23T08:50:09Z</time>
      </trkpt>
      <trkpt lat="43.5339" lon="6.12454">
        <ele>385.6</ele>
        <time>2014-02-23T08:50:18Z</time>
      </trkpt>
      <trkpt lat="43.53388" lon="6.12442">
        <ele>386.2</ele>
        <time>2014-02-23T08:50:27Z</time>
      </trkpt>
      <trkpt lat="43.53389" lon="6.12431">
        <ele>386.7</ele>
        <time>2014-02-23T08:50:35Z</time>
      </trkpt>
      <trkpt lat="43.53389" lon="6.12429">
        <ele>386.8</ele>
        <time>2014-02-23T08:50:36Z</time>
      </trkpt>
      <trkpt lat="43.53386" lon="6.12407">
        <ele>387.4</ele>
        <time>2014-02-23T08:50:52Z</time>
      </trkpt>
      <trkpt lat="43.53381" lon="6.12397">
        <ele>388.3</ele>
        <time>2014-02-23T08:51:00Z</time>
      </trkpt>
      <trkpt lat="43.53376" lon="6.12389">
        <ele>388.7</ele>
        <time>2014-02-23T08:51:06Z</time>
      </trkpt>
      <trkpt lat="43.53369" lon="6.12382">
        <ele>388.8</ele>
        <time>2014-02-23T08:51:14Z</time>
      </trkpt>
      <trkpt lat="43.53363" lon="6.12374">
        <ele>389.4</ele>
        <time>2014-02-23T08:51:23Z</time>
      </trkpt>
      <trkpt lat="43.53359" lon="6.12365">
        <ele>390.6</ele>
        <time>2014-02-23T08:51:30Z</time>
      </trkpt>
      <trkpt lat="43.53353" lon="6.12357">
        <ele>390.9</ele>
        <time>2014-02-23T08:51:38Z</time>
      </trkpt>
      <trkpt lat="43.53352" lon="6.12356">
        <ele>390.9</ele>
        <time>2014-02-23T08:51:39Z</time>
      </trkpt>
      <trkpt lat="43.53342" lon="6.1234">
        <ele>392.3</ele>
        <time>2014-02-23T08:51:55Z</time>
      </trkpt>
      <trkpt lat="43.5334" lon="6.12328">
        <ele>392.9</ele>
        <time>2014-02-23T08:52:03Z</time>
      </trkpt>
      <trkpt lat="43.53334" lon="6.12319">
        <ele>393.2</ele>
        <time>2014-02-23T08:52:12Z</time>
      </trkpt>
      <trkpt lat="43.53329" lon="6.1231">
        <ele>393.9</ele>
        <time>2014-02-23T08:52:23Z</time>
      </trkpt>
      <trkpt lat="43.53328" lon="6.12298">
        <ele>394.8</ele>
        <time>2014-02-23T08:52:29Z</time>
      </trkpt>
      <trkpt lat="43.53326" lon="6.12286">
        <ele>395</ele>
        <time>2014-02-23T08:52:37Z</time>
      </trkpt>
      <trkpt lat="43.53323" lon="6.12275">
        <ele>395.3</ele>
        <time>2014-02-23T08:52:45Z</time>
      </trkpt>
      <trkpt lat="43.53322" lon="6.12275">
        <ele>395.3</ele>
        <time>2014-02-23T08:52:46Z</time>
      </trkpt>
      <trkpt lat="43.53312" lon="6.12258">
        <ele>396.4</ele>
        <time>2014-02-23T08:52:59Z</time>
      </trkpt>
      <trkpt lat="43.53309" lon="6.12246">
        <ele>397</ele>
        <time>2014-02-23T08:53:09Z</time>
      </trkpt>
      <trkpt lat="43.53307" lon="6.12235">
        <ele>397.3</ele>
        <time>2014-02-23T08:53:17Z</time>
      </trkpt>
      <trkpt lat="43.53303" lon="6.12225">
        <ele>398.3</ele>
        <time>2014-02-23T08:53:28Z</time>
      </trkpt>
      <trkpt lat="43.53301" lon="6.12213">
        <ele>399.1</ele>
        <time>2014-02-23T08:53:37Z</time>
      </trkpt>
      <trkpt lat="43.533" lon="6.12202">
        <ele>398.7</ele>
        <time>2014-02-23T08:53:47Z</time>
      </trkpt>
      <trkpt lat="43.53299" lon="6.12201">
        <ele>398.9</ele>
        <time>2014-02-23T08:53:48Z</time>
      </trkpt>
      <trkpt lat="43.53292" lon="6.12183">
        <ele>399.9</ele>
        <time>2014-02-23T08:54:00Z</time>
      </trkpt>
      <trkpt lat="43.53287" lon="6.12175">
        <ele>399.9</ele>
        <time>2014-02-23T08:54:06Z</time>
      </trkpt>
      <trkpt lat="43.53287" lon="6.12164">
        <ele>400.5</ele>
        <time>2014-02-23T08:54:13Z</time>
      </trkpt>
      <trkpt lat="43.53285" lon="6.12153">
        <ele>401</ele>
        <time>2014-02-23T08:54:20Z</time>
      </trkpt>
      <trkpt lat="43.53286" lon="6.12142">
        <ele>402.2</ele>
        <time>2014-02-23T08:54:28Z</time>
      </trkpt>
      <trkpt lat="43.53287" lon="6.1213">
        <ele>402.6</ele>
        <time>2014-02-23T08:54:38Z</time>
      </trkpt>
      <trkpt lat="43.53286" lon="6.12119">
        <ele>403.1</ele>
        <time>2014-02-23T08:54:49Z</time>
      </trkpt>
      <trkpt lat="43.53286" lon="6.12117">
        <ele>402.9</ele>
        <time>2014-02-23T08:54:50Z</time>
      </trkpt>
      <trkpt lat="43.53285" lon="6.12096">
        <ele>403.8</ele>
        <time>2014-02-23T08:55:05Z</time>
      </trkpt>
      <trkpt lat="43.53284" lon="6.12085">
        <ele>404</ele>
        <time>2014-02-23T08:55:11Z</time>
      </trkpt>
      <trkpt lat="43.5328" lon="6.12075">
        <ele>404.6</ele>
        <time>2014-02-23T08:55:18Z</time>
      </trkpt>
      <trkpt lat="43.53273" lon="6.1207">
        <ele>405.1</ele>
        <time>2014-02-23T08:55:24Z</time>
      </trkpt>
      <trkpt lat="43.53265" lon="6.12065">
        <ele>405.1</ele>
        <time>2014-02-23T08:55:31Z</time>
      </trkpt>
      <trkpt lat="43.5326" lon="6.12056">
        <ele>405.8</ele>
        <time>2014-02-23T08:55:39Z</time>
      </trkpt>
      <trkpt lat="43.53252" lon="6.12051">
        <ele>405.9</ele>
        <time>2014-02-23T08:55:46Z</time>
      </trkpt>
      <trkpt lat="43.53246" lon="6.12044">
        <ele>405.9</ele>
        <time>2014-02-23T08:55:54Z</time>
      </trkpt>
      <trkpt lat="43.53245" lon="6.12042">
        <ele>405.7</ele>
        <time>2014-02-23T08:55:55Z</time>
      </trkpt>
      <trkpt lat="43.53233" lon="6.12029">
        <ele>407.1</ele>
        <time>2014-02-23T08:56:10Z</time>
      </trkpt>
      <trkpt lat="43.53229" lon="6.12018">
        <ele>407.8</ele>
        <time>2014-02-23T08:56:18Z</time>
      </trkpt>
      <trkpt lat="43.53226" lon="6.12007">
        <ele>408.7</ele>
        <time>2014-02-23T08:56:27Z</time>
      </trkpt>
      <trkpt lat="43.53222" lon="6.11997">
        <ele>408.6</ele>
        <time>2014-02-23T08:56:35Z</time>
      </trkpt>
      <trkpt lat="43.53216" lon="6.11987">
        <ele>409.6</ele>
        <time>2014-02-23T08:56:43Z</time>
      </trkpt>
      <trkpt lat="43.53212" lon="6.11977">
        <ele>409.4</ele>
        <time>2014-02-23T08:56:52Z</time>
      </trkpt>
      <trkpt lat="43.53205" lon="6.11971">
        <ele>409.7</ele>
        <time>2014-02-23T08:57:02Z</time>
      </trkpt>
      <trkpt lat="43.53204" lon="6.11971">
        <ele>409.9</ele>
        <time>2014-02-23T08:57:03Z</time>
      </trkpt>
      <trkpt lat="43.53196" lon="6.11968">
        <ele>411.2</ele>
        <time>2014-02-23T08:57:23Z</time>
      </trkpt>
      <trkpt lat="43.53195" lon="6.11957">
        <ele>411.3</ele>
        <time>2014-02-23T08:57:30Z</time>
      </trkpt>
      <trkpt lat="43.53193" lon="6.11945">
        <ele>411.8</ele>
        <time>2014-02-23T08:57:38Z</time>
      </trkpt>
      <trkpt lat="43.53193" lon="6.11935">
        <ele>413</ele>
        <time>2014-02-23T08:57:45Z</time>
      </trkpt>
      <trkpt lat="43.53195" lon="6.11923">
        <ele>413.2</ele>
        <time>2014-02-23T08:57:52Z</time>
      </trkpt>
      <trkpt lat="43.53195" lon="6.11911">
        <ele>413.1</ele>
        <time>2014-02-23T08:57:58Z</time>
      </trkpt>
      <trkpt lat="43.53192" lon="6.119">
        <ele>413.6</ele>
        <time>2014-02-23T08:58:05Z</time>
      </trkpt>
      <trkpt lat="43.53192" lon="6.11898">
        <ele>413.7</ele>
        <time>2014-02-23T08:58:06Z</time>
      </trkpt>
      <trkpt lat="43.53185" lon="6.1188">
        <ele>413.6</ele>
        <time>2014-02-23T08:58:18Z</time>
      </trkpt>
      <trkpt lat="43.53181" lon="6.1187">
        <ele>413.7</ele>
        <time>2014-02-23T08:58:23Z</time>
      </trkpt>
      <trkpt lat="43.53176" lon="6.11861">
        <ele>413.5</ele>
        <time>2014-02-23T08:58:31Z</time>
      </trkpt>
      <trkpt lat="43.5317" lon="6.11852">
        <ele>414</ele>
        <time>2014-02-23T08:58:38Z</time>
      </trkpt>
      <trkpt lat="43.53164" lon="6.11844">
        <ele>414.1</ele>
        <time>2014-02-23T08:58:46Z</time>
      </trkpt>
      <trkpt lat="43.53157" lon="6.11838">
        <ele>414.9</ele>
        <time>2014-02-23T08:58:53Z</time>
      </trkpt>
      <trkpt lat="43.53152" lon="6.11828">
        <ele>414.3</ele>
        <time>2014-02-23T08:58:59Z</time>
      </trkpt>
      <trkpt lat="43.53146" lon="6.11818">
        <ele>414.4</ele>
        <time>2014-02-23T08:59:06Z</time>
      </trkpt>
      <trkpt lat="43.53146" lon="6.11816">
        <ele>414.4</ele>
        <time>2014-02-23T08:59:07Z</time>
      </trkpt>
      <trkpt lat="43.53147" lon="6.11794">
        <ele>416.1</ele>
        <time>2014-02-23T08:59:21Z</time>
      </trkpt>
      <trkpt lat="43.53148" lon="6.11782">
        <ele>415.8</ele>
        <time>2014-02-23T08:59:27Z</time>
      </trkpt>
      <trkpt lat="43.53147" lon="6.1177">
        <ele>416.2</ele>
        <time>2014-02-23T08:59:35Z</time>
      </trkpt>
      <trkpt lat="43.53141" lon="6.11763">
        <ele>417.1</ele>
        <time>2014-02-23T08:59:41Z</time>
      </trkpt>
      <trkpt lat="43.53137" lon="6.11753">
        <ele>417.2</ele>
        <time>2014-02-23T08:59:48Z</time>
      </trkpt>
      <trkpt lat="43.5313" lon="6.11747">
        <ele>417.5</ele>
        <time>2014-02-23T08:59:57Z</time>
      </trkpt>
      <trkpt lat="43.53124" lon="6.1174">
        <ele>417.4</ele>
        <time>2014-02-23T09:00:04Z</time>
      </trkpt>
      <trkpt lat="43.53118" lon="6.1173">
        <ele>418.1</ele>
        <time>2014-02-23T09:00:11Z</time>
      </trkpt>
      <trkpt lat="43.53117" lon="6.11729">
        <ele>418.3</ele>
        <time>2014-02-23T09:00:12Z</time>
      </trkpt>
      <trkpt lat="43.53111" lon="6.1171">
        <ele>418.9</ele>
        <time>2014-02-23T09:00:25Z</time>
      </trkpt>
      <trkpt lat="43.53111" lon="6.11699">
        <ele>419.9</ele>
        <time>2014-02-23T09:00:35Z</time>
      </trkpt>
      <trkpt lat="43.53113" lon="6.11688">
        <ele>419.9</ele>
        <time>2014-02-23T09:00:42Z</time>
      </trkpt>
      <trkpt lat="43.53111" lon="6.11676">
        <ele>420</ele>
        <time>2014-02-23T09:00:49Z</time>
      </trkpt>
      <trkpt lat="43.53106" lon="6.11666">
        <ele>420.6</ele>
        <time>2014-02-23T09:00:57Z</time>
      </trkpt>
      <trkpt lat="43.53099" lon="6.11659">
        <ele>421.5</ele>
        <time>2014-02-23T09:01:05Z</time>
      </trkpt>
      <trkpt lat="43.53091" lon="6.11657">
        <ele>421.5</ele>
        <time>2014-02-23T09:01:11Z</time>
      </trkpt>
      <trkpt lat="43.53083" lon="6.11654">
        <ele>421.7</ele>
        <time>2014-02-23T09:01:18Z</time>
      </trkpt>
      <trkpt lat="43.53082" lon="6.11654">
        <ele>421.5</ele>
        <time>2014-02-23T09:01:19Z</time>
      </trkpt>
      <trkpt lat="43.53071" lon="6.11638">
        <ele>422.1</ele>
        <time>2014-02-23T09:01:34Z</time>
      </trkpt>
      <trkpt lat="43.53065" lon="6.11629">
        <ele>422.7</ele>
        <time>2014-02-23T09:01:44Z</time>
      </trkpt>
      <trkpt lat="43.53064" lon="6.11618">
        <ele>423.2</ele>
        <time>2014-02-23T09:01:54Z</time>
      </trkpt>
      <trkpt lat="43.53067" lon="6.11608">
        <ele>423</ele>
        <time>2014-02-23T09:02:03Z</time>
      </trkpt>
      <trkpt lat="43.53072" lon="6.11599">
        <ele>423.4</ele>
        <time>2014-02-23T09:02:10Z</time>
      </trkpt>
      <trkpt lat="43.53076" lon="6.11588">
        <ele>423.9</ele>
        <time>2014-02-23T09:02:19Z</time>
      </trkpt>
      <trkpt lat="43.53076" lon="6.11587">
        <ele>424.2</ele>
        <time>2014-02-23T09:02:20Z</time>
      </trkpt>
      <trkpt lat="43.53074" lon="6.11566">
        <ele>425</ele>
        <time>2014-02-23T09:02:31Z</time>
      </trkpt>
      <trkpt lat="43.53067" lon="6.11558">
        <ele>425</ele>
        <time>2014-02-23T09:02:39Z</time>
      </trkpt>
      <trkpt lat="43.5306" lon="6.11551">
        <ele>425.7</ele>
        <time>2014-02-23T09:02:46Z</time>
      </trkpt>
      <trkpt lat="43.53053" lon="6.11546">
        <ele>425.8</ele>
        <time>2014-02-23T09:02:53Z</time>
      </trkpt>
      <trkpt lat="43.53049" lon="6.11536">
        <ele>425.7</ele>
        <time>2014-02-23T09:03:01Z</time>
      </trkpt>
      <trkpt lat="43.53045" lon="6.11525">
        <ele>426.6</ele>
        <time>2014-02-23T09:03:10Z</time>
      </trkpt>
      <trkpt lat="43.53042" lon="6.11514">
        <ele>426.8</ele>
        <time>2014-02-23T09:03:17Z</time>
      </trkpt>
      <trkpt lat="43.53041" lon="6.11502">
        <ele>427.7</ele>
        <time>2014-02-23T09:03:25Z</time>
      </trkpt>
      <trkpt lat="43.53041" lon="6.11501">
        <ele>427.6</ele>
        <time>2014-02-23T09:03:26Z</time>
      </trkpt>
      <trkpt lat="43.53048" lon="6.11481">
        <ele>428</ele>
        <time>2014-02-23T09:03:43Z</time>
      </trkpt>
      <trkpt lat="43.53054" lon="6.11473">
        <ele>429.1</ele>
        <time>2014-02-23T09:03:52Z</time>
      </trkpt>
      <trkpt lat="43.53059" lon="6.11464">
        <ele>429.3</ele>
        <time>2014-02-23T09:04:01Z</time>
      </trkpt>
      <trkpt lat="43.53065" lon="6.11455">
        <ele>430</ele>
        <time>2014-02-23T09:04:11Z</time>
      </trkpt>
      <trkpt lat="43.53071" lon="6.11447">
        <ele>429.5</ele>
        <time>2014-02-23T09:04:20Z</time>
      </trkpt>
      <trkpt lat="43.53077" lon="6.11438">
        <ele>430.7</ele>
        <time>2014-02-23T09:04:29Z</time>
      </trkpt>
      <trkpt lat="43.53077" lon="6.11437">
        <ele>430.6</ele>
        <time>2014-02-23T09:04:30Z</time>
      </trkpt>
      <trkpt lat="43.53091" lon="6.11423">
        <ele>431.6</ele>
        <time>2014-02-23T09:04:46Z</time>
      </trkpt>
      <trkpt lat="43.53097" lon="6.11417">
        <ele>431.8</ele>
        <time>2014-02-23T09:04:52Z</time>
      </trkpt>
      <trkpt lat="43.53104" lon="6.1141">
        <ele>432.5</ele>
        <time>2014-02-23T09:04:59Z</time>
      </trkpt>
      <trkpt lat="43.53111" lon="6.11405">
        <ele>433.3</ele>
        <time>2014-02-23T09:05:10Z</time>
      </trkpt>
      <trkpt lat="43.53118" lon="6.11399">
        <ele>433.8</ele>
        <time>2014-02-23T09:05:16Z</time>
      </trkpt>
      <trkpt lat="43.53124" lon="6.11393">
        <ele>433.7</ele>
        <time>2014-02-23T09:05:20Z</time>
      </trkpt>
      <trkpt lat="43.53131" lon="6.11388">
        <ele>434.6</ele>
        <time>2014-02-23T09:05:31Z</time>
      </trkpt>
      <trkpt lat="43.53133" lon="6.11386">
        <ele>434.4</ele>
        <time>2014-02-23T09:05:32Z</time>
      </trkpt>
      <trkpt lat="43.53142" lon="6.1137">
        <ele>435.1</ele>
        <time>2014-02-23T09:05:46Z</time>
      </trkpt>
      <trkpt lat="43.53147" lon="6.1136">
        <ele>435.3</ele>
        <time>2014-02-23T09:05:54Z</time>
      </trkpt>
      <trkpt lat="43.53152" lon="6.11351">
        <ele>436.1</ele>
        <time>2014-02-23T09:05:59Z</time>
      </trkpt>
      <trkpt lat="43.53157" lon="6.11342">
        <ele>436.2</ele>
        <time>2014-02-23T09:06:06Z</time>
      </trkpt>
      <trkpt lat="43.53161" lon="6.11331">
        <ele>436.6</ele>
        <time>2014-02-23T09:06:13Z</time>
      </trkpt>
      <trkpt lat="43.53164" lon="6.1132">
        <ele>436.7</ele>
        <time>2014-02-23T09:06:21Z</time>
      </trkpt>
      <trkpt lat="43.53168" lon="6.11311">
        <ele>436.8</ele>
        <time>2014-02-23T09:06:28Z</time>
      </trkpt>
      <trkpt lat="43.53171" lon="6.113">
        <ele>437</ele>
        <time>2014-02-23T09:06:36Z</time>
      </trkpt>
      <trkpt lat="43.53172" lon="6.11298">
        <ele>437.2</ele>
        <time>2014-02-23T09:06:37Z</time>
      </trkpt>
      <trkpt lat="43.53176" lon="6.11279">
        <ele>437.4</ele>
        <time>2014-02-23T09:06:46Z</time>
      </trkpt>
      <trkpt lat="43.53178" lon="6.11267">
        <ele>438.1</ele>
        <time>2014-02-23T09:06:50Z</time>
      </trkpt>
      <trkpt lat="43.53179" lon="6.11256">
        <ele>438.8</ele>
        <time>2014-02-23T09:06:56Z</time>
      </trkpt>
      <trkpt lat="43.53179" lon="6.11245">
        <ele>438.3</ele>
        <time>2014-02-23T09:07:03Z</time>
      </trkpt>
      <trkpt lat="43.53178" lon="6.11233">
        <ele>439.6</ele>
        <time>2014-02-23T09:07:10Z</time>
      </trkpt>
      <trkpt lat="43.53177" lon="6.11221">
        <ele>439.5</ele>
        <time>2014-02-23T09:07:18Z</time>
      </trkpt>
      <trkpt lat="43.53176" lon="6.11209">
        <ele>439.7</ele>
        <time>2014-02-23T09:07:26Z</time>
      </trkpt>
      <trkpt lat="43.53176" lon="6.11198">
        <ele>440.1</ele>
        <time>2014-02-23T09:07:33Z</time>
      </trkpt>
      <trkpt lat="43.53176" lon="6.11187">
        <ele>440.7</ele>
        <time>2014-02-23T09:07:39Z</time>
      </trkpt>
      <trkpt lat="43.53176" lon="6.11185">
        <ele>440.8</ele>
        <time>2014-02-23T09:07:40Z</time>
      </trkpt>
      <trkpt lat="43.53177" lon="6.11164">
        <ele>442.1</ele>
        <time>2014-02-23T09:07:57Z</time>
      </trkpt>
      <trkpt lat="43.53181" lon="6.11154">
        <ele>442.2</ele>
        <time>2014-02-23T09:08:05Z</time>
      </trkpt>
      <trkpt lat="43.53188" lon="6.11147">
        <ele>442.6</ele>
        <time>2014-02-23T09:08:13Z</time>
      </trkpt>
      <trkpt lat="43.53193" lon="6.11139">
        <ele>442.7</ele>
        <time>2014-02-23T09:08:21Z</time>
      </trkpt>
      <trkpt lat="43.53196" lon="6.11128">
        <ele>442.3</ele>
        <time>2014-02-23T09:08:27Z</time>
      </trkpt>
      <trkpt lat="43.53197" lon="6.11117">
        <ele>442.9</ele>
        <time>2014-02-23T09:08:32Z</time>
      </trkpt>
      <trkpt lat="43.53196" lon="6.11106">
        <ele>443.7</ele>
        <time>2014-02-23T09:08:38Z</time>
      </trkpt>
      <trkpt lat="43.53193" lon="6.11095">
        <ele>443.8</ele>
        <time>2014-02-23T09:08:45Z</time>
      </trkpt>
      <trkpt lat="43.53193" lon="6.11093">
        <ele>443.8</ele>
        <time>2014-02-23T09:08:46Z</time>
      </trkpt>
      <trkpt lat="43.53189" lon="6.11073">
        <ele>444.3</ele>
        <time>2014-02-23T09:08:59Z</time>
      </trkpt>
      <trkpt lat="43.5319" lon="6.11062">
        <ele>444.5</ele>
        <time>2014-02-23T09:09:05Z</time>
      </trkpt>
      <trkpt lat="43.53188" lon="6.1105">
        <ele>445.2</ele>
        <time>2014-02-23T09:09:13Z</time>
      </trkpt>
      <trkpt lat="43.53184" lon="6.1104">
        <ele>445.4</ele>
        <time>2014-02-23T09:09:19Z</time>
      </trkpt>
      <trkpt lat="43.5318" lon="6.1103">
        <ele>445.1</ele>
        <time>2014-02-23T09:09:26Z</time>
      </trkpt>
      <trkpt lat="43.53178" lon="6.11019">
        <ele>445.3</ele>
        <time>2014-02-23T09:09:33Z</time>
      </trkpt>
      <trkpt lat="43.53174" lon="6.1101">
        <ele>444.9</ele>
        <time>2014-02-23T09:09:39Z</time>
      </trkpt>
      <trkpt lat="43.53169" lon="6.11001">
        <ele>445.1</ele>
        <time>2014-02-23T09:09:47Z</time>
      </trkpt>
      <trkpt lat="43.53168" lon="6.11">
        <ele>445.3</ele>
        <time>2014-02-23T09:09:48Z</time>
      </trkpt>
      <trkpt lat="43.53163" lon="6.10978">
        <ele>446</ele>
        <time>2014-02-23T09:10:02Z</time>
      </trkpt>
      <trkpt lat="43.53164" lon="6.10966">
        <ele>446.9</ele>
        <time>2014-02-23T09:10:10Z</time>
      </trkpt>
      <trkpt lat="43.53162" lon="6.10955">
        <ele>446.9</ele>
        <time>2014-02-23T09:10:17Z</time>
      </trkpt>
      <trkpt lat="43.53161" lon="6.10945">
        <ele>447.6</ele>
        <time>2014-02-23T09:10:23Z</time>
      </trkpt>
      <trkpt lat="43.53157" lon="6.10935">
        <ele>447.4</ele>
        <time>2014-02-23T09:10:30Z</time>
      </trkpt>
      <trkpt lat="43.53154" lon="6.10924">
        <ele>447.7</ele>
        <time>2014-02-23T09:10:38Z</time>
      </trkpt>
      <trkpt lat="43.53149" lon="6.10913">
        <ele>448.7</ele>
        <time>2014-02-23T09:10:46Z</time>
      </trkpt>
      <trkpt lat="43.53142" lon="6.10906">
        <ele>449.6</ele>
        <time>2014-02-23T09:10:53Z</time>
      </trkpt>
      <trkpt lat="43.53141" lon="6.10906">
        <ele>449.8</ele>
        <time>2014-02-23T09:10:54Z</time>
      </trkpt>
      <trkpt lat="43.53129" lon="6.10891">
        <ele>450.4</ele>
        <time>2014-02-23T09:11:08Z</time>
      </trkpt>
      <trkpt lat="43.53124" lon="6.10882">
        <ele>450.8</ele>
        <time>2014-02-23T09:11:17Z</time>
      </trkpt>
      <trkpt lat="43.5312" lon="6.10871">
        <ele>451.2</ele>
        <time>2014-02-23T09:11:25Z</time>
      </trkpt>
      <trkpt lat="43.53117" lon="6.1086">
        <ele>451.5</ele>
        <time>2014-02-23T09:11:32Z</time>
      </trkpt>
      <trkpt lat="43.53114" lon="6.1085">
        <ele>452.1</ele>
        <time>2014-02-23T09:11:39Z</time>
      </trkpt>
      <trkpt lat="43.53114" lon="6.10838">
        <ele>452.6</ele>
        <time>2014-02-23T09:11:46Z</time>
      </trkpt>
      <trkpt lat="43.53116" lon="6.10827">
        <ele>452.1</ele>
        <time>2014-02-23T09:11:51Z</time>
      </trkpt>
      <trkpt lat="43.53113" lon="6.10816">
        <ele>452.9</ele>
        <time>2014-02-23T09:12:01Z</time>
      </trkpt>
      <trkpt lat="43.53113" lon="6.10815">
        <ele>452.8</ele>
        <time>2014-02-23T09:12:02Z</time>
      </trkpt>
      <trkpt lat="43.53119" lon="6.10795">
        <ele>453.3</ele>
        <time>2014-02-23T09:12:14Z</time>
      </trkpt>
      <trkpt lat="43.5312" lon="6.10783">
        <ele>453.6</ele>
        <time>2014-02-23T09:12:20Z</time>
      </trkpt>
      <trkpt lat="43.53116" lon="6.10773">
        <ele>454</ele>
        <time>2014-02-23T09:12:28Z</time>
      </trkpt>
      <trkpt lat="43.53108" lon="6.10768">
        <ele>454.6</ele>
        <time>2014-02-23T09:12:35Z</time>
      </trkpt>
      <trkpt lat="43.531" lon="6.10762">
        <ele>454.8</ele>
        <time>2014-02-23T09:12:42Z</time>
      </trkpt>
      <trkpt lat="43.53092" lon="6.10759">
        <ele>455.3</ele>
        <time>2014-02-23T09:12:50Z</time>
      </trkpt>
      <trkpt lat="43.53083" lon="6.10753">
        <ele>454.7</ele>
        <time>2014-02-23T09:13:23Z</time>
      </trkpt>
      <trkpt lat="43.53083" lon="6.10753">
        <ele>454.6</ele>
        <time>2014-02-23T09:13:24Z</time>
      </trkpt>
      <trkpt lat="43.53076" lon="6.10745">
        <ele>455.1</ele>
        <time>2014-02-23T09:14:36Z</time>
      </trkpt>
      <trkpt lat="43.53063" lon="6.10732">
        <ele>455.2</ele>
        <time>2014-02-23T09:14:47Z</time>
      </trkpt>
      <trkpt lat="43.53057" lon="6.10726">
        <ele>455</ele>
        <time>2014-02-23T09:14:52Z</time>
      </trkpt>
      <trkpt lat="43.53053" lon="6.10716">
        <ele>454.7</ele>
        <time>2014-02-23T09:14:58Z</time>
      </trkpt>
      <trkpt lat="43.5306" lon="6.10709">
        <ele>454.1</ele>
        <time>2014-02-23T09:19:23Z</time>
      </trkpt>
      <trkpt lat="43.5306" lon="6.10708">
        <ele>453.9</ele>
        <time>2014-02-23T09:19:24Z</time>
      </trkpt>
      <trkpt lat="43.53073" lon="6.10696">
        <ele>452.8</ele>
        <time>2014-02-23T09:19:42Z</time>
      </trkpt>
      <trkpt lat="43.5308" lon="6.10689">
        <ele>453.1</ele>
        <time>2014-02-23T09:20:00Z</time>
      </trkpt>
      <trkpt lat="43.53088" lon="6.10684">
        <ele>452.6</ele>
        <time>2014-02-23T09:20:07Z</time>
      </trkpt>
      <trkpt lat="43.53096" lon="6.10677">
        <ele>452.9</ele>
        <time>2014-02-23T09:20:15Z</time>
      </trkpt>
      <trkpt lat="43.53103" lon="6.10672">
        <ele>452.3</ele>
        <time>2014-02-23T09:20:20Z</time>
      </trkpt>
      <trkpt lat="43.53109" lon="6.10663">
        <ele>452.3</ele>
        <time>2014-02-23T09:20:29Z</time>
      </trkpt>
      <trkpt lat="43.5311" lon="6.10661">
        <ele>452.3</ele>
        <time>2014-02-23T09:20:30Z</time>
      </trkpt>
      <trkpt lat="43.53121" lon="6.10647">
        <ele>451.9</ele>
        <time>2014-02-23T09:20:42Z</time>
      </trkpt>
      <trkpt lat="43.53127" lon="6.1064">
        <ele>452.1</ele>
        <time>2014-02-23T09:20:49Z</time>
      </trkpt>
      <trkpt lat="43.53133" lon="6.10631">
        <ele>451.6</ele>
        <time>2014-02-23T09:20:56Z</time>
      </trkpt>
      <trkpt lat="43.5314" lon="6.10623">
        <ele>451.9</ele>
        <time>2014-02-23T09:21:04Z</time>
      </trkpt>
      <trkpt lat="43.53146" lon="6.10616">
        <ele>452.1</ele>
        <time>2014-02-23T09:21:12Z</time>
      </trkpt>
      <trkpt lat="43.53155" lon="6.10613">
        <ele>451.5</ele>
        <time>2014-02-23T09:21:18Z</time>
      </trkpt>
      <trkpt lat="43.53163" lon="6.1061">
        <ele>451.8</ele>
        <time>2014-02-23T09:21:25Z</time>
      </trkpt>
      <trkpt lat="43.53171" lon="6.10608">
        <ele>451.5</ele>
        <time>2014-02-23T09:21:31Z</time>
      </trkpt>
      <trkpt lat="43.53173" lon="6.10606">
        <ele>451.5</ele>
        <time>2014-02-23T09:21:32Z</time>
      </trkpt>
      <trkpt lat="43.53187" lon="6.10601">
        <ele>451.5</ele>
        <time>2014-02-23T09:21:43Z</time>
      </trkpt>
      <trkpt lat="43.53193" lon="6.10593">
        <ele>451.9</ele>
        <time>2014-02-23T09:21:51Z</time>
      </trkpt>
      <trkpt lat="43.53199" lon="6.10586">
        <ele>451.2</ele>
        <time>2014-02-23T09:21:59Z</time>
      </trkpt>
      <trkpt lat="43.53207" lon="6.10582">
        <ele>452.7</ele>
        <time>2014-02-23T09:22:06Z</time>
      </trkpt>
      <trkpt lat="43.53214" lon="6.10576">
        <ele>453.1</ele>
        <time>2014-02-23T09:22:11Z</time>
      </trkpt>
      <trkpt lat="43.53222" lon="6.10572">
        <ele>453.4</ele>
        <time>2014-02-23T09:22:20Z</time>
      </trkpt>
      <trkpt lat="43.53229" lon="6.10567">
        <ele>453.7</ele>
        <time>2014-02-23T09:22:26Z</time>
      </trkpt>
      <trkpt lat="43.53236" lon="6.1056">
        <ele>453.8</ele>
        <time>2014-02-23T09:22:33Z</time>
      </trkpt>
      <trkpt lat="43.53238" lon="6.10559">
        <ele>453.8</ele>
        <time>2014-02-23T09:22:34Z</time>
      </trkpt>
      <trkpt lat="43.53247" lon="6.10543">
        <ele>453.4</ele>
        <time>2014-02-23T09:22:47Z</time>
      </trkpt>
      <trkpt lat="43.53255" lon="6.10536">
        <ele>455</ele>
        <time>2014-02-23T09:23:14Z</time>
      </trkpt>
      <trkpt lat="43.53262" lon="6.10532">
        <ele>458.7</ele>
        <time>2014-02-23T09:23:34Z</time>
      </trkpt>
      <trkpt lat="43.53263" lon="6.10532">
        <ele>458.8</ele>
        <time>2014-02-23T09:23:35Z</time>
      </trkpt>
      <trkpt lat="43.53278" lon="6.10524">
        <ele>461.5</ele>
        <time>2014-02-23T09:23:56Z</time>
      </trkpt>
      <trkpt lat="43.53286" lon="6.10524">
        <ele>462.8</ele>
        <time>2014-02-23T09:24:07Z</time>
      </trkpt>
      <trkpt lat="43.53294" lon="6.10523">
        <ele>463.6</ele>
        <time>2014-02-23T09:24:15Z</time>
      </trkpt>
      <trkpt lat="43.53303" lon="6.10519">
        <ele>465.6</ele>
        <time>2014-02-23T09:24:29Z</time>
      </trkpt>
      <trkpt lat="43.53311" lon="6.10515">
        <ele>466.3</ele>
        <time>2014-02-23T09:24:38Z</time>
      </trkpt>
      <trkpt lat="43.53312" lon="6.10515">
        <ele>466.5</ele>
        <time>2014-02-23T09:24:39Z</time>
      </trkpt>
      <trkpt lat="43.53325" lon="6.10501">
        <ele>469.6</ele>
        <time>2014-02-23T09:25:00Z</time>
      </trkpt>
      <trkpt lat="43.53331" lon="6.10494">
        <ele>470.6</ele>
        <time>2014-02-23T09:25:08Z</time>
      </trkpt>
      <trkpt lat="43.5334" lon="6.10491">
        <ele>472.8</ele>
        <time>2014-02-23T09:25:25Z</time>
      </trkpt>
      <trkpt lat="43.53347" lon="6.10484">
        <ele>474.3</ele>
        <time>2014-02-23T09:25:37Z</time>
      </trkpt>
      <trkpt lat="43.53353" lon="6.10475">
        <ele>475.6</ele>
        <time>2014-02-23T09:25:49Z</time>
      </trkpt>
      <trkpt lat="43.53353" lon="6.10475">
        <ele>475.7</ele>
        <time>2014-02-23T09:25:50Z</time>
      </trkpt>
      <trkpt lat="43.53368" lon="6.10464">
        <ele>478.5</ele>
        <time>2014-02-23T09:26:19Z</time>
      </trkpt>
      <trkpt lat="43.53376" lon="6.10459">
        <ele>479.2</ele>
        <time>2014-02-23T09:26:29Z</time>
      </trkpt>
      <trkpt lat="43.53383" lon="6.10452">
        <ele>480.9</ele>
        <time>2014-02-23T09:26:40Z</time>
      </trkpt>
      <trkpt lat="43.5339" lon="6.10445">
        <ele>482.5</ele>
        <time>2014-02-23T09:26:53Z</time>
      </trkpt>
      <trkpt lat="43.5339" lon="6.10445">
        <ele>482.7</ele>
        <time>2014-02-23T09:26:54Z</time>
      </trkpt>
      <trkpt lat="43.53401" lon="6.10427">
        <ele>486.3</ele>
        <time>2014-02-23T09:27:17Z</time>
      </trkpt>
      <trkpt lat="43.53408" lon="6.10421">
        <ele>488.6</ele>
        <time>2014-02-23T09:27:32Z</time>
      </trkpt>
      <trkpt lat="43.53416" lon="6.10416">
        <ele>495.6</ele>
        <time>2014-02-23T09:28:21Z</time>
      </trkpt>
      <trkpt lat="43.53417" lon="6.10416">
        <ele>495.7</ele>
        <time>2014-02-23T09:28:22Z</time>
      </trkpt>
      <trkpt lat="43.53432" lon="6.10411">
        <ele>501.7</ele>
        <time>2014-02-23T09:29:07Z</time>
      </trkpt>
      <trkpt lat="43.5344" lon="6.10415">
        <ele>506.2</ele>
        <time>2014-02-23T09:30:10Z</time>
      </trkpt>
      <trkpt lat="43.53441" lon="6.10415">
        <ele>506.3</ele>
        <time>2014-02-23T09:30:11Z</time>
      </trkpt>
      <trkpt lat="43.53457" lon="6.10414">
        <ele>514.5</ele>
        <time>2014-02-23T09:31:05Z</time>
      </trkpt>
      <trkpt lat="43.53466" lon="6.10418">
        <ele>517.6</ele>
        <time>2014-02-23T09:31:23Z</time>
      </trkpt>
      <trkpt lat="43.53466" lon="6.10418">
        <ele>517.8</ele>
        <time>2014-02-23T09:31:24Z</time>
      </trkpt>
      <trkpt lat="43.53484" lon="6.10416">
        <ele>523.2</ele>
        <time>2014-02-23T09:32:03Z</time>
      </trkpt>
      <trkpt lat="43.53492" lon="6.10414">
        <ele>528.4</ele>
        <time>2014-02-23T09:32:39Z</time>
      </trkpt>
      <trkpt lat="43.53493" lon="6.10414">
        <ele>528.5</ele>
        <time>2014-02-23T09:32:40Z</time>
      </trkpt>
      <trkpt lat="43.53509" lon="6.10423">
        <ele>535</ele>
        <time>2014-02-23T09:33:22Z</time>
      </trkpt>
      <trkpt lat="43.53517" lon="6.10429">
        <ele>539.7</ele>
        <time>2014-02-23T09:33:56Z</time>
      </trkpt>
      <trkpt lat="43.53517" lon="6.10429">
        <ele>539.7</ele>
        <time>2014-02-23T09:33:57Z</time>
      </trkpt>
      <trkpt lat="43.53526" lon="6.10432">
        <ele>540.5</ele>
        <time>2014-02-23T09:34:59Z</time>
      </trkpt>
      <trkpt lat="43.5354" lon="6.10444">
        <ele>546.2</ele>
        <time>2014-02-23T09:36:04Z</time>
      </trkpt>
      <trkpt lat="43.5354" lon="6.10445">
        <ele>546.2</ele>
        <time>2014-02-23T09:36:05Z</time>
      </trkpt>
      <trkpt lat="43.53548" lon="6.10448">
        <ele>552.4</ele>
        <time>2014-02-23T09:38:42Z</time>
      </trkpt>
      <trkpt lat="43.53563" lon="6.10458">
        <ele>563.6</ele>
        <time>2014-02-23T09:39:52Z</time>
      </trkpt>
      <trkpt lat="43.53564" lon="6.10458">
        <ele>563.8</ele>
        <time>2014-02-23T09:39:53Z</time>
      </trkpt>
      <trkpt lat="43.53573" lon="6.10477">
        <ele>570.1</ele>
        <time>2014-02-23T09:41:02Z</time>
      </trkpt>
      <trkpt lat="43.53573" lon="6.10477">
        <ele>570.1</ele>
        <time>2014-02-23T09:41:03Z</time>
      </trkpt>
      <trkpt lat="43.53586" lon="6.10492">
        <ele>581.8</ele>
        <time>2014-02-23T09:42:19Z</time>
      </trkpt>
      <trkpt lat="43.53587" lon="6.10492">
        <ele>581.9</ele>
        <time>2014-02-23T09:42:20Z</time>
      </trkpt>
      <trkpt lat="43.53603" lon="6.10486">
        <ele>587.3</ele>
        <time>2014-02-23T09:42:47Z</time>
      </trkpt>
      <trkpt lat="43.53611" lon="6.10485">
        <ele>590.1</ele>
        <time>2014-02-23T09:43:01Z</time>
      </trkpt>
      <trkpt lat="43.53618" lon="6.10493">
        <ele>594.8</ele>
        <time>2014-02-23T09:43:28Z</time>
      </trkpt>
      <trkpt lat="43.53618" lon="6.10494">
        <ele>595</ele>
        <time>2014-02-23T09:43:29Z</time>
      </trkpt>
      <trkpt lat="43.5363" lon="6.10509">
        <ele>596.4</ele>
        <time>2014-02-23T09:43:57Z</time>
      </trkpt>
      <trkpt lat="43.53634" lon="6.10519">
        <ele>596.5</ele>
        <time>2014-02-23T09:44:05Z</time>
      </trkpt>
      <trkpt lat="43.5364" lon="6.10528">
        <ele>596.3</ele>
        <time>2014-02-23T09:44:14Z</time>
      </trkpt>
      <trkpt lat="43.53647" lon="6.10521">
        <ele>596.6</ele>
        <time>2014-02-23T09:44:39Z</time>
      </trkpt>
      <trkpt lat="43.53648" lon="6.10521">
        <ele>596.6</ele>
        <time>2014-02-23T09:44:40Z</time>
      </trkpt>
      <trkpt lat="43.53656" lon="6.10522">
        <ele>594.4</ele>
        <time>2014-02-23T09:47:51Z</time>
      </trkpt>
      <trkpt lat="43.53663" lon="6.10501">
        <ele>594.6</ele>
        <time>2014-02-23T09:48:49Z</time>
      </trkpt>
      <trkpt lat="43.53669" lon="6.10492">
        <ele>595.2</ele>
        <time>2014-02-23T09:49:00Z</time>
      </trkpt>
      <trkpt lat="43.5367" lon="6.10491">
        <ele>595.3</ele>
        <time>2014-02-23T09:49:01Z</time>
      </trkpt>
      <trkpt lat="43.53674" lon="6.10511">
        <ele>594.4</ele>
        <time>2014-02-23T09:49:34Z</time>
      </trkpt>
      <trkpt lat="43.53672" lon="6.10523">
        <ele>594.6</ele>
        <time>2014-02-23T09:49:44Z</time>
      </trkpt>
      <trkpt lat="43.5367" lon="6.10535">
        <ele>594.2</ele>
        <time>2014-02-23T09:49:54Z</time>
      </trkpt>
      <trkpt lat="43.53668" lon="6.10546">
        <ele>594.4</ele>
        <time>2014-02-23T09:50:02Z</time>
      </trkpt>
      <trkpt lat="43.53668" lon="6.10547">
        <ele>594</ele>
        <time>2014-02-23T09:50:03Z</time>
      </trkpt>
      <trkpt lat="43.53671" lon="6.10569">
        <ele>592.2</ele>
        <time>2014-02-23T09:50:21Z</time>
      </trkpt>
      <trkpt lat="43.53673" lon="6.1058">
        <ele>590.9</ele>
        <time>2014-02-23T09:50:31Z</time>
      </trkpt>
      <trkpt lat="43.53675" lon="6.10591">
        <ele>589.9</ele>
        <time>2014-02-23T09:50:40Z</time>
      </trkpt>
      <trkpt lat="43.53678" lon="6.10602">
        <ele>589.5</ele>
        <time>2014-02-23T09:50:48Z</time>
      </trkpt>
      <trkpt lat="43.53683" lon="6.10611">
        <ele>589.1</ele>
        <time>2014-02-23T09:50:56Z</time>
      </trkpt>
      <trkpt lat="43.53685" lon="6.10623">
        <ele>588.4</ele>
        <time>2014-02-23T09:51:05Z</time>
      </trkpt>
      <trkpt lat="43.53685" lon="6.10625">
        <ele>588.3</ele>
        <time>2014-02-23T09:51:06Z</time>
      </trkpt>
      <trkpt lat="43.53692" lon="6.10643">
        <ele>587</ele>
        <time>2014-02-23T09:51:21Z</time>
      </trkpt>
      <trkpt lat="43.53692" lon="6.10655">
        <ele>585.8</ele>
        <time>2014-02-23T09:51:29Z</time>
      </trkpt>
      <trkpt lat="43.53695" lon="6.10666">
        <ele>584.9</ele>
        <time>2014-02-23T09:51:38Z</time>
      </trkpt>
      <trkpt lat="43.53699" lon="6.10675">
        <ele>583.8</ele>
        <time>2014-02-23T09:51:48Z</time>
      </trkpt>
      <trkpt lat="43.53703" lon="6.10685">
        <ele>582.6</ele>
        <time>2014-02-23T09:51:59Z</time>
      </trkpt>
      <trkpt lat="43.5371" lon="6.10694">
        <ele>581.2</ele>
        <time>2014-02-23T09:52:10Z</time>
      </trkpt>
      <trkpt lat="43.5371" lon="6.10695">
        <ele>581.2</ele>
        <time>2014-02-23T09:52:11Z</time>
      </trkpt>
      <trkpt lat="43.53717" lon="6.10715">
        <ele>579</ele>
        <time>2014-02-23T09:52:29Z</time>
      </trkpt>
      <trkpt lat="43.53719" lon="6.10726">
        <ele>577.8</ele>
        <time>2014-02-23T09:52:40Z</time>
      </trkpt>
      <trkpt lat="43.53721" lon="6.10737">
        <ele>576.2</ele>
        <time>2014-02-23T09:52:51Z</time>
      </trkpt>
      <trkpt lat="43.53722" lon="6.10749">
        <ele>575.4</ele>
        <time>2014-02-23T09:53:00Z</time>
      </trkpt>
      <trkpt lat="43.53723" lon="6.10761">
        <ele>573.7</ele>
        <time>2014-02-23T09:53:09Z</time>
      </trkpt>
      <trkpt lat="43.53725" lon="6.10772">
        <ele>573.6</ele>
        <time>2014-02-23T09:53:18Z</time>
      </trkpt>
      <trkpt lat="43.53726" lon="6.10774">
        <ele>573.6</ele>
        <time>2014-02-23T09:53:19Z</time>
      </trkpt>
      <trkpt lat="43.53734" lon="6.10791">
        <ele>570.9</ele>
        <time>2014-02-23T09:53:34Z</time>
      </trkpt>
      <trkpt lat="43.53742" lon="6.10796">
        <ele>569.4</ele>
        <time>2014-02-23T09:53:44Z</time>
      </trkpt>
      <trkpt lat="43.5375" lon="6.10801">
        <ele>568</ele>
        <time>2014-02-23T09:53:54Z</time>
      </trkpt>
      <trkpt lat="43.53758" lon="6.10802">
        <ele>566.6</ele>
        <time>2014-02-23T09:54:03Z</time>
      </trkpt>
      <trkpt lat="43.53767" lon="6.10804">
        <ele>565.6</ele>
        <time>2014-02-23T09:54:22Z</time>
      </trkpt>
      <trkpt lat="43.53768" lon="6.10805">
        <ele>565.4</ele>
        <time>2014-02-23T09:54:23Z</time>
      </trkpt>
      <trkpt lat="43.53781" lon="6.10818">
        <ele>562</ele>
        <time>2014-02-23T09:55:00Z</time>
      </trkpt>
      <trkpt lat="43.53785" lon="6.10829">
        <ele>560.6</ele>
        <time>2014-02-23T09:57:22Z</time>
      </trkpt>
      <trkpt lat="43.53785" lon="6.10829">
        <ele>560.6</ele>
        <time>2014-02-23T09:57:23Z</time>
      </trkpt>
      <trkpt lat="43.53778" lon="6.10822">
        <ele>561.7</ele>
        <time>2014-02-23T09:58:58Z</time>
      </trkpt>
      <trkpt lat="43.53787" lon="6.10841">
        <ele>558.3</ele>
        <time>2014-02-23T09:59:58Z</time>
      </trkpt>
      <trkpt lat="43.53787" lon="6.10842">
        <ele>558.3</ele>
        <time>2014-02-23T09:59:59Z</time>
      </trkpt>
      <trkpt lat="43.53792" lon="6.10863">
        <ele>556.7</ele>
        <time>2014-02-23T10:00:14Z</time>
      </trkpt>
      <trkpt lat="43.53795" lon="6.10874">
        <ele>556.4</ele>
        <time>2014-02-23T10:00:21Z</time>
      </trkpt>
      <trkpt lat="43.53798" lon="6.10885">
        <ele>555.2</ele>
        <time>2014-02-23T10:00:33Z</time>
      </trkpt>
      <trkpt lat="43.53804" lon="6.10894">
        <ele>553.8</ele>
        <time>2014-02-23T10:00:40Z</time>
      </trkpt>
      <trkpt lat="43.53808" lon="6.10904">
        <ele>552.8</ele>
        <time>2014-02-23T10:00:49Z</time>
      </trkpt>
      <trkpt lat="43.53812" lon="6.10914">
        <ele>552.2</ele>
        <time>2014-02-23T10:00:57Z</time>
      </trkpt>
      <trkpt lat="43.53817" lon="6.10924">
        <ele>551.4</ele>
        <time>2014-02-23T10:01:02Z</time>
      </trkpt>
      <trkpt lat="43.53817" lon="6.10925">
        <ele>551.1</ele>
        <time>2014-02-23T10:01:03Z</time>
      </trkpt>
      <trkpt lat="43.53825" lon="6.10944">
        <ele>548.4</ele>
        <time>2014-02-23T10:01:17Z</time>
      </trkpt>
      <trkpt lat="43.53831" lon="6.10953">
        <ele>549.2</ele>
        <time>2014-02-23T10:01:24Z</time>
      </trkpt>
      <trkpt lat="43.53835" lon="6.10962">
        <ele>549</ele>
        <time>2014-02-23T10:01:34Z</time>
      </trkpt>
      <trkpt lat="43.53841" lon="6.10972">
        <ele>548.7</ele>
        <time>2014-02-23T10:02:36Z</time>
      </trkpt>
      <trkpt lat="43.53841" lon="6.10972">
        <ele>548.7</ele>
        <time>2014-02-23T10:02:37Z</time>
      </trkpt>
      <trkpt lat="43.53845" lon="6.10961">
        <ele>547.6</ele>
        <time>2014-02-23T10:05:36Z</time>
      </trkpt>
      <trkpt lat="43.53862" lon="6.10962">
        <ele>544.2</ele>
        <time>2014-02-23T10:05:56Z</time>
      </trkpt>
      <trkpt lat="43.53868" lon="6.10969">
        <ele>543.6</ele>
        <time>2014-02-23T10:06:01Z</time>
      </trkpt>
      <trkpt lat="43.53875" lon="6.10976">
        <ele>542.1</ele>
        <time>2014-02-23T10:06:08Z</time>
      </trkpt>
      <trkpt lat="43.53881" lon="6.10982">
        <ele>541.8</ele>
        <time>2014-02-23T10:06:13Z</time>
      </trkpt>
      <trkpt lat="43.53889" lon="6.10987">
        <ele>539.8</ele>
        <time>2014-02-23T10:06:21Z</time>
      </trkpt>
      <trkpt lat="43.53896" lon="6.10992">
        <ele>539.6</ele>
        <time>2014-02-23T10:06:27Z</time>
      </trkpt>
      <trkpt lat="43.53904" lon="6.10995">
        <ele>539</ele>
        <time>2014-02-23T10:06:34Z</time>
      </trkpt>
      <trkpt lat="43.53911" lon="6.11002">
        <ele>538.1</ele>
        <time>2014-02-23T10:06:41Z</time>
      </trkpt>
      <trkpt lat="43.53911" lon="6.11003">
        <ele>537.9</ele>
        <time>2014-02-23T10:06:42Z</time>
      </trkpt>
      <trkpt lat="43.5392" lon="6.11021">
        <ele>535.3</ele>
        <time>2014-02-23T10:06:58Z</time>
      </trkpt>
      <trkpt lat="43.53914" lon="6.1103">
        <ele>534.1</ele>
        <time>2014-02-23T10:07:17Z</time>
      </trkpt>
      <trkpt lat="43.53914" lon="6.11041">
        <ele>532.4</ele>
        <time>2014-02-23T10:07:29Z</time>
      </trkpt>
      <trkpt lat="43.53915" lon="6.11053">
        <ele>530.7</ele>
        <time>2014-02-23T10:07:38Z</time>
      </trkpt>
      <trkpt lat="43.5392" lon="6.11063">
        <ele>529.3</ele>
        <time>2014-02-23T10:07:44Z</time>
      </trkpt>
      <trkpt lat="43.53921" lon="6.11064">
        <ele>529.1</ele>
        <time>2014-02-23T10:07:45Z</time>
      </trkpt>
      <trkpt lat="43.53928" lon="6.1108">
        <ele>526.4</ele>
        <time>2014-02-23T10:08:00Z</time>
      </trkpt>
      <trkpt lat="43.53933" lon="6.11089">
        <ele>524.7</ele>
        <time>2014-02-23T10:08:06Z</time>
      </trkpt>
      <trkpt lat="43.53938" lon="6.11099">
        <ele>523.3</ele>
        <time>2014-02-23T10:08:13Z</time>
      </trkpt>
      <trkpt lat="43.53945" lon="6.11107">
        <ele>521.4</ele>
        <time>2014-02-23T10:08:20Z</time>
      </trkpt>
      <trkpt lat="43.53951" lon="6.11114">
        <ele>520.2</ele>
        <time>2014-02-23T10:08:25Z</time>
      </trkpt>
      <trkpt lat="43.53957" lon="6.11122">
        <ele>517.9</ele>
        <time>2014-02-23T10:08:35Z</time>
      </trkpt>
      <trkpt lat="43.53961" lon="6.11131">
        <ele>516.5</ele>
        <time>2014-02-23T10:08:41Z</time>
      </trkpt>
      <trkpt lat="43.53967" lon="6.11139">
        <ele>514.8</ele>
        <time>2014-02-23T10:08:46Z</time>
      </trkpt>
      <trkpt lat="43.53968" lon="6.11141">
        <ele>514.5</ele>
        <time>2014-02-23T10:08:47Z</time>
      </trkpt>
      <trkpt lat="43.53977" lon="6.11155">
        <ele>510.8</ele>
        <time>2014-02-23T10:09:24Z</time>
      </trkpt>
      <trkpt lat="43.53982" lon="6.11165">
        <ele>509.8</ele>
        <time>2014-02-23T10:09:30Z</time>
      </trkpt>
      <trkpt lat="43.53983" lon="6.11177">
        <ele>508.2</ele>
        <time>2014-02-23T10:09:37Z</time>
      </trkpt>
      <trkpt lat="43.53983" lon="6.11188">
        <ele>507.3</ele>
        <time>2014-02-23T10:09:44Z</time>
      </trkpt>
      <trkpt lat="43.53985" lon="6.112">
        <ele>505.8</ele>
        <time>2014-02-23T10:09:51Z</time>
      </trkpt>
      <trkpt lat="43.53985" lon="6.11201">
        <ele>505.5</ele>
        <time>2014-02-23T10:09:52Z</time>
      </trkpt>
      <trkpt lat="43.54" lon="6.112">
        <ele>501.3</ele>
        <time>2014-02-23T10:10:15Z</time>
      </trkpt>
      <trkpt lat="43.54006" lon="6.11193">
        <ele>501.8</ele>
        <time>2014-02-23T10:10:19Z</time>
      </trkpt>
      <trkpt lat="43.54011" lon="6.11188">
        <ele>501.3</ele>
        <time>2014-02-23T10:10:21Z</time>
      </trkpt>
      <trkpt lat="43.54015" lon="6.11179">
        <ele>501</ele>
        <time>2014-02-23T10:10:25Z</time>
      </trkpt>
      <trkpt lat="43.54021" lon="6.1117">
        <ele>500.3</ele>
        <time>2014-02-23T10:10:32Z</time>
      </trkpt>
      <trkpt lat="43.54027" lon="6.11161">
        <ele>498.2</ele>
        <time>2014-02-23T10:10:40Z</time>
      </trkpt>
      <trkpt lat="43.54035" lon="6.11155">
        <ele>497.1</ele>
        <time>2014-02-23T10:10:46Z</time>
      </trkpt>
      <trkpt lat="43.5404" lon="6.11146">
        <ele>493.4</ele>
        <time>2014-02-23T10:11:07Z</time>
      </trkpt>
      <trkpt lat="43.54041" lon="6.11146">
        <ele>493.1</ele>
        <time>2014-02-23T10:11:08Z</time>
      </trkpt>
      <trkpt lat="43.54052" lon="6.11129">
        <ele>491.9</ele>
        <time>2014-02-23T10:13:10Z</time>
      </trkpt>
      <trkpt lat="43.54052" lon="6.11128">
        <ele>491.6</ele>
        <time>2014-02-23T10:13:11Z</time>
      </trkpt>
      <trkpt lat="43.54065" lon="6.11117">
        <ele>488.4</ele>
        <time>2014-02-23T10:13:24Z</time>
      </trkpt>
      <trkpt lat="43.54074" lon="6.11115">
        <ele>487.2</ele>
        <time>2014-02-23T10:13:32Z</time>
      </trkpt>
      <trkpt lat="43.54081" lon="6.11111">
        <ele>486.3</ele>
        <time>2014-02-23T10:13:39Z</time>
      </trkpt>
      <trkpt lat="43.54089" lon="6.11112">
        <ele>485</ele>
        <time>2014-02-23T10:13:45Z</time>
      </trkpt>
      <trkpt lat="43.54097" lon="6.11111">
        <ele>481.6</ele>
        <time>2014-02-23T10:13:57Z</time>
      </trkpt>
      <trkpt lat="43.54105" lon="6.11115">
        <ele>479.2</ele>
        <time>2014-02-23T10:14:07Z</time>
      </trkpt>
      <trkpt lat="43.54114" lon="6.11117">
        <ele>478</ele>
        <time>2014-02-23T10:14:12Z</time>
      </trkpt>
      <trkpt lat="43.54115" lon="6.11118">
        <ele>477.9</ele>
        <time>2014-02-23T10:14:13Z</time>
      </trkpt>
      <trkpt lat="43.54129" lon="6.1112">
        <ele>476</ele>
        <time>2014-02-23T10:14:25Z</time>
      </trkpt>
      <trkpt lat="43.54136" lon="6.11122">
        <ele>474.3</ele>
        <time>2014-02-23T10:14:30Z</time>
      </trkpt>
      <trkpt lat="43.54144" lon="6.11121">
        <ele>473.6</ele>
        <time>2014-02-23T10:14:34Z</time>
      </trkpt>
      <trkpt lat="43.54151" lon="6.11122">
        <ele>473.8</ele>
        <time>2014-02-23T10:14:38Z</time>
      </trkpt>
      <trkpt lat="43.54159" lon="6.11125">
        <ele>472.8</ele>
        <time>2014-02-23T10:14:42Z</time>
      </trkpt>
      <trkpt lat="43.54166" lon="6.11128">
        <ele>472.5</ele>
        <time>2014-02-23T10:14:45Z</time>
      </trkpt>
      <trkpt lat="43.54173" lon="6.11134">
        <ele>471.9</ele>
        <time>2014-02-23T10:14:50Z</time>
      </trkpt>
      <trkpt lat="43.54177" lon="6.11145">
        <ele>469.5</ele>
        <time>2014-02-23T10:15:03Z</time>
      </trkpt>
      <trkpt lat="43.5418" lon="6.11155">
        <ele>469.2</ele>
        <time>2014-02-23T10:15:08Z</time>
      </trkpt>
      <trkpt lat="43.54185" lon="6.11165">
        <ele>468.3</ele>
        <time>2014-02-23T10:15:13Z</time>
      </trkpt>
      <trkpt lat="43.54186" lon="6.11166">
        <ele>467.7</ele>
        <time>2014-02-23T10:15:14Z</time>
      </trkpt>
      <trkpt lat="43.54199" lon="6.1118">
        <ele>466.3</ele>
        <time>2014-02-23T10:15:29Z</time>
      </trkpt>
      <trkpt lat="43.54206" lon="6.11183">
        <ele>466.6</ele>
        <time>2014-02-23T10:15:36Z</time>
      </trkpt>
      <trkpt lat="43.54214" lon="6.1119">
        <ele>465.9</ele>
        <time>2014-02-23T10:15:44Z</time>
      </trkpt>
      <trkpt lat="43.54221" lon="6.1119">
        <ele>465.4</ele>
        <time>2014-02-23T10:15:49Z</time>
      </trkpt>
      <trkpt lat="43.54229" lon="6.11188">
        <ele>465.1</ele>
        <time>2014-02-23T10:15:54Z</time>
      </trkpt>
      <trkpt lat="43.54237" lon="6.11188">
        <ele>464.3</ele>
        <time>2014-02-23T10:16:00Z</time>
      </trkpt>
      <trkpt lat="43.54246" lon="6.1119">
        <ele>463.8</ele>
        <time>2014-02-23T10:16:07Z</time>
      </trkpt>
      <trkpt lat="43.54254" lon="6.11193">
        <ele>462.5</ele>
        <time>2014-02-23T10:16:15Z</time>
      </trkpt>
      <trkpt lat="43.54255" lon="6.11194">
        <ele>462.4</ele>
        <time>2014-02-23T10:16:16Z</time>
      </trkpt>
      <trkpt lat="43.54268" lon="6.11205">
        <ele>460.2</ele>
        <time>2014-02-23T10:16:31Z</time>
      </trkpt>
      <trkpt lat="43.54275" lon="6.11212">
        <ele>459.1</ele>
        <time>2014-02-23T10:16:41Z</time>
      </trkpt>
      <trkpt lat="43.54282" lon="6.11214">
        <ele>458</ele>
        <time>2014-02-23T10:16:51Z</time>
      </trkpt>
      <trkpt lat="43.5429" lon="6.11216">
        <ele>457</ele>
        <time>2014-02-23T10:16:58Z</time>
      </trkpt>
      <trkpt lat="43.54299" lon="6.11219">
        <ele>456.3</ele>
        <time>2014-02-23T10:17:06Z</time>
      </trkpt>
      <trkpt lat="43.54306" lon="6.11222">
        <ele>455.3</ele>
        <time>2014-02-23T10:17:14Z</time>
      </trkpt>
      <trkpt lat="43.54313" lon="6.11226">
        <ele>454.3</ele>
        <time>2014-02-23T10:17:20Z</time>
      </trkpt>
      <trkpt lat="43.54314" lon="6.11227">
        <ele>454.2</ele>
        <time>2014-02-23T10:17:21Z</time>
      </trkpt>
      <trkpt lat="43.54328" lon="6.11233">
        <ele>453</ele>
        <time>2014-02-23T10:17:34Z</time>
      </trkpt>
      <trkpt lat="43.54336" lon="6.11239">
        <ele>452.4</ele>
        <time>2014-02-23T10:17:40Z</time>
      </trkpt>
      <trkpt lat="43.54343" lon="6.11245">
        <ele>452</ele>
        <time>2014-02-23T10:17:46Z</time>
      </trkpt>
      <trkpt lat="43.54348" lon="6.11253">
        <ele>451</ele>
        <time>2014-02-23T10:17:54Z</time>
      </trkpt>
      <trkpt lat="43.54355" lon="6.1126">
        <ele>450.6</ele>
        <time>2014-02-23T10:18:06Z</time>
      </trkpt>
      <trkpt lat="43.54363" lon="6.11267">
        <ele>450.4</ele>
        <time>2014-02-23T10:18:18Z</time>
      </trkpt>
      <trkpt lat="43.54371" lon="6.11272">
        <ele>449.4</ele>
        <time>2014-02-23T10:18:26Z</time>
      </trkpt>
      <trkpt lat="43.54372" lon="6.11273">
        <ele>449.3</ele>
        <time>2014-02-23T10:18:27Z</time>
      </trkpt>
      <trkpt lat="43.54386" lon="6.11281">
        <ele>449</ele>
        <time>2014-02-23T10:18:41Z</time>
      </trkpt>
      <trkpt lat="43.54394" lon="6.11285">
        <ele>448.6</ele>
        <time>2014-02-23T10:18:49Z</time>
      </trkpt>
      <trkpt lat="43.54402" lon="6.11291">
        <ele>448.2</ele>
        <time>2014-02-23T10:18:59Z</time>
      </trkpt>
      <trkpt lat="43.5441" lon="6.11295">
        <ele>447.1</ele>
        <time>2014-02-23T10:19:06Z</time>
      </trkpt>
      <trkpt lat="43.54417" lon="6.11301">
        <ele>447.4</ele>
        <time>2014-02-23T10:19:14Z</time>
      </trkpt>
      <trkpt lat="43.54424" lon="6.11307">
        <ele>446.7</ele>
        <time>2014-02-23T10:19:21Z</time>
      </trkpt>
      <trkpt lat="43.54431" lon="6.11312">
        <ele>445.8</ele>
        <time>2014-02-23T10:19:28Z</time>
      </trkpt>
      <trkpt lat="43.54432" lon="6.11314">
        <ele>445.6</ele>
        <time>2014-02-23T10:19:29Z</time>
      </trkpt>
      <trkpt lat="43.54446" lon="6.11323">
        <ele>444.5</ele>
        <time>2014-02-23T10:19:45Z</time>
      </trkpt>
      <trkpt lat="43.54453" lon="6.11331">
        <ele>443.9</ele>
        <time>2014-02-23T10:19:55Z</time>
      </trkpt>
      <trkpt lat="43.5446" lon="6.11336">
        <ele>444.2</ele>
        <time>2014-02-23T10:20:03Z</time>
      </trkpt>
      <trkpt lat="43.54467" lon="6.11343">
        <ele>443.1</ele>
        <time>2014-02-23T10:20:13Z</time>
      </trkpt>
      <trkpt lat="43.54474" lon="6.11349">
        <ele>442.7</ele>
        <time>2014-02-23T10:20:20Z</time>
      </trkpt>
      <trkpt lat="43.54482" lon="6.11355">
        <ele>442.4</ele>
        <time>2014-02-23T10:20:28Z</time>
      </trkpt>
      <trkpt lat="43.54488" lon="6.1136">
        <ele>442.1</ele>
        <time>2014-02-23T10:20:35Z</time>
      </trkpt>
      <trkpt lat="43.54489" lon="6.11361">
        <ele>442.1</ele>
        <time>2014-02-23T10:20:36Z</time>
      </trkpt>
      <trkpt lat="43.54502" lon="6.11374">
        <ele>441</ele>
        <time>2014-02-23T10:20:51Z</time>
      </trkpt>
      <trkpt lat="43.54509" lon="6.11381">
        <ele>440.7</ele>
        <time>2014-02-23T10:20:58Z</time>
      </trkpt>
      <trkpt lat="43.54516" lon="6.11389">
        <ele>440.3</ele>
        <time>2014-02-23T10:21:05Z</time>
      </trkpt>
      <trkpt lat="43.54521" lon="6.11398">
        <ele>439.9</ele>
        <time>2014-02-23T10:21:13Z</time>
      </trkpt>
      <trkpt lat="43.54527" lon="6.11405">
        <ele>439.5</ele>
        <time>2014-02-23T10:21:21Z</time>
      </trkpt>
      <trkpt lat="43.54532" lon="6.11415">
        <ele>438.6</ele>
        <time>2014-02-23T10:21:30Z</time>
      </trkpt>
      <trkpt lat="43.54538" lon="6.11423">
        <ele>437.6</ele>
        <time>2014-02-23T10:21:40Z</time>
      </trkpt>
      <trkpt lat="43.54539" lon="6.11425">
        <ele>437.5</ele>
        <time>2014-02-23T10:21:41Z</time>
      </trkpt>
      <trkpt lat="43.54547" lon="6.11445">
        <ele>436.4</ele>
        <time>2014-02-23T10:21:57Z</time>
      </trkpt>
      <trkpt lat="43.54552" lon="6.11454">
        <ele>436</ele>
        <time>2014-02-23T10:22:04Z</time>
      </trkpt>
      <trkpt lat="43.54557" lon="6.11464">
        <ele>436.1</ele>
        <time>2014-02-23T10:22:12Z</time>
      </trkpt>
      <trkpt lat="43.54562" lon="6.11473">
        <ele>435.1</ele>
        <time>2014-02-23T10:22:19Z</time>
      </trkpt>
      <trkpt lat="43.54567" lon="6.11482">
        <ele>434.7</ele>
        <time>2014-02-23T10:22:27Z</time>
      </trkpt>
      <trkpt lat="43.54571" lon="6.11492">
        <ele>434.1</ele>
        <time>2014-02-23T10:22:34Z</time>
      </trkpt>
      <trkpt lat="43.54575" lon="6.11502">
        <ele>433.3</ele>
        <time>2014-02-23T10:22:42Z</time>
      </trkpt>
      <trkpt lat="43.54576" lon="6.11503">
        <ele>433.4</ele>
        <time>2014-02-23T10:22:43Z</time>
      </trkpt>
      <trkpt lat="43.54583" lon="6.11523">
        <ele>431.4</ele>
        <time>2014-02-23T10:22:57Z</time>
      </trkpt>
      <trkpt lat="43.54586" lon="6.11533">
        <ele>430.3</ele>
        <time>2014-02-23T10:23:04Z</time>
      </trkpt>
      <trkpt lat="43.54589" lon="6.11543">
        <ele>430.4</ele>
        <time>2014-02-23T10:23:12Z</time>
      </trkpt>
      <trkpt lat="43.54593" lon="6.11553">
        <ele>430.3</ele>
        <time>2014-02-23T10:23:19Z</time>
      </trkpt>
      <trkpt lat="43.54597" lon="6.11562">
        <ele>429.9</ele>
        <time>2014-02-23T10:23:24Z</time>
      </trkpt>
      <trkpt lat="43.54602" lon="6.1157">
        <ele>429.5</ele>
        <time>2014-02-23T10:23:30Z</time>
      </trkpt>
      <trkpt lat="43.54608" lon="6.11579">
        <ele>429.6</ele>
        <time>2014-02-23T10:23:35Z</time>
      </trkpt>
      <trkpt lat="43.54613" lon="6.11588">
        <ele>428.5</ele>
        <time>2014-02-23T10:23:42Z</time>
      </trkpt>
      <trkpt lat="43.54617" lon="6.11598">
        <ele>427.6</ele>
        <time>2014-02-23T10:23:49Z</time>
      </trkpt>
      <trkpt lat="43.54618" lon="6.11599">
        <ele>427.6</ele>
        <time>2014-02-23T10:23:50Z</time>
      </trkpt>
      <trkpt lat="43.54631" lon="6.11612">
        <ele>428.3</ele>
        <time>2014-02-23T10:24:02Z</time>
      </trkpt>
      <trkpt lat="43.54636" lon="6.1162">
        <ele>428</ele>
        <time>2014-02-23T10:24:09Z</time>
      </trkpt>
      <trkpt lat="43.54644" lon="6.11627">
        <ele>427.8</ele>
        <time>2014-02-23T10:24:17Z</time>
      </trkpt>
      <trkpt lat="43.54652" lon="6.11627">
        <ele>427.4</ele>
        <time>2014-02-23T10:24:24Z</time>
      </trkpt>
      <trkpt lat="43.5466" lon="6.1163">
        <ele>427.5</ele>
        <time>2014-02-23T10:24:31Z</time>
      </trkpt>
      <trkpt lat="43.54668" lon="6.11629">
        <ele>427.1</ele>
        <time>2014-02-23T10:24:38Z</time>
      </trkpt>
      <trkpt lat="43.54676" lon="6.11628">
        <ele>427.3</ele>
        <time>2014-02-23T10:24:45Z</time>
      </trkpt>
      <trkpt lat="43.54685" lon="6.11629">
        <ele>426.1</ele>
        <time>2014-02-23T10:24:53Z</time>
      </trkpt>
      <trkpt lat="43.54686" lon="6.11629">
        <ele>426.3</ele>
        <time>2014-02-23T10:24:54Z</time>
      </trkpt>
      <trkpt lat="43.54701" lon="6.11629">
        <ele>425</ele>
        <time>2014-02-23T10:25:10Z</time>
      </trkpt>
      <trkpt lat="43.5471" lon="6.11629">
        <ele>424.9</ele>
        <time>2014-02-23T10:25:17Z</time>
      </trkpt>
      <trkpt lat="43.54718" lon="6.11628">
        <ele>423.3</ele>
        <time>2014-02-23T10:25:27Z</time>
      </trkpt>
      <trkpt lat="43.54727" lon="6.11627">
        <ele>422.9</ele>
        <time>2014-02-23T10:25:34Z</time>
      </trkpt>
      <trkpt lat="43.54735" lon="6.11626">
        <ele>421.8</ele>
        <time>2014-02-23T10:25:41Z</time>
      </trkpt>
      <trkpt lat="43.54744" lon="6.11627">
        <ele>420.9</ele>
        <time>2014-02-23T10:25:48Z</time>
      </trkpt>
      <trkpt lat="43.54752" lon="6.11627">
        <ele>420.5</ele>
        <time>2014-02-23T10:25:55Z</time>
      </trkpt>
      <trkpt lat="43.54753" lon="6.11627">
        <ele>420.8</ele>
        <time>2014-02-23T10:25:56Z</time>
      </trkpt>
      <trkpt lat="43.54759" lon="6.11644">
        <ele>419.8</ele>
        <time>2014-02-23T10:26:06Z</time>
      </trkpt>
      <trkpt lat="43.54758" lon="6.11653">
        <ele>419</ele>
        <time>2014-02-23T10:26:10Z</time>
      </trkpt>
      <trkpt lat="43.54755" lon="6.11664">
        <ele>419</ele>
        <time>2014-02-23T10:26:15Z</time>
      </trkpt>
      <trkpt lat="43.54752" lon="6.11676">
        <ele>418.6</ele>
        <time>2014-02-23T10:26:26Z</time>
      </trkpt>
      <trkpt lat="43.54749" lon="6.11687">
        <ele>419.5</ele>
        <time>2014-02-23T10:26:36Z</time>
      </trkpt>
      <trkpt lat="43.54746" lon="6.11698">
        <ele>419.1</ele>
        <time>2014-02-23T10:26:44Z</time>
      </trkpt>
      <trkpt lat="43.54744" lon="6.11709">
        <ele>419.2</ele>
        <time>2014-02-23T10:26:53Z</time>
      </trkpt>
      <trkpt lat="43.54743" lon="6.11721">
        <ele>418.2</ele>
        <time>2014-02-23T10:27:00Z</time>
      </trkpt>
      <trkpt lat="43.54743" lon="6.11723">
        <ele>418.2</ele>
        <time>2014-02-23T10:27:01Z</time>
      </trkpt>
      <trkpt lat="43.54744" lon="6.11744">
        <ele>418</ele>
        <time>2014-02-23T10:27:21Z</time>
      </trkpt>
      <trkpt lat="43.54743" lon="6.11755">
        <ele>419.1</ele>
        <time>2014-02-23T10:27:30Z</time>
      </trkpt>
      <trkpt lat="43.54741" lon="6.11766">
        <ele>418.2</ele>
        <time>2014-02-23T10:27:38Z</time>
      </trkpt>
      <trkpt lat="43.54741" lon="6.11779">
        <ele>418.2</ele>
        <time>2014-02-23T10:27:45Z</time>
      </trkpt>
      <trkpt lat="43.54737" lon="6.11788">
        <ele>418.5</ele>
        <time>2014-02-23T10:27:52Z</time>
      </trkpt>
      <trkpt lat="43.54736" lon="6.11799">
        <ele>418.6</ele>
        <time>2014-02-23T10:28:00Z</time>
      </trkpt>
      <trkpt lat="43.54733" lon="6.1181">
        <ele>417.9</ele>
        <time>2014-02-23T10:28:08Z</time>
      </trkpt>
      <trkpt lat="43.54732" lon="6.11811">
        <ele>417.5</ele>
        <time>2014-02-23T10:28:09Z</time>
      </trkpt>
      <trkpt lat="43.54724" lon="6.1183">
        <ele>416.6</ele>
        <time>2014-02-23T10:28:25Z</time>
      </trkpt>
      <trkpt lat="43.54719" lon="6.1184">
        <ele>416.3</ele>
        <time>2014-02-23T10:28:32Z</time>
      </trkpt>
      <trkpt lat="43.54712" lon="6.11847">
        <ele>417</ele>
        <time>2014-02-23T10:28:39Z</time>
      </trkpt>
      <trkpt lat="43.54706" lon="6.11855">
        <ele>416.6</ele>
        <time>2014-02-23T10:28:45Z</time>
      </trkpt>
      <trkpt lat="43.547" lon="6.11864">
        <ele>417</ele>
        <time>2014-02-23T10:28:52Z</time>
      </trkpt>
      <trkpt lat="43.54694" lon="6.11872">
        <ele>415.9</ele>
        <time>2014-02-23T10:28:59Z</time>
      </trkpt>
      <trkpt lat="43.54688" lon="6.1188">
        <ele>416.6</ele>
        <time>2014-02-23T10:29:07Z</time>
      </trkpt>
      <trkpt lat="43.5468" lon="6.11884">
        <ele>416</ele>
        <time>2014-02-23T10:29:14Z</time>
      </trkpt>
      <trkpt lat="43.54679" lon="6.11884">
        <ele>416.1</ele>
        <time>2014-02-23T10:29:15Z</time>
      </trkpt>
      <trkpt lat="43.54666" lon="6.11898">
        <ele>415.6</ele>
        <time>2014-02-23T10:29:28Z</time>
      </trkpt>
      <trkpt lat="43.54659" lon="6.11905">
        <ele>416.2</ele>
        <time>2014-02-23T10:29:36Z</time>
      </trkpt>
      <trkpt lat="43.54651" lon="6.11908">
        <ele>416.5</ele>
        <time>2014-02-23T10:29:40Z</time>
      </trkpt>
      <trkpt lat="43.54646" lon="6.11917">
        <ele>416.1</ele>
        <time>2014-02-23T10:29:48Z</time>
      </trkpt>
      <trkpt lat="43.5464" lon="6.11923">
        <ele>416.2</ele>
        <time>2014-02-23T10:29:57Z</time>
      </trkpt>
      <trkpt lat="43.54634" lon="6.11932">
        <ele>416</ele>
        <time>2014-02-23T10:30:05Z</time>
      </trkpt>
      <trkpt lat="43.54626" lon="6.11938">
        <ele>416</ele>
        <time>2014-02-23T10:30:11Z</time>
      </trkpt>
      <trkpt lat="43.54622" lon="6.11947">
        <ele>416.3</ele>
        <time>2014-02-23T10:30:19Z</time>
      </trkpt>
      <trkpt lat="43.54621" lon="6.11948">
        <ele>416</ele>
        <time>2014-02-23T10:30:20Z</time>
      </trkpt>
      <trkpt lat="43.54611" lon="6.11963">
        <ele>415</ele>
        <time>2014-02-23T10:30:57Z</time>
      </trkpt>
      <trkpt lat="43.54603" lon="6.11969">
        <ele>414.3</ele>
        <time>2014-02-23T10:31:04Z</time>
      </trkpt>
      <trkpt lat="43.54595" lon="6.11974">
        <ele>413.9</ele>
        <time>2014-02-23T10:31:16Z</time>
      </trkpt>
      <trkpt lat="43.54587" lon="6.11971">
        <ele>414.2</ele>
        <time>2014-02-23T10:31:24Z</time>
      </trkpt>
      <trkpt lat="43.54584" lon="6.11971">
        <ele>414.5</ele>
        <time>2014-02-23T10:31:25Z</time>
      </trkpt>
      <trkpt lat="43.54572" lon="6.11965">
        <ele>414.3</ele>
        <time>2014-02-23T10:31:38Z</time>
      </trkpt>
      <trkpt lat="43.54565" lon="6.11963">
        <ele>413.6</ele>
        <time>2014-02-23T10:31:42Z</time>
      </trkpt>
      <trkpt lat="43.54556" lon="6.11958">
        <ele>413</ele>
        <time>2014-02-23T10:31:50Z</time>
      </trkpt>
      <trkpt lat="43.54549" lon="6.11954">
        <ele>412.6</ele>
        <time>2014-02-23T10:31:55Z</time>
      </trkpt>
      <trkpt lat="43.54541" lon="6.11952">
        <ele>411.7</ele>
        <time>2014-02-23T10:32:00Z</time>
      </trkpt>
      <trkpt lat="43.54533" lon="6.11949">
        <ele>410.3</ele>
        <time>2014-02-23T10:32:07Z</time>
      </trkpt>
      <trkpt lat="43.54527" lon="6.11942">
        <ele>410.8</ele>
        <time>2014-02-23T10:32:13Z</time>
      </trkpt>
      <trkpt lat="43.54521" lon="6.11934">
        <ele>410.6</ele>
        <time>2014-02-23T10:32:18Z</time>
      </trkpt>
      <trkpt lat="43.54514" lon="6.11929">
        <ele>410.4</ele>
        <time>2014-02-23T10:32:26Z</time>
      </trkpt>
      <trkpt lat="43.54512" lon="6.11928">
        <ele>410.3</ele>
        <time>2014-02-23T10:32:27Z</time>
      </trkpt>
      <trkpt lat="43.54498" lon="6.11924">
        <ele>409.6</ele>
        <time>2014-02-23T10:32:41Z</time>
      </trkpt>
      <trkpt lat="43.5449" lon="6.1193">
        <ele>409.8</ele>
        <time>2014-02-23T10:32:48Z</time>
      </trkpt>
      <trkpt lat="43.54482" lon="6.11933">
        <ele>409.6</ele>
        <time>2014-02-23T10:32:55Z</time>
      </trkpt>
      <trkpt lat="43.54475" lon="6.11938">
        <ele>409.7</ele>
        <time>2014-02-23T10:33:02Z</time>
      </trkpt>
      <trkpt lat="43.54466" lon="6.11941">
        <ele>409.3</ele>
        <time>2014-02-23T10:33:09Z</time>
      </trkpt>
      <trkpt lat="43.54459" lon="6.11947">
        <ele>408.5</ele>
        <time>2014-02-23T10:33:18Z</time>
      </trkpt>
      <trkpt lat="43.54451" lon="6.11952">
        <ele>408.4</ele>
        <time>2014-02-23T10:33:24Z</time>
      </trkpt>
      <trkpt lat="43.54446" lon="6.11959">
        <ele>408.3</ele>
        <time>2014-02-23T10:33:29Z</time>
      </trkpt>
      <trkpt lat="43.54445" lon="6.11961">
        <ele>407.9</ele>
        <time>2014-02-23T10:33:30Z</time>
      </trkpt>
      <trkpt lat="43.54434" lon="6.11975">
        <ele>408</ele>
        <time>2014-02-23T10:33:58Z</time>
      </trkpt>
      <trkpt lat="43.54427" lon="6.11981">
        <ele>408.1</ele>
        <time>2014-02-23T10:34:04Z</time>
      </trkpt>
      <trkpt lat="43.54421" lon="6.11987">
        <ele>407.1</ele>
        <time>2014-02-23T10:34:10Z</time>
      </trkpt>
      <trkpt lat="43.54414" lon="6.11995">
        <ele>406.7</ele>
        <time>2014-02-23T10:34:18Z</time>
      </trkpt>
      <trkpt lat="43.54407" lon="6.12002">
        <ele>406</ele>
        <time>2014-02-23T10:34:23Z</time>
      </trkpt>
      <trkpt lat="43.54399" lon="6.12006">
        <ele>406</ele>
        <time>2014-02-23T10:34:29Z</time>
      </trkpt>
      <trkpt lat="43.54392" lon="6.12013">
        <ele>405.4</ele>
        <time>2014-02-23T10:34:37Z</time>
      </trkpt>
      <trkpt lat="43.54392" lon="6.12014">
        <ele>405.4</ele>
        <time>2014-02-23T10:34:38Z</time>
      </trkpt>
      <trkpt lat="43.54377" lon="6.12025">
        <ele>405.9</ele>
        <time>2014-02-23T10:34:52Z</time>
      </trkpt>
      <trkpt lat="43.54371" lon="6.12033">
        <ele>405.3</ele>
        <time>2014-02-23T10:35:02Z</time>
      </trkpt>
      <trkpt lat="43.54364" lon="6.12037">
        <ele>404.8</ele>
        <time>2014-02-23T10:35:09Z</time>
      </trkpt>
      <trkpt lat="43.54358" lon="6.12044">
        <ele>405.1</ele>
        <time>2014-02-23T10:35:14Z</time>
      </trkpt>
      <trkpt lat="43.54353" lon="6.12053">
        <ele>404.1</ele>
        <time>2014-02-23T10:35:23Z</time>
      </trkpt>
      <trkpt lat="43.54346" lon="6.12061">
        <ele>404.4</ele>
        <time>2014-02-23T10:35:30Z</time>
      </trkpt>
      <trkpt lat="43.54341" lon="6.12069">
        <ele>403.5</ele>
        <time>2014-02-23T10:35:36Z</time>
      </trkpt>
      <trkpt lat="43.54334" lon="6.12076">
        <ele>403.5</ele>
        <time>2014-02-23T10:35:44Z</time>
      </trkpt>
      <trkpt lat="43.54334" lon="6.12077">
        <ele>403.4</ele>
        <time>2014-02-23T10:35:45Z</time>
      </trkpt>
      <trkpt lat="43.54322" lon="6.12091">
        <ele>403.2</ele>
        <time>2014-02-23T10:35:58Z</time>
      </trkpt>
      <trkpt lat="43.54317" lon="6.12102">
        <ele>402.7</ele>
        <time>2014-02-23T10:36:06Z</time>
      </trkpt>
      <trkpt lat="43.5431" lon="6.12108">
        <ele>402.6</ele>
        <time>2014-02-23T10:36:12Z</time>
      </trkpt>
      <trkpt lat="43.54303" lon="6.12115">
        <ele>403.1</ele>
        <time>2014-02-23T10:36:19Z</time>
      </trkpt>
      <trkpt lat="43.54297" lon="6.12122">
        <ele>403.1</ele>
        <time>2014-02-23T10:36:26Z</time>
      </trkpt>
      <trkpt lat="43.5429" lon="6.12129">
        <ele>403.1</ele>
        <time>2014-02-23T10:36:34Z</time>
      </trkpt>
      <trkpt lat="43.54285" lon="6.12138">
        <ele>403.3</ele>
        <time>2014-02-23T10:36:44Z</time>
      </trkpt>
      <trkpt lat="43.54281" lon="6.12148">
        <ele>403.4</ele>
        <time>2014-02-23T10:36:52Z</time>
      </trkpt>
      <trkpt lat="43.54279" lon="6.12149">
        <ele>403.3</ele>
        <time>2014-02-23T10:36:53Z</time>
      </trkpt>
      <trkpt lat="43.54267" lon="6.12162">
        <ele>403.5</ele>
        <time>2014-02-23T10:37:06Z</time>
      </trkpt>
      <trkpt lat="43.54261" lon="6.1217">
        <ele>403.8</ele>
        <time>2014-02-23T10:37:12Z</time>
      </trkpt>
      <trkpt lat="43.54257" lon="6.1218">
        <ele>403.4</ele>
        <time>2014-02-23T10:37:19Z</time>
      </trkpt>
      <trkpt lat="43.54251" lon="6.12187">
        <ele>403.6</ele>
        <time>2014-02-23T10:37:26Z</time>
      </trkpt>
      <trkpt lat="43.54245" lon="6.12196">
        <ele>403.6</ele>
        <time>2014-02-23T10:37:32Z</time>
      </trkpt>
      <trkpt lat="43.54241" lon="6.12206">
        <ele>403.2</ele>
        <time>2014-02-23T10:37:39Z</time>
      </trkpt>
      <trkpt lat="43.54237" lon="6.12215">
        <ele>403.3</ele>
        <time>2014-02-23T10:37:45Z</time>
      </trkpt>
      <trkpt lat="43.54231" lon="6.12222">
        <ele>402.7</ele>
        <time>2014-02-23T10:37:52Z</time>
      </trkpt>
      <trkpt lat="43.54226" lon="6.12232">
        <ele>402.4</ele>
        <time>2014-02-23T10:38:01Z</time>
      </trkpt>
      <trkpt lat="43.54226" lon="6.12233">
        <ele>402.2</ele>
        <time>2014-02-23T10:38:02Z</time>
      </trkpt>
      <trkpt lat="43.54215" lon="6.12247">
        <ele>400.9</ele>
        <time>2014-02-23T10:38:15Z</time>
      </trkpt>
      <trkpt lat="43.54208" lon="6.12254">
        <ele>400.4</ele>
        <time>2014-02-23T10:38:24Z</time>
      </trkpt>
      <trkpt lat="43.54201" lon="6.1226">
        <ele>400.6</ele>
        <time>2014-02-23T10:38:31Z</time>
      </trkpt>
      <trkpt lat="43.54195" lon="6.12267">
        <ele>400.2</ele>
        <time>2014-02-23T10:38:38Z</time>
      </trkpt>
      <trkpt lat="43.54189" lon="6.12275">
        <ele>399.5</ele>
        <time>2014-02-23T10:38:44Z</time>
      </trkpt>
      <trkpt lat="43.54182" lon="6.12279">
        <ele>399.8</ele>
        <time>2014-02-23T10:38:50Z</time>
      </trkpt>
      <trkpt lat="43.54178" lon="6.12288">
        <ele>399</ele>
        <time>2014-02-23T10:38:57Z</time>
      </trkpt>
      <trkpt lat="43.54172" lon="6.12295">
        <ele>399.6</ele>
        <time>2014-02-23T10:39:02Z</time>
      </trkpt>
      <trkpt lat="43.54171" lon="6.12297">
        <ele>399.5</ele>
        <time>2014-02-23T10:39:03Z</time>
      </trkpt>
      <trkpt lat="43.54159" lon="6.12309">
        <ele>399.3</ele>
        <time>2014-02-23T10:39:14Z</time>
      </trkpt>
      <trkpt lat="43.54152" lon="6.12315">
        <ele>398.9</ele>
        <time>2014-02-23T10:39:21Z</time>
      </trkpt>
      <trkpt lat="43.54146" lon="6.12323">
        <ele>398.7</ele>
        <time>2014-02-23T10:39:27Z</time>
      </trkpt>
      <trkpt lat="43.54141" lon="6.12332">
        <ele>398.6</ele>
        <time>2014-02-23T10:39:34Z</time>
      </trkpt>
      <trkpt lat="43.54135" lon="6.1234">
        <ele>398.8</ele>
        <time>2014-02-23T10:39:41Z</time>
      </trkpt>
      <trkpt lat="43.54127" lon="6.12346">
        <ele>398.9</ele>
        <time>2014-02-23T10:39:47Z</time>
      </trkpt>
      <trkpt lat="43.5412" lon="6.12352">
        <ele>398.5</ele>
        <time>2014-02-23T10:39:54Z</time>
      </trkpt>
      <trkpt lat="43.54113" lon="6.12357">
        <ele>398.5</ele>
        <time>2014-02-23T10:40:01Z</time>
      </trkpt>
      <trkpt lat="43.54107" lon="6.12365">
        <ele>398.6</ele>
        <time>2014-02-23T10:40:10Z</time>
      </trkpt>
      <trkpt lat="43.54106" lon="6.12366">
        <ele>398.5</ele>
        <time>2014-02-23T10:40:11Z</time>
      </trkpt>
      <trkpt lat="43.54093" lon="6.12377">
        <ele>397.9</ele>
        <time>2014-02-23T10:40:23Z</time>
      </trkpt>
      <trkpt lat="43.54087" lon="6.12385">
        <ele>398.2</ele>
        <time>2014-02-23T10:40:30Z</time>
      </trkpt>
      <trkpt lat="43.5408" lon="6.12393">
        <ele>398.8</ele>
        <time>2014-02-23T10:40:38Z</time>
      </trkpt>
      <trkpt lat="43.54073" lon="6.12399">
        <ele>398.1</ele>
        <time>2014-02-23T10:40:45Z</time>
      </trkpt>
      <trkpt lat="43.54065" lon="6.12406">
        <ele>397.6</ele>
        <time>2014-02-23T10:40:52Z</time>
      </trkpt>
      <trkpt lat="43.5406" lon="6.12416">
        <ele>397.9</ele>
        <time>2014-02-23T10:40:59Z</time>
      </trkpt>
      <trkpt lat="43.54053" lon="6.12422">
        <ele>397.8</ele>
        <time>2014-02-23T10:41:07Z</time>
      </trkpt>
      <trkpt lat="43.54047" lon="6.12428">
        <ele>397.2</ele>
        <time>2014-02-23T10:41:12Z</time>
      </trkpt>
      <trkpt lat="43.54045" lon="6.12429">
        <ele>397.4</ele>
        <time>2014-02-23T10:41:13Z</time>
      </trkpt>
      <trkpt lat="43.54032" lon="6.12441">
        <ele>397.3</ele>
        <time>2014-02-23T10:41:28Z</time>
      </trkpt>
      <trkpt lat="43.54025" lon="6.12449">
        <ele>397.2</ele>
        <time>2014-02-23T10:41:37Z</time>
      </trkpt>
      <trkpt lat="43.54017" lon="6.12451">
        <ele>397.2</ele>
        <time>2014-02-23T10:41:42Z</time>
      </trkpt>
      <trkpt lat="43.54009" lon="6.12456">
        <ele>397.1</ele>
        <time>2014-02-23T10:41:50Z</time>
      </trkpt>
      <trkpt lat="43.54003" lon="6.12463">
        <ele>396.4</ele>
        <time>2014-02-23T10:41:59Z</time>
      </trkpt>
      <trkpt lat="43.53996" lon="6.1247">
        <ele>396.8</ele>
        <time>2014-02-23T10:42:07Z</time>
      </trkpt>
      <trkpt lat="43.53989" lon="6.12476">
        <ele>395.9</ele>
        <time>2014-02-23T10:42:13Z</time>
      </trkpt>
      <trkpt lat="43.53988" lon="6.12477">
        <ele>395.9</ele>
        <time>2014-02-23T10:42:14Z</time>
      </trkpt>
      <trkpt lat="43.53974" lon="6.12487">
        <ele>395.8</ele>
        <time>2014-02-23T10:42:27Z</time>
      </trkpt>
      <trkpt lat="43.53966" lon="6.12492">
        <ele>395.2</ele>
        <time>2014-02-23T10:42:34Z</time>
      </trkpt>
      <trkpt lat="43.53959" lon="6.12498">
        <ele>395.4</ele>
        <time>2014-02-23T10:42:41Z</time>
      </trkpt>
      <trkpt lat="43.53951" lon="6.12503">
        <ele>394.8</ele>
        <time>2014-02-23T10:42:47Z</time>
      </trkpt>
      <trkpt lat="43.53944" lon="6.12507">
        <ele>395</ele>
        <time>2014-02-23T10:42:54Z</time>
      </trkpt>
      <trkpt lat="43.53936" lon="6.12511">
        <ele>394.8</ele>
        <time>2014-02-23T10:43:00Z</time>
      </trkpt>
      <trkpt lat="43.53927" lon="6.12513">
        <ele>394.9</ele>
        <time>2014-02-23T10:43:07Z</time>
      </trkpt>
      <trkpt lat="43.53919" lon="6.12516">
        <ele>394.6</ele>
        <time>2014-02-23T10:43:15Z</time>
      </trkpt>
      <trkpt lat="43.53918" lon="6.12517">
        <ele>394.7</ele>
        <time>2014-02-23T10:43:16Z</time>
      </trkpt>
      <trkpt lat="43.53905" lon="6.12523">
        <ele>394.1</ele>
        <time>2014-02-23T10:43:24Z</time>
      </trkpt>
      <trkpt lat="43.53897" lon="6.12525">
        <ele>394</ele>
        <time>2014-02-23T10:43:32Z</time>
      </trkpt>
      <trkpt lat="43.53889" lon="6.12525">
        <ele>393.9</ele>
        <time>2014-02-23T10:43:38Z</time>
      </trkpt>
      <trkpt lat="43.53881" lon="6.12526">
        <ele>393.7</ele>
        <time>2014-02-23T10:43:45Z</time>
      </trkpt>
      <trkpt lat="43.53874" lon="6.12528">
        <ele>393.5</ele>
        <time>2014-02-23T10:43:50Z</time>
      </trkpt>
      <trkpt lat="43.53866" lon="6.12533">
        <ele>393</ele>
        <time>2014-02-23T10:43:56Z</time>
      </trkpt>
      <trkpt lat="43.53858" lon="6.12532">
        <ele>393.6</ele>
        <time>2014-02-23T10:44:02Z</time>
      </trkpt>
      <trkpt lat="43.53851" lon="6.12535">
        <ele>392.9</ele>
        <time>2014-02-23T10:44:10Z</time>
      </trkpt>
      <trkpt lat="43.53842" lon="6.12536">
        <ele>392.7</ele>
        <time>2014-02-23T10:44:17Z</time>
      </trkpt>
      <trkpt lat="43.53842" lon="6.12537">
        <ele>392.7</ele>
        <time>2014-02-23T10:44:18Z</time>
      </trkpt>
      <trkpt lat="43.53827" lon="6.12539">
        <ele>392.3</ele>
        <time>2014-02-23T10:44:29Z</time>
      </trkpt>
      <trkpt lat="43.53819" lon="6.1254">
        <ele>392.5</ele>
        <time>2014-02-23T10:44:34Z</time>
      </trkpt>
      <trkpt lat="43.53812" lon="6.12546">
        <ele>392.5</ele>
        <time>2014-02-23T10:44:40Z</time>
      </trkpt>
      <trkpt lat="43.53804" lon="6.12549">
        <ele>392.7</ele>
        <time>2014-02-23T10:44:47Z</time>
      </trkpt>
      <trkpt lat="43.53795" lon="6.12553">
        <ele>392.3</ele>
        <time>2014-02-23T10:44:55Z</time>
      </trkpt>
      <trkpt lat="43.53787" lon="6.12551">
        <ele>392.2</ele>
        <time>2014-02-23T10:45:00Z</time>
      </trkpt>
      <trkpt lat="43.53779" lon="6.12556">
        <ele>392.2</ele>
        <time>2014-02-23T10:45:09Z</time>
      </trkpt>
      <trkpt lat="43.53771" lon="6.12559">
        <ele>391.9</ele>
        <time>2014-02-23T10:45:15Z</time>
      </trkpt>
      <trkpt lat="43.53763" lon="6.12563">
        <ele>391.1</ele>
        <time>2014-02-23T10:45:20Z</time>
      </trkpt>
      <trkpt lat="43.53762" lon="6.12563">
        <ele>391.2</ele>
        <time>2014-02-23T10:45:21Z</time>
      </trkpt>
      <trkpt lat="43.53747" lon="6.12566">
        <ele>390.1</ele>
        <time>2014-02-23T10:45:33Z</time>
      </trkpt>
      <trkpt lat="43.53739" lon="6.12571">
        <ele>389.4</ele>
        <time>2014-02-23T10:45:40Z</time>
      </trkpt>
      <trkpt lat="43.53731" lon="6.12574">
        <ele>389.4</ele>
        <time>2014-02-23T10:45:47Z</time>
      </trkpt>
      <trkpt lat="43.53723" lon="6.12576">
        <ele>389.1</ele>
        <time>2014-02-23T10:45:55Z</time>
      </trkpt>
      <trkpt lat="43.53716" lon="6.12579">
        <ele>388.5</ele>
        <time>2014-02-23T10:46:00Z</time>
      </trkpt>
      <trkpt lat="43.53707" lon="6.1258">
        <ele>388.1</ele>
        <time>2014-02-23T10:46:09Z</time>
      </trkpt>
      <trkpt lat="43.53699" lon="6.12583">
        <ele>388.1</ele>
        <time>2014-02-23T10:46:16Z</time>
      </trkpt>
      <trkpt lat="43.53691" lon="6.12586">
        <ele>388.3</ele>
        <time>2014-02-23T10:46:23Z</time>
      </trkpt>
      <trkpt lat="43.53689" lon="6.12586">
        <ele>388.3</ele>
        <time>2014-02-23T10:46:24Z</time>
      </trkpt>
      <trkpt lat="43.53676" lon="6.12592">
        <ele>388.4</ele>
        <time>2014-02-23T10:46:35Z</time>
      </trkpt>
      <trkpt lat="43.53668" lon="6.12595">
        <ele>388.2</ele>
        <time>2014-02-23T10:46:41Z</time>
      </trkpt>
      <trkpt lat="43.53661" lon="6.12601">
        <ele>388.3</ele>
        <time>2014-02-23T10:46:49Z</time>
      </trkpt>
      <trkpt lat="43.53654" lon="6.12606">
        <ele>388.7</ele>
        <time>2014-02-23T10:46:57Z</time>
      </trkpt>
      <trkpt lat="43.53646" lon="6.12609">
        <ele>389</ele>
        <time>2014-02-23T10:47:06Z</time>
      </trkpt>
      <trkpt lat="43.53638" lon="6.12612">
        <ele>388.3</ele>
        <time>2014-02-23T10:47:12Z</time>
      </trkpt>
      <trkpt lat="43.5363" lon="6.12617">
        <ele>387.8</ele>
        <time>2014-02-23T10:47:20Z</time>
      </trkpt>
      <trkpt lat="43.53624" lon="6.12624">
        <ele>387.5</ele>
        <time>2014-02-23T10:47:28Z</time>
      </trkpt>
      <trkpt lat="43.53622" lon="6.12624">
        <ele>387.5</ele>
        <time>2014-02-23T10:47:29Z</time>
      </trkpt>
      <trkpt lat="43.53608" lon="6.1263">
        <ele>385.7</ele>
        <time>2014-02-23T10:47:41Z</time>
      </trkpt>
      <trkpt lat="43.536" lon="6.12632">
        <ele>386.2</ele>
        <time>2014-02-23T10:47:46Z</time>
      </trkpt>
      <trkpt lat="43.53592" lon="6.12638">
        <ele>385.2</ele>
        <time>2014-02-23T10:47:52Z</time>
      </trkpt>
      <trkpt lat="43.53584" lon="6.12643">
        <ele>385.1</ele>
        <time>2014-02-23T10:47:58Z</time>
      </trkpt>
      <trkpt lat="43.53577" lon="6.12641">
        <ele>384.6</ele>
        <time>2014-02-23T10:48:02Z</time>
      </trkpt>
      <trkpt lat="43.53569" lon="6.12639">
        <ele>383.7</ele>
        <time>2014-02-23T10:48:09Z</time>
      </trkpt>
      <trkpt lat="43.5356" lon="6.12635">
        <ele>383</ele>
        <time>2014-02-23T10:48:15Z</time>
      </trkpt>
      <trkpt lat="43.53552" lon="6.12634">
        <ele>382.8</ele>
        <time>2014-02-23T10:48:22Z</time>
      </trkpt>
      <trkpt lat="43.53544" lon="6.1263">
        <ele>381.3</ele>
        <time>2014-02-23T10:48:36Z</time>
      </trkpt>
      <trkpt lat="43.53543" lon="6.1263">
        <ele>381.3</ele>
        <time>2014-02-23T10:48:37Z</time>
      </trkpt>
      <trkpt lat="43.5353" lon="6.12621">
        <ele>381.2</ele>
        <time>2014-02-23T10:48:47Z</time>
      </trkpt>
      <trkpt lat="43.53523" lon="6.12616">
        <ele>381.5</ele>
        <time>2014-02-23T10:48:53Z</time>
      </trkpt>
      <trkpt lat="43.53515" lon="6.12614">
        <ele>381.7</ele>
        <time>2014-02-23T10:49:00Z</time>
      </trkpt>
      <trkpt lat="43.53507" lon="6.12607">
        <ele>381.4</ele>
        <time>2014-02-23T10:49:08Z</time>
      </trkpt>
      <trkpt lat="43.53499" lon="6.12604">
        <ele>381.4</ele>
        <time>2014-02-23T10:49:16Z</time>
      </trkpt>
      <trkpt lat="43.53491" lon="6.12601">
        <ele>380.7</ele>
        <time>2014-02-23T10:49:22Z</time>
      </trkpt>
      <trkpt lat="43.53484" lon="6.12593">
        <ele>380.9</ele>
        <time>2014-02-23T10:49:29Z</time>
      </trkpt>
      <trkpt lat="43.53476" lon="6.12593">
        <ele>380.8</ele>
        <time>2014-02-23T10:49:37Z</time>
      </trkpt>
      <trkpt lat="43.53475" lon="6.12592">
        <ele>380.7</ele>
        <time>2014-02-23T10:49:38Z</time>
      </trkpt>
      <trkpt lat="43.53461" lon="6.12587">
        <ele>381</ele>
        <time>2014-02-23T10:49:49Z</time>
      </trkpt>
      <trkpt lat="43.53454" lon="6.12581">
        <ele>380.6</ele>
        <time>2014-02-23T10:49:57Z</time>
      </trkpt>
      <trkpt lat="43.53447" lon="6.12577">
        <ele>380.2</ele>
        <time>2014-02-23T10:50:01Z</time>
      </trkpt>
      <trkpt lat="43.5344" lon="6.1257">
        <ele>379.9</ele>
        <time>2014-02-23T10:50:10Z</time>
      </trkpt>
      <trkpt lat="43.53434" lon="6.12562">
        <ele>379.9</ele>
        <time>2014-02-23T10:50:18Z</time>
      </trkpt>
      <trkpt lat="43.53428" lon="6.12556">
        <ele>379.8</ele>
        <time>2014-02-23T10:50:24Z</time>
      </trkpt>
      <trkpt lat="43.53423" lon="6.12548">
        <ele>380</ele>
        <time>2014-02-23T10:50:33Z</time>
      </trkpt>
      <trkpt lat="43.53418" lon="6.12537">
        <ele>380.4</ele>
        <time>2014-02-23T10:50:41Z</time>
      </trkpt>
      <trkpt lat="43.53417" lon="6.12536">
        <ele>380.4</ele>
        <time>2014-02-23T10:50:42Z</time>
      </trkpt>
      <trkpt lat="43.5341" lon="6.12518">
        <ele>380.7</ele>
        <time>2014-02-23T10:51:20Z</time>
      </trkpt>
      <trkpt lat="43.53401" lon="6.12517">
        <ele>381.9</ele>
        <time>2014-02-23T10:51:29Z</time>
      </trkpt>
      <trkpt lat="43.53398" lon="6.12528">
        <ele>380.8</ele>
        <time>2014-02-23T10:52:02Z</time>
      </trkpt>
      <trkpt lat="43.53397" lon="6.12528">
        <ele>381</ele>
        <time>2014-02-23T10:52:03Z</time>
      </trkpt>
      <trkpt lat="43.53397" lon="6.12526">
        <ele>381.3</ele>
        <time>2014-02-23T10:53:32Z</time>
      </trkpt>
      <trkpt lat="43.53397" lon="6.12525">
        <ele>381.4</ele>
        <time>2014-02-23T10:53:33Z</time>
      </trkpt>
      <trkpt lat="43.53399" lon="6.12516">
        <ele>380.9</ele>
        <time>2014-02-23T10:54:30Z</time>
      </trkpt>
      <trkpt lat="43.53406" lon="6.12524">
        <ele>381</ele>
        <time>2014-02-23T10:55:22Z</time>
      </trkpt>
      <trkpt lat="43.53407" lon="6.12523">
        <ele>381</ele>
        <time>2014-02-23T10:55:23Z</time>
      </trkpt>
      <trkpt lat="43.53401" lon="6.1251">
        <ele>380.7</ele>
        <time>2014-02-23T10:56:20Z</time>
      </trkpt>
      <trkpt lat="43.53393" lon="6.12514">
        <ele>380.1</ele>
        <time>2014-02-23T10:56:36Z</time>
      </trkpt>
      <trkpt lat="43.53392" lon="6.12513">
        <ele>380.3</ele>
        <time>2014-02-23T10:56:37Z</time>
      </trkpt>
      <trkpt lat="43.53409" lon="6.12512">
        <ele>381.5</ele>
        <time>2014-02-23T10:57:12Z</time>
      </trkpt>
      <trkpt lat="43.53418" lon="6.12511">
        <ele>381.7</ele>
        <time>2014-02-23T10:57:19Z</time>
      </trkpt>
      <trkpt lat="43.53425" lon="6.12503">
        <ele>381.9</ele>
        <time>2014-02-23T10:57:29Z</time>
      </trkpt>
      <trkpt lat="43.53429" lon="6.12492">
        <ele>382.1</ele>
        <time>2014-02-23T10:57:38Z</time>
      </trkpt>
      <trkpt lat="43.53429" lon="6.12491">
        <ele>382.4</ele>
        <time>2014-02-23T10:57:39Z</time>
      </trkpt>
      <trkpt lat="43.53425" lon="6.12469">
        <ele>383</ele>
        <time>2014-02-23T10:57:57Z</time>
      </trkpt>
      <trkpt lat="43.53429" lon="6.12459">
        <ele>383.6</ele>
        <time>2014-02-23T10:58:07Z</time>
      </trkpt>
      <trkpt lat="43.53431" lon="6.12448">
        <ele>384.2</ele>
        <time>2014-02-23T10:58:16Z</time>
      </trkpt>
      <trkpt lat="43.53428" lon="6.12436">
        <ele>385.2</ele>
        <time>2014-02-23T10:58:25Z</time>
      </trkpt>
      <trkpt lat="43.53425" lon="6.12425">
        <ele>385.7</ele>
        <time>2014-02-23T10:58:33Z</time>
      </trkpt>
      <trkpt lat="43.53423" lon="6.12415">
        <ele>386.5</ele>
        <time>2014-02-23T10:58:41Z</time>
      </trkpt>
      <trkpt lat="43.53423" lon="6.12413">
        <ele>386.6</ele>
        <time>2014-02-23T10:58:42Z</time>
      </trkpt>
      <trkpt lat="43.5342" lon="6.12391">
        <ele>388.6</ele>
        <time>2014-02-23T10:59:01Z</time>
      </trkpt>
      <trkpt lat="43.53419" lon="6.12379">
        <ele>389.4</ele>
        <time>2014-02-23T10:59:10Z</time>
      </trkpt>
      <trkpt lat="43.53416" lon="6.12369">
        <ele>390</ele>
        <time>2014-02-23T10:59:20Z</time>
      </trkpt>
      <trkpt lat="43.53417" lon="6.12357">
        <ele>390.8</ele>
        <time>2014-02-23T10:59:30Z</time>
      </trkpt>
      <trkpt lat="43.53412" lon="6.12347">
        <ele>391.6</ele>
        <time>2014-02-23T10:59:42Z</time>
      </trkpt>
      <trkpt lat="43.53412" lon="6.12346">
        <ele>391.7</ele>
        <time>2014-02-23T10:59:43Z</time>
      </trkpt>
      <trkpt lat="43.53414" lon="6.12324">
        <ele>393.9</ele>
        <time>2014-02-23T11:00:27Z</time>
      </trkpt>
      <trkpt lat="43.53415" lon="6.12312">
        <ele>395.1</ele>
        <time>2014-02-23T11:00:35Z</time>
      </trkpt>
      <trkpt lat="43.53412" lon="6.12301">
        <ele>395.9</ele>
        <time>2014-02-23T11:00:43Z</time>
      </trkpt>
      <trkpt lat="43.53412" lon="6.12299">
        <ele>396.1</ele>
        <time>2014-02-23T11:00:44Z</time>
      </trkpt>
      <trkpt lat="43.53412" lon="6.12279">
        <ele>398.4</ele>
        <time>2014-02-23T11:01:02Z</time>
      </trkpt>
      <trkpt lat="43.5341" lon="6.12267">
        <ele>399.3</ele>
        <time>2014-02-23T11:01:10Z</time>
      </trkpt>
      <trkpt lat="43.53409" lon="6.12256">
        <ele>400.5</ele>
        <time>2014-02-23T11:01:20Z</time>
      </trkpt>
      <trkpt lat="43.5341" lon="6.12244">
        <ele>401.9</ele>
        <time>2014-02-23T11:01:33Z</time>
      </trkpt>
      <trkpt lat="43.53407" lon="6.12234">
        <ele>402.4</ele>
        <time>2014-02-23T11:01:39Z</time>
      </trkpt>
      <trkpt lat="43.53406" lon="6.12222">
        <ele>403.7</ele>
        <time>2014-02-23T11:01:46Z</time>
      </trkpt>
      <trkpt lat="43.53406" lon="6.1222">
        <ele>404</ele>
        <time>2014-02-23T11:01:47Z</time>
      </trkpt>
      <trkpt lat="43.53397" lon="6.12203">
        <ele>403.8</ele>
        <time>2014-02-23T11:02:00Z</time>
      </trkpt>
      <trkpt lat="43.5339" lon="6.12196">
        <ele>403.9</ele>
        <time>2014-02-23T11:02:06Z</time>
      </trkpt>
      <trkpt lat="43.53383" lon="6.12188">
        <ele>404.3</ele>
        <time>2014-02-23T11:02:15Z</time>
      </trkpt>
      <trkpt lat="43.53376" lon="6.12181">
        <ele>405.7</ele>
        <time>2014-02-23T11:02:24Z</time>
      </trkpt>
      <trkpt lat="43.53372" lon="6.1217">
        <ele>406.4</ele>
        <time>2014-02-23T11:02:35Z</time>
      </trkpt>
      <trkpt lat="43.53374" lon="6.12158">
        <ele>408.8</ele>
        <time>2014-02-23T11:02:51Z</time>
      </trkpt>
      <trkpt lat="43.53374" lon="6.12157">
        <ele>408.9</ele>
        <time>2014-02-23T11:02:52Z</time>
      </trkpt>
      <trkpt lat="43.53389" lon="6.12149">
        <ele>411.7</ele>
        <time>2014-02-23T11:03:18Z</time>
      </trkpt>
      <trkpt lat="43.53395" lon="6.1214">
        <ele>412</ele>
        <time>2014-02-23T11:03:31Z</time>
      </trkpt>
      <trkpt lat="43.53402" lon="6.12132">
        <ele>412.9</ele>
        <time>2014-02-23T11:03:43Z</time>
      </trkpt>
      <trkpt lat="43.5341" lon="6.12126">
        <ele>414.6</ele>
        <time>2014-02-23T11:03:55Z</time>
      </trkpt>
      <trkpt lat="43.53412" lon="6.12128">
        <ele>414.8</ele>
        <time>2014-02-23T11:03:56Z</time>
      </trkpt>
      <trkpt lat="43.53426" lon="6.1212">
        <ele>416.8</ele>
        <time>2014-02-23T11:04:25Z</time>
      </trkpt>
      <trkpt lat="43.53432" lon="6.12112">
        <ele>418.8</ele>
        <time>2014-02-23T11:04:40Z</time>
      </trkpt>
      <trkpt lat="43.53438" lon="6.12105">
        <ele>421.4</ele>
        <time>2014-02-23T11:04:55Z</time>
      </trkpt>
      <trkpt lat="43.53442" lon="6.12094">
        <ele>422.1</ele>
        <time>2014-02-23T11:05:09Z</time>
      </trkpt>
      <trkpt lat="43.53442" lon="6.12093">
        <ele>422.3</ele>
        <time>2014-02-23T11:05:10Z</time>
      </trkpt>
      <trkpt lat="43.53447" lon="6.12072">
        <ele>426.4</ele>
        <time>2014-02-23T11:05:41Z</time>
      </trkpt>
      <trkpt lat="43.53447" lon="6.1206">
        <ele>429.2</ele>
        <time>2014-02-23T11:06:04Z</time>
      </trkpt>
      <trkpt lat="43.53444" lon="6.12049">
        <ele>429.9</ele>
        <time>2014-02-23T11:06:15Z</time>
      </trkpt>
      <trkpt lat="43.53443" lon="6.12047">
        <ele>429.9</ele>
        <time>2014-02-23T11:06:16Z</time>
      </trkpt>
      <trkpt lat="43.53433" lon="6.12033">
        <ele>431</ele>
        <time>2014-02-23T11:06:29Z</time>
      </trkpt>
      <trkpt lat="43.53426" lon="6.12024">
        <ele>431.3</ele>
        <time>2014-02-23T11:06:37Z</time>
      </trkpt>
      <trkpt lat="43.5342" lon="6.12018">
        <ele>431.8</ele>
        <time>2014-02-23T11:06:46Z</time>
      </trkpt>
      <trkpt lat="43.53413" lon="6.12011">
        <ele>432.1</ele>
        <time>2014-02-23T11:06:53Z</time>
      </trkpt>
      <trkpt lat="43.53405" lon="6.12006">
        <ele>432.8</ele>
        <time>2014-02-23T11:07:03Z</time>
      </trkpt>
      <trkpt lat="43.53397" lon="6.12">
        <ele>433.4</ele>
        <time>2014-02-23T11:07:13Z</time>
      </trkpt>
      <trkpt lat="43.53391" lon="6.11993">
        <ele>434.1</ele>
        <time>2014-02-23T11:07:23Z</time>
      </trkpt>
      <trkpt lat="43.5339" lon="6.11992">
        <ele>434.3</ele>
        <time>2014-02-23T11:07:24Z</time>
      </trkpt>
      <trkpt lat="43.5338" lon="6.11976">
        <ele>436.4</ele>
        <time>2014-02-23T11:07:44Z</time>
      </trkpt>
      <trkpt lat="43.53374" lon="6.11967">
        <ele>437</ele>
        <time>2014-02-23T11:07:53Z</time>
      </trkpt>
      <trkpt lat="43.53367" lon="6.11961">
        <ele>437.6</ele>
        <time>2014-02-23T11:08:00Z</time>
      </trkpt>
      <trkpt lat="43.53361" lon="6.11952">
        <ele>437.7</ele>
        <time>2014-02-23T11:08:09Z</time>
      </trkpt>
      <trkpt lat="43.53354" lon="6.11944">
        <ele>437.1</ele>
        <time>2014-02-23T11:08:17Z</time>
      </trkpt>
      <trkpt lat="43.53348" lon="6.11935">
        <ele>436.9</ele>
        <time>2014-02-23T11:08:24Z</time>
      </trkpt>
      <trkpt lat="43.53348" lon="6.11935">
        <ele>436.8</ele>
        <time>2014-02-23T11:08:25Z</time>
      </trkpt>
      <trkpt lat="43.53334" lon="6.11922">
        <ele>435.8</ele>
        <time>2014-02-23T11:08:44Z</time>
      </trkpt>
      <trkpt lat="43.53326" lon="6.11919">
        <ele>436</ele>
        <time>2014-02-23T11:08:51Z</time>
      </trkpt>
      <trkpt lat="43.53317" lon="6.11918">
        <ele>435.4</ele>
        <time>2014-02-23T11:09:00Z</time>
      </trkpt>
      <trkpt lat="43.53309" lon="6.11916">
        <ele>435.8</ele>
        <time>2014-02-23T11:09:08Z</time>
      </trkpt>
      <trkpt lat="43.53302" lon="6.11907">
        <ele>436.1</ele>
        <time>2014-02-23T11:09:16Z</time>
      </trkpt>
      <trkpt lat="43.53294" lon="6.11902">
        <ele>436.4</ele>
        <time>2014-02-23T11:09:27Z</time>
      </trkpt>
      <trkpt lat="43.53294" lon="6.11901">
        <ele>436.4</ele>
        <time>2014-02-23T11:09:28Z</time>
      </trkpt>
      <trkpt lat="43.5328" lon="6.11905">
        <ele>437.3</ele>
        <time>2014-02-23T11:10:11Z</time>
      </trkpt>
      <trkpt lat="43.53288" lon="6.11906">
        <ele>436.6</ele>
        <time>2014-02-23T11:11:15Z</time>
      </trkpt>
      <trkpt lat="43.53289" lon="6.11906">
        <ele>436.6</ele>
        <time>2014-02-23T11:11:16Z</time>
      </trkpt>
      <trkpt lat="43.53297" lon="6.11902">
        <ele>436.1</ele>
        <time>2014-02-23T11:17:20Z</time>
      </trkpt>
      <trkpt lat="43.53288" lon="6.11904">
        <ele>436.4</ele>
        <time>2014-02-23T11:19:22Z</time>
      </trkpt>
      <trkpt lat="43.53294" lon="6.11895">
        <ele>438.8</ele>
        <time>2014-02-23T11:32:34Z</time>
      </trkpt>
      <trkpt lat="43.53289" lon="6.11906">
        <ele>436.3</ele>
        <time>2014-02-23T11:35:12Z</time>
      </trkpt>
      <trkpt lat="43.5329" lon="6.11908">
        <ele>436.6</ele>
        <time>2014-02-23T11:36:59Z</time>
      </trkpt>
      <trkpt lat="43.53289" lon="6.11908">
        <ele>436.6</ele>
        <time>2014-02-23T11:37:00Z</time>
      </trkpt>
      <trkpt lat="43.53295" lon="6.11898">
        <ele>436.7</ele>
        <time>2014-02-23T11:39:41Z</time>
      </trkpt>
      <trkpt lat="43.5329" lon="6.1191">
        <ele>437.1</ele>
        <time>2014-02-23T11:41:43Z</time>
      </trkpt>
      <trkpt lat="43.53293" lon="6.11897">
        <ele>437.3</ele>
        <time>2014-02-23T11:45:37Z</time>
      </trkpt>
      <trkpt lat="43.53291" lon="6.11919">
        <ele>438.9</ele>
        <time>2014-02-23T11:51:20Z</time>
      </trkpt>
      <trkpt lat="43.53291" lon="6.1192">
        <ele>438.7</ele>
        <time>2014-02-23T11:51:21Z</time>
      </trkpt>
      <trkpt lat="43.53283" lon="6.11899">
        <ele>438.4</ele>
        <time>2014-02-23T11:53:29Z</time>
      </trkpt>
      <trkpt lat="43.53283" lon="6.11899">
        <ele>438.5</ele>
        <time>2014-02-23T11:53:30Z</time>
      </trkpt>
      <trkpt lat="43.53292" lon="6.11896">
        <ele>438.4</ele>
        <time>2014-02-23T11:56:03Z</time>
      </trkpt>
      <trkpt lat="43.53279" lon="6.11915">
        <ele>440.8</ele>
        <time>2014-02-23T11:58:48Z</time>
      </trkpt>
      <trkpt lat="43.53279" lon="6.11915">
        <ele>440.9</ele>
        <time>2014-02-23T11:58:49Z</time>
      </trkpt>
      <trkpt lat="43.53286" lon="6.11906">
        <ele>440.4</ele>
        <time>2014-02-23T12:00:29Z</time>
      </trkpt>
      <trkpt lat="43.53282" lon="6.11919">
        <ele>440.3</ele>
        <time>2014-02-23T12:01:46Z</time>
      </trkpt>
      <trkpt lat="43.53287" lon="6.11908">
        <ele>441.3</ele>
        <time>2014-02-23T12:03:19Z</time>
      </trkpt>
      <trkpt lat="43.53287" lon="6.11896">
        <ele>441.3</ele>
        <time>2014-02-23T12:17:45Z</time>
      </trkpt>
      <trkpt lat="43.53283" lon="6.1191">
        <ele>441.4</ele>
        <time>2014-02-23T12:19:24Z</time>
      </trkpt>
      <trkpt lat="43.5329" lon="6.11918">
        <ele>440.8</ele>
        <time>2014-02-23T12:21:07Z</time>
      </trkpt>
      <trkpt lat="43.53307" lon="6.11924">
        <ele>440.7</ele>
        <time>2014-02-23T12:21:30Z</time>
      </trkpt>
      <trkpt lat="43.53315" lon="6.11927">
        <ele>439.6</ele>
        <time>2014-02-23T12:21:39Z</time>
      </trkpt>
      <trkpt lat="43.53322" lon="6.11931">
        <ele>440.6</ele>
        <time>2014-02-23T12:21:46Z</time>
      </trkpt>
      <trkpt lat="43.53331" lon="6.1193">
        <ele>440.3</ele>
        <time>2014-02-23T12:21:55Z</time>
      </trkpt>
      <trkpt lat="43.53338" lon="6.11936">
        <ele>440.9</ele>
        <time>2014-02-23T12:22:04Z</time>
      </trkpt>
      <trkpt lat="43.53345" lon="6.11943">
        <ele>441</ele>
        <time>2014-02-23T12:22:13Z</time>
      </trkpt>
      <trkpt lat="43.53345" lon="6.11945">
        <ele>440.9</ele>
        <time>2014-02-23T12:22:14Z</time>
      </trkpt>
      <trkpt lat="43.53356" lon="6.11959">
        <ele>441.8</ele>
        <time>2014-02-23T12:22:30Z</time>
      </trkpt>
      <trkpt lat="43.53363" lon="6.11966">
        <ele>442.5</ele>
        <time>2014-02-23T12:22:37Z</time>
      </trkpt>
      <trkpt lat="43.5337" lon="6.11973">
        <ele>442.5</ele>
        <time>2014-02-23T12:22:45Z</time>
      </trkpt>
      <trkpt lat="43.53376" lon="6.1198">
        <ele>442.6</ele>
        <time>2014-02-23T12:22:53Z</time>
      </trkpt>
      <trkpt lat="43.5338" lon="6.1199">
        <ele>442.9</ele>
        <time>2014-02-23T12:23:04Z</time>
      </trkpt>
      <trkpt lat="43.53387" lon="6.11997">
        <ele>441.7</ele>
        <time>2014-02-23T12:23:11Z</time>
      </trkpt>
      <trkpt lat="43.53392" lon="6.12007">
        <ele>440.9</ele>
        <time>2014-02-23T12:23:18Z</time>
      </trkpt>
      <trkpt lat="43.53392" lon="6.12008">
        <ele>441.1</ele>
        <time>2014-02-23T12:23:19Z</time>
      </trkpt>
      <trkpt lat="43.53403" lon="6.12022">
        <ele>438.3</ele>
        <time>2014-02-23T12:23:35Z</time>
      </trkpt>
      <trkpt lat="43.53411" lon="6.12028">
        <ele>437.1</ele>
        <time>2014-02-23T12:23:43Z</time>
      </trkpt>
      <trkpt lat="43.53417" lon="6.12034">
        <ele>437.6</ele>
        <time>2014-02-23T12:23:49Z</time>
      </trkpt>
      <trkpt lat="43.53425" lon="6.12037">
        <ele>437.1</ele>
        <time>2014-02-23T12:23:54Z</time>
      </trkpt>
      <trkpt lat="43.53432" lon="6.12045">
        <ele>436.1</ele>
        <time>2014-02-23T12:24:04Z</time>
      </trkpt>
      <trkpt lat="43.53438" lon="6.12051">
        <ele>435.7</ele>
        <time>2014-02-23T12:24:14Z</time>
      </trkpt>
      <trkpt lat="43.53444" lon="6.12061">
        <ele>435.4</ele>
        <time>2014-02-23T12:24:24Z</time>
      </trkpt>
      <trkpt lat="43.53443" lon="6.12062">
        <ele>435.3</ele>
        <time>2014-02-23T12:24:25Z</time>
      </trkpt>
      <trkpt lat="43.53438" lon="6.12059">
        <ele>430.6</ele>
        <time>2014-02-23T12:25:08Z</time>
      </trkpt>
      <trkpt lat="43.5344" lon="6.12069">
        <ele>428.2</ele>
        <time>2014-02-23T12:25:15Z</time>
      </trkpt>
      <trkpt lat="43.53437" lon="6.12079">
        <ele>428.9</ele>
        <time>2014-02-23T12:25:18Z</time>
      </trkpt>
      <trkpt lat="43.53435" lon="6.1209">
        <ele>426.9</ele>
        <time>2014-02-23T12:25:26Z</time>
      </trkpt>
      <trkpt lat="43.53434" lon="6.12091">
        <ele>426.6</ele>
        <time>2014-02-23T12:25:27Z</time>
      </trkpt>
      <trkpt lat="43.53425" lon="6.12109">
        <ele>425.6</ele>
        <time>2014-02-23T12:26:03Z</time>
      </trkpt>
      <trkpt lat="43.53416" lon="6.12109">
        <ele>422.6</ele>
        <time>2014-02-23T12:26:20Z</time>
      </trkpt>
      <trkpt lat="43.53409" lon="6.12112">
        <ele>419.5</ele>
        <time>2014-02-23T12:26:29Z</time>
      </trkpt>
      <trkpt lat="43.53408" lon="6.12114">
        <ele>419.4</ele>
        <time>2014-02-23T12:26:31Z</time>
      </trkpt>
      <trkpt lat="43.53398" lon="6.12129">
        <ele>418.3</ele>
        <time>2014-02-23T12:26:46Z</time>
      </trkpt>
      <trkpt lat="43.5339" lon="6.12135">
        <ele>418.2</ele>
        <time>2014-02-23T12:26:53Z</time>
      </trkpt>
      <trkpt lat="43.53384" lon="6.1214">
        <ele>417</ele>
        <time>2014-02-23T12:27:03Z</time>
      </trkpt>
      <trkpt lat="43.53377" lon="6.12147">
        <ele>417.4</ele>
        <time>2014-02-23T12:27:08Z</time>
      </trkpt>
      <trkpt lat="43.5337" lon="6.12154">
        <ele>416.2</ele>
        <time>2014-02-23T12:27:15Z</time>
      </trkpt>
      <trkpt lat="43.53365" lon="6.12163">
        <ele>415.5</ele>
        <time>2014-02-23T12:27:19Z</time>
      </trkpt>
      <trkpt lat="43.53362" lon="6.12174">
        <ele>415</ele>
        <time>2014-02-23T12:27:24Z</time>
      </trkpt>
      <trkpt lat="43.53365" lon="6.12184">
        <ele>413</ele>
        <time>2014-02-23T12:27:30Z</time>
      </trkpt>
      <trkpt lat="43.53366" lon="6.12195">
        <ele>413</ele>
        <time>2014-02-23T12:27:35Z</time>
      </trkpt>
      <trkpt lat="43.53366" lon="6.12198">
        <ele>412.6</ele>
        <time>2014-02-23T12:27:36Z</time>
      </trkpt>
      <trkpt lat="43.53381" lon="6.12205">
        <ele>411.1</ele>
        <time>2014-02-23T12:27:48Z</time>
      </trkpt>
      <trkpt lat="43.53387" lon="6.12212">
        <ele>410.6</ele>
        <time>2014-02-23T12:27:52Z</time>
      </trkpt>
      <trkpt lat="43.53394" lon="6.12217">
        <ele>411.3</ele>
        <time>2014-02-23T12:28:00Z</time>
      </trkpt>
      <trkpt lat="43.53395" lon="6.12229">
        <ele>411.3</ele>
        <time>2014-02-23T12:28:05Z</time>
      </trkpt>
      <trkpt lat="43.53399" lon="6.12238">
        <ele>408.9</ele>
        <time>2014-02-23T12:28:14Z</time>
      </trkpt>
      <trkpt lat="43.53402" lon="6.12248">
        <ele>408.8</ele>
        <time>2014-02-23T12:28:22Z</time>
      </trkpt>
      <trkpt lat="43.53404" lon="6.12259">
        <ele>407.4</ele>
        <time>2014-02-23T12:28:29Z</time>
      </trkpt>
      <trkpt lat="43.53405" lon="6.1227">
        <ele>406.8</ele>
        <time>2014-02-23T12:28:37Z</time>
      </trkpt>
      <trkpt lat="43.53405" lon="6.12271">
        <ele>406.7</ele>
        <time>2014-02-23T12:28:38Z</time>
      </trkpt>
      <trkpt lat="43.53403" lon="6.12291">
        <ele>404.1</ele>
        <time>2014-02-23T12:28:52Z</time>
      </trkpt>
      <trkpt lat="43.53406" lon="6.12301">
        <ele>402.2</ele>
        <time>2014-02-23T12:29:00Z</time>
      </trkpt>
      <trkpt lat="43.53405" lon="6.12313">
        <ele>401.6</ele>
        <time>2014-02-23T12:29:07Z</time>
      </trkpt>
      <trkpt lat="43.53405" lon="6.12325">
        <ele>400.8</ele>
        <time>2014-02-23T12:29:15Z</time>
      </trkpt>
      <trkpt lat="43.53406" lon="6.12336">
        <ele>400.1</ele>
        <time>2014-02-23T12:29:21Z</time>
      </trkpt>
      <trkpt lat="43.5341" lon="6.12347">
        <ele>399.7</ele>
        <time>2014-02-23T12:29:31Z</time>
      </trkpt>
      <trkpt lat="43.53409" lon="6.12357">
        <ele>398.6</ele>
        <time>2014-02-23T12:29:37Z</time>
      </trkpt>
      <trkpt lat="43.53407" lon="6.12369">
        <ele>396.5</ele>
        <time>2014-02-23T12:29:45Z</time>
      </trkpt>
      <trkpt lat="43.53407" lon="6.12371">
        <ele>396.3</ele>
        <time>2014-02-23T12:29:46Z</time>
      </trkpt>
      <trkpt lat="43.53406" lon="6.12393">
        <ele>395.7</ele>
        <time>2014-02-23T12:29:58Z</time>
      </trkpt>
      <trkpt lat="43.5341" lon="6.12404">
        <ele>396</ele>
        <time>2014-02-23T12:30:07Z</time>
      </trkpt>
      <trkpt lat="43.53413" lon="6.12415">
        <ele>394</ele>
        <time>2014-02-23T12:30:15Z</time>
      </trkpt>
      <trkpt lat="43.53415" lon="6.12426">
        <ele>393.6</ele>
        <time>2014-02-23T12:30:24Z</time>
      </trkpt>
      <trkpt lat="43.53419" lon="6.12437">
        <ele>392</ele>
        <time>2014-02-23T12:30:34Z</time>
      </trkpt>
      <trkpt lat="43.53419" lon="6.12448">
        <ele>391.5</ele>
        <time>2014-02-23T12:30:40Z</time>
      </trkpt>
      <trkpt lat="43.53421" lon="6.12459">
        <ele>391.1</ele>
        <time>2014-02-23T12:30:49Z</time>
      </trkpt>
      <trkpt lat="43.53421" lon="6.12461">
        <ele>391.4</ele>
        <time>2014-02-23T12:30:50Z</time>
      </trkpt>
      <trkpt lat="43.53428" lon="6.12481">
        <ele>391.1</ele>
        <time>2014-02-23T12:31:03Z</time>
      </trkpt>
      <trkpt lat="43.53425" lon="6.12492">
        <ele>390.7</ele>
        <time>2014-02-23T12:31:09Z</time>
      </trkpt>
      <trkpt lat="43.53419" lon="6.125">
        <ele>390.6</ele>
        <time>2014-02-23T12:31:16Z</time>
      </trkpt>
      <trkpt lat="43.5341" lon="6.12503">
        <ele>389.1</ele>
        <time>2014-02-23T12:31:24Z</time>
      </trkpt>
      <trkpt lat="43.53403" lon="6.12511">
        <ele>388.8</ele>
        <time>2014-02-23T12:31:42Z</time>
      </trkpt>
      <trkpt lat="43.53398" lon="6.12521">
        <ele>387.7</ele>
        <time>2014-02-23T12:32:03Z</time>
      </trkpt>
      <trkpt lat="43.53398" lon="6.12521">
        <ele>388</ele>
        <time>2014-02-23T12:32:04Z</time>
      </trkpt>
      <trkpt lat="43.53403" lon="6.12532">
        <ele>388.2</ele>
        <time>2014-02-23T12:35:15Z</time>
      </trkpt>
      <trkpt lat="43.53416" lon="6.12546">
        <ele>387.2</ele>
        <time>2014-02-23T12:35:38Z</time>
      </trkpt>
      <trkpt lat="43.53419" lon="6.12557">
        <ele>387.4</ele>
        <time>2014-02-23T12:35:47Z</time>
      </trkpt>
      <trkpt lat="43.53419" lon="6.12568">
        <ele>386.2</ele>
        <time>2014-02-23T12:35:56Z</time>
      </trkpt>
      <trkpt lat="43.53422" lon="6.1258">
        <ele>387.1</ele>
        <time>2014-02-23T12:36:06Z</time>
      </trkpt>
      <trkpt lat="43.53429" lon="6.12585">
        <ele>386.8</ele>
        <time>2014-02-23T12:36:15Z</time>
      </trkpt>
      <trkpt lat="43.5343" lon="6.12586">
        <ele>386.5</ele>
        <time>2014-02-23T12:36:16Z</time>
      </trkpt>
      <trkpt lat="43.53443" lon="6.12599">
        <ele>386.6</ele>
        <time>2014-02-23T12:36:30Z</time>
      </trkpt>
      <trkpt lat="43.53448" lon="6.12609">
        <ele>386</ele>
        <time>2014-02-23T12:36:37Z</time>
      </trkpt>
      <trkpt lat="43.53454" lon="6.12617">
        <ele>386.7</ele>
        <time>2014-02-23T12:36:48Z</time>
      </trkpt>
      <trkpt lat="43.53457" lon="6.12627">
        <ele>386.2</ele>
        <time>2014-02-23T12:36:55Z</time>
      </trkpt>
      <trkpt lat="43.5346" lon="6.12638">
        <ele>386.1</ele>
        <time>2014-02-23T12:37:03Z</time>
      </trkpt>
      <trkpt lat="43.53462" lon="6.12648">
        <ele>385.7</ele>
        <time>2014-02-23T12:37:10Z</time>
      </trkpt>
      <trkpt lat="43.53463" lon="6.12659">
        <ele>386.5</ele>
        <time>2014-02-23T12:37:17Z</time>
      </trkpt>
      <trkpt lat="43.53464" lon="6.1266">
        <ele>386.3</ele>
        <time>2014-02-23T12:37:18Z</time>
      </trkpt>
      <trkpt lat="43.53459" lon="6.12681">
        <ele>385</ele>
        <time>2014-02-23T12:37:40Z</time>
      </trkpt>
      <trkpt lat="43.53453" lon="6.1269">
        <ele>386.5</ele>
        <time>2014-02-23T12:37:58Z</time>
      </trkpt>
      <trkpt lat="43.53445" lon="6.12696">
        <ele>386.9</ele>
        <time>2014-02-23T12:38:07Z</time>
      </trkpt>
      <trkpt lat="43.53438" lon="6.12701">
        <ele>386</ele>
        <time>2014-02-23T12:38:15Z</time>
      </trkpt>
      <trkpt lat="43.53431" lon="6.12706">
        <ele>386.7</ele>
        <time>2014-02-23T12:38:22Z</time>
      </trkpt>
      <trkpt lat="43.53429" lon="6.12707">
        <ele>387</ele>
        <time>2014-02-23T12:38:23Z</time>
      </trkpt>
      <trkpt lat="43.53415" lon="6.12718">
        <ele>387.1</ele>
        <time>2014-02-23T12:38:38Z</time>
      </trkpt>
      <trkpt lat="43.53407" lon="6.12722">
        <ele>386.7</ele>
        <time>2014-02-23T12:38:45Z</time>
      </trkpt>
      <trkpt lat="43.53399" lon="6.12724">
        <ele>386.7</ele>
        <time>2014-02-23T12:38:54Z</time>
      </trkpt>
      <trkpt lat="43.5339" lon="6.12727">
        <ele>386.1</ele>
        <time>2014-02-23T12:39:03Z</time>
      </trkpt>
      <trkpt lat="43.53384" lon="6.12735">
        <ele>385.9</ele>
        <time>2014-02-23T12:39:11Z</time>
      </trkpt>
      <trkpt lat="43.53379" lon="6.12744">
        <ele>385.8</ele>
        <time>2014-02-23T12:39:18Z</time>
      </trkpt>
      <trkpt lat="43.53374" lon="6.12754">
        <ele>385</ele>
        <time>2014-02-23T12:39:29Z</time>
      </trkpt>
      <trkpt lat="43.53374" lon="6.12755">
        <ele>384.5</ele>
        <time>2014-02-23T12:39:30Z</time>
      </trkpt>
      <trkpt lat="43.53369" lon="6.12775">
        <ele>384.3</ele>
        <time>2014-02-23T12:39:47Z</time>
      </trkpt>
      <trkpt lat="43.53365" lon="6.12786">
        <ele>383.7</ele>
        <time>2014-02-23T12:39:53Z</time>
      </trkpt>
      <trkpt lat="43.53361" lon="6.12795">
        <ele>383.8</ele>
        <time>2014-02-23T12:39:59Z</time>
      </trkpt>
      <trkpt lat="43.53355" lon="6.12803">
        <ele>384.7</ele>
        <time>2014-02-23T12:40:06Z</time>
      </trkpt>
      <trkpt lat="43.53349" lon="6.12811">
        <ele>384</ele>
        <time>2014-02-23T12:40:14Z</time>
      </trkpt>
      <trkpt lat="43.53342" lon="6.12818">
        <ele>384.6</ele>
        <time>2014-02-23T12:40:22Z</time>
      </trkpt>
      <trkpt lat="43.53334" lon="6.12825">
        <ele>383.9</ele>
        <time>2014-02-23T12:40:29Z</time>
      </trkpt>
      <trkpt lat="43.53326" lon="6.12829">
        <ele>383.2</ele>
        <time>2014-02-23T12:40:35Z</time>
      </trkpt>
      <trkpt lat="43.53326" lon="6.1283">
        <ele>382.8</ele>
        <time>2014-02-23T12:40:36Z</time>
      </trkpt>
      <trkpt lat="43.53313" lon="6.12842">
        <ele>383</ele>
        <time>2014-02-23T12:40:50Z</time>
      </trkpt>
      <trkpt lat="43.53307" lon="6.12849">
        <ele>383.3</ele>
        <time>2014-02-23T12:40:55Z</time>
      </trkpt>
      <trkpt lat="43.533" lon="6.12857">
        <ele>383.7</ele>
        <time>2014-02-23T12:41:03Z</time>
      </trkpt>
      <trkpt lat="43.53295" lon="6.12866">
        <ele>383.4</ele>
        <time>2014-02-23T12:41:09Z</time>
      </trkpt>
      <trkpt lat="43.5329" lon="6.12875">
        <ele>382.5</ele>
        <time>2014-02-23T12:41:16Z</time>
      </trkpt>
      <trkpt lat="43.53284" lon="6.12881">
        <ele>382</ele>
        <time>2014-02-23T12:41:22Z</time>
      </trkpt>
      <trkpt lat="43.53278" lon="6.1289">
        <ele>382.5</ele>
        <time>2014-02-23T12:41:27Z</time>
      </trkpt>
      <trkpt lat="43.53271" lon="6.12897">
        <ele>382.6</ele>
        <time>2014-02-23T12:41:34Z</time>
      </trkpt>
      <trkpt lat="43.53263" lon="6.12901">
        <ele>382.4</ele>
        <time>2014-02-23T12:41:45Z</time>
      </trkpt>
      <trkpt lat="43.53262" lon="6.12901">
        <ele>382.3</ele>
        <time>2014-02-23T12:41:46Z</time>
      </trkpt>
      <trkpt lat="43.53249" lon="6.12912">
        <ele>382.5</ele>
        <time>2014-02-23T12:42:00Z</time>
      </trkpt>
      <trkpt lat="43.53243" lon="6.12921">
        <ele>382.5</ele>
        <time>2014-02-23T12:42:07Z</time>
      </trkpt>
      <trkpt lat="43.53238" lon="6.12931">
        <ele>382.2</ele>
        <time>2014-02-23T12:42:15Z</time>
      </trkpt>
      <trkpt lat="43.53234" lon="6.12941">
        <ele>383</ele>
        <time>2014-02-23T12:42:24Z</time>
      </trkpt>
      <trkpt lat="43.5323" lon="6.12952">
        <ele>381.7</ele>
        <time>2014-02-23T12:42:33Z</time>
      </trkpt>
      <trkpt lat="43.53225" lon="6.12961">
        <ele>381.9</ele>
        <time>2014-02-23T12:42:40Z</time>
      </trkpt>
      <trkpt lat="43.53219" lon="6.1297">
        <ele>381.8</ele>
        <time>2014-02-23T12:42:48Z</time>
      </trkpt>
      <trkpt lat="43.53218" lon="6.12971">
        <ele>381.5</ele>
        <time>2014-02-23T12:42:49Z</time>
      </trkpt>
      <trkpt lat="43.53204" lon="6.12982">
        <ele>381.8</ele>
        <time>2014-02-23T12:43:04Z</time>
      </trkpt>
      <trkpt lat="43.53196" lon="6.12987">
        <ele>382.1</ele>
        <time>2014-02-23T12:43:10Z</time>
      </trkpt>
      <trkpt lat="43.53189" lon="6.12994">
        <ele>381.7</ele>
        <time>2014-02-23T12:43:17Z</time>
      </trkpt>
      <trkpt lat="43.53183" lon="6.12999">
        <ele>381.6</ele>
        <time>2014-02-23T12:43:22Z</time>
      </trkpt>
      <trkpt lat="43.53176" lon="6.13004">
        <ele>382.7</ele>
        <time>2014-02-23T12:43:28Z</time>
      </trkpt>
      <trkpt lat="43.53169" lon="6.13011">
        <ele>383.1</ele>
        <time>2014-02-23T12:43:35Z</time>
      </trkpt>
      <trkpt lat="43.53162" lon="6.13017">
        <ele>382.8</ele>
        <time>2014-02-23T12:43:43Z</time>
      </trkpt>
      <trkpt lat="43.53154" lon="6.13023">
        <ele>382.9</ele>
        <time>2014-02-23T12:43:54Z</time>
      </trkpt>
      <trkpt lat="43.53153" lon="6.13024">
        <ele>382.9</ele>
        <time>2014-02-23T12:43:55Z</time>
      </trkpt>
      <trkpt lat="43.5314" lon="6.13035">
        <ele>383</ele>
        <time>2014-02-23T12:44:09Z</time>
      </trkpt>
      <trkpt lat="43.53132" lon="6.13041">
        <ele>383.1</ele>
        <time>2014-02-23T12:44:18Z</time>
      </trkpt>
      <trkpt lat="43.53124" lon="6.13045">
        <ele>384.2</ele>
        <time>2014-02-23T12:44:26Z</time>
      </trkpt>
      <trkpt lat="43.53118" lon="6.13052">
        <ele>385.4</ele>
        <time>2014-02-23T12:44:33Z</time>
      </trkpt>
      <trkpt lat="43.53113" lon="6.13062">
        <ele>384.7</ele>
        <time>2014-02-23T12:44:40Z</time>
      </trkpt>
      <trkpt lat="43.53107" lon="6.1307">
        <ele>385.5</ele>
        <time>2014-02-23T12:44:47Z</time>
      </trkpt>
      <trkpt lat="43.53103" lon="6.1308">
        <ele>386.2</ele>
        <time>2014-02-23T12:44:55Z</time>
      </trkpt>
      <trkpt lat="43.53103" lon="6.13081">
        <ele>386</ele>
        <time>2014-02-23T12:44:56Z</time>
      </trkpt>
      <trkpt lat="43.53092" lon="6.13095">
        <ele>385.7</ele>
        <time>2014-02-23T12:45:09Z</time>
      </trkpt>
      <trkpt lat="43.53087" lon="6.13103">
        <ele>386</ele>
        <time>2014-02-23T12:45:17Z</time>
      </trkpt>
      <trkpt lat="43.53082" lon="6.13113">
        <ele>385.8</ele>
        <time>2014-02-23T12:45:24Z</time>
      </trkpt>
      <trkpt lat="43.53075" lon="6.1312">
        <ele>385.7</ele>
        <time>2014-02-23T12:45:32Z</time>
      </trkpt>
      <trkpt lat="43.53069" lon="6.13128">
        <ele>384.9</ele>
        <time>2014-02-23T12:45:39Z</time>
      </trkpt>
      <trkpt lat="43.53067" lon="6.13139">
        <ele>385.1</ele>
        <time>2014-02-23T12:45:47Z</time>
      </trkpt>
      <trkpt lat="43.53064" lon="6.13149">
        <ele>385.3</ele>
        <time>2014-02-23T12:45:54Z</time>
      </trkpt>
      <trkpt lat="43.53059" lon="6.13158">
        <ele>385</ele>
        <time>2014-02-23T12:46:01Z</time>
      </trkpt>
      <trkpt lat="43.53058" lon="6.1316">
        <ele>384.6</ele>
        <time>2014-02-23T12:46:02Z</time>
      </trkpt>
      <trkpt lat="43.53052" lon="6.13178">
        <ele>384.4</ele>
        <time>2014-02-23T12:46:16Z</time>
      </trkpt>
      <trkpt lat="43.53048" lon="6.13187">
        <ele>384.9</ele>
        <time>2014-02-23T12:46:23Z</time>
      </trkpt>
      <trkpt lat="43.53042" lon="6.13196">
        <ele>383.5</ele>
        <time>2014-02-23T12:46:30Z</time>
      </trkpt>
      <trkpt lat="43.53036" lon="6.13204">
        <ele>383.2</ele>
        <time>2014-02-23T12:46:38Z</time>
      </trkpt>
      <trkpt lat="43.5303" lon="6.13212">
        <ele>383.5</ele>
        <time>2014-02-23T12:46:45Z</time>
      </trkpt>
      <trkpt lat="43.53024" lon="6.1322">
        <ele>383.8</ele>
        <time>2014-02-23T12:46:52Z</time>
      </trkpt>
      <trkpt lat="43.53015" lon="6.13225">
        <ele>382.8</ele>
        <time>2014-02-23T12:47:02Z</time>
      </trkpt>
      <trkpt lat="43.53015" lon="6.13225">
        <ele>383</ele>
        <time>2014-02-23T12:47:03Z</time>
      </trkpt>
      <trkpt lat="43.52999" lon="6.13233">
        <ele>382.8</ele>
        <time>2014-02-23T12:47:18Z</time>
      </trkpt>
      <trkpt lat="43.52991" lon="6.13239">
        <ele>382.6</ele>
        <time>2014-02-23T12:47:26Z</time>
      </trkpt>
      <trkpt lat="43.52983" lon="6.13243">
        <ele>381.6</ele>
        <time>2014-02-23T12:47:33Z</time>
      </trkpt>
      <trkpt lat="43.52976" lon="6.13249">
        <ele>382</ele>
        <time>2014-02-23T12:47:40Z</time>
      </trkpt>
      <trkpt lat="43.52969" lon="6.13254">
        <ele>381.7</ele>
        <time>2014-02-23T12:47:46Z</time>
      </trkpt>
      <trkpt lat="43.52961" lon="6.13259">
        <ele>382.2</ele>
        <time>2014-02-23T12:47:56Z</time>
      </trkpt>
      <trkpt lat="43.52952" lon="6.13262">
        <ele>382.3</ele>
        <time>2014-02-23T12:48:02Z</time>
      </trkpt>
      <trkpt lat="43.52945" lon="6.13266">
        <ele>382.7</ele>
        <time>2014-02-23T12:48:09Z</time>
      </trkpt>
      <trkpt lat="43.52943" lon="6.13267">
        <ele>382.8</ele>
        <time>2014-02-23T12:48:10Z</time>
      </trkpt>
      <trkpt lat="43.52931" lon="6.13279">
        <ele>382</ele>
        <time>2014-02-23T12:48:30Z</time>
      </trkpt>
      <trkpt lat="43.52923" lon="6.13283">
        <ele>383</ele>
        <time>2014-02-23T12:48:43Z</time>
      </trkpt>
      <trkpt lat="43.52916" lon="6.13287">
        <ele>383.1</ele>
        <time>2014-02-23T12:48:52Z</time>
      </trkpt>
      <trkpt lat="43.52908" lon="6.13289">
        <ele>382.5</ele>
        <time>2014-02-23T12:48:56Z</time>
      </trkpt>
      <trkpt lat="43.529" lon="6.13294">
        <ele>382.6</ele>
        <time>2014-02-23T12:49:03Z</time>
      </trkpt>
      <trkpt lat="43.52893" lon="6.13299">
        <ele>382.4</ele>
        <time>2014-02-23T12:49:10Z</time>
      </trkpt>
      <trkpt lat="43.52892" lon="6.133">
        <ele>382.5</ele>
        <time>2014-02-23T12:49:11Z</time>
      </trkpt>
      <trkpt lat="43.52878" lon="6.13308">
        <ele>381.8</ele>
        <time>2014-02-23T12:49:19Z</time>
      </trkpt>
      <trkpt lat="43.52871" lon="6.13314">
        <ele>382.7</ele>
        <time>2014-02-23T12:49:29Z</time>
      </trkpt>
      <trkpt lat="43.52864" lon="6.1332">
        <ele>383.6</ele>
        <time>2014-02-23T12:49:37Z</time>
      </trkpt>
      <trkpt lat="43.52857" lon="6.13327">
        <ele>383.7</ele>
        <time>2014-02-23T12:49:44Z</time>
      </trkpt>
      <trkpt lat="43.52849" lon="6.13323">
        <ele>384.9</ele>
        <time>2014-02-23T12:49:53Z</time>
      </trkpt>
      <trkpt lat="43.52842" lon="6.13319">
        <ele>383.9</ele>
        <time>2014-02-23T12:49:59Z</time>
      </trkpt>
      <trkpt lat="43.52834" lon="6.13316">
        <ele>382.7</ele>
        <time>2014-02-23T12:50:05Z</time>
      </trkpt>
      <trkpt lat="43.52825" lon="6.13316">
        <ele>382.7</ele>
        <time>2014-02-23T12:50:11Z</time>
      </trkpt>
      <trkpt lat="43.52824" lon="6.13315">
        <ele>382.6</ele>
        <time>2014-02-23T12:50:12Z</time>
      </trkpt>
      <trkpt lat="43.52812" lon="6.13304">
        <ele>383.5</ele>
        <time>2014-02-23T12:50:26Z</time>
      </trkpt>
      <trkpt lat="43.52804" lon="6.13299">
        <ele>382.8</ele>
        <time>2014-02-23T12:50:32Z</time>
      </trkpt>
      <trkpt lat="43.52796" lon="6.13298">
        <ele>383.3</ele>
        <time>2014-02-23T12:50:39Z</time>
      </trkpt>
      <trkpt lat="43.52788" lon="6.13295">
        <ele>383.6</ele>
        <time>2014-02-23T12:50:47Z</time>
      </trkpt>
      <trkpt lat="43.52781" lon="6.13288">
        <ele>382.9</ele>
        <time>2014-02-23T12:50:55Z</time>
      </trkpt>
      <trkpt lat="43.52774" lon="6.13283">
        <ele>382.9</ele>
        <time>2014-02-23T12:51:01Z</time>
      </trkpt>
      <trkpt lat="43.52767" lon="6.13278">
        <ele>382.7</ele>
        <time>2014-02-23T12:51:06Z</time>
      </trkpt>
      <trkpt lat="43.5276" lon="6.1327">
        <ele>382.9</ele>
        <time>2014-02-23T12:51:13Z</time>
      </trkpt>
      <trkpt lat="43.52759" lon="6.1327">
        <ele>382.9</ele>
        <time>2014-02-23T12:51:14Z</time>
      </trkpt>
      <trkpt lat="43.52752" lon="6.13267">
        <ele>382.5</ele>
        <time>2014-02-23T12:52:32Z</time>
      </trkpt>
      <trkpt lat="43.52738" lon="6.13253">
        <ele>384</ele>
        <time>2014-02-23T12:52:47Z</time>
      </trkpt>
      <trkpt lat="43.52732" lon="6.13245">
        <ele>384.2</ele>
        <time>2014-02-23T12:52:56Z</time>
      </trkpt>
      <trkpt lat="43.52727" lon="6.13237">
        <ele>384.2</ele>
        <time>2014-02-23T12:53:14Z</time>
      </trkpt>
      <trkpt lat="43.52721" lon="6.13228">
        <ele>384</ele>
        <time>2014-02-23T12:53:22Z</time>
      </trkpt>
      <trkpt lat="43.52714" lon="6.13221">
        <ele>383.8</ele>
        <time>2014-02-23T12:53:29Z</time>
      </trkpt>
      <trkpt lat="43.52708" lon="6.13213">
        <ele>383.9</ele>
        <time>2014-02-23T12:53:38Z</time>
      </trkpt>
      <trkpt lat="43.52707" lon="6.13211">
        <ele>384.2</ele>
        <time>2014-02-23T12:53:39Z</time>
      </trkpt>
      <trkpt lat="43.52701" lon="6.13192">
        <ele>383.5</ele>
        <time>2014-02-23T12:54:02Z</time>
      </trkpt>
      <trkpt lat="43.52695" lon="6.13184">
        <ele>382.9</ele>
        <time>2014-02-23T12:54:11Z</time>
      </trkpt>
      <trkpt lat="43.52689" lon="6.13176">
        <ele>383.1</ele>
        <time>2014-02-23T12:54:18Z</time>
      </trkpt>
      <trkpt lat="43.52684" lon="6.13167">
        <ele>383.2</ele>
        <time>2014-02-23T12:54:24Z</time>
      </trkpt>
      <trkpt lat="43.52679" lon="6.13158">
        <ele>383.4</ele>
        <time>2014-02-23T12:54:32Z</time>
      </trkpt>
      <trkpt lat="43.52673" lon="6.13149">
        <ele>383.1</ele>
        <time>2014-02-23T12:54:41Z</time>
      </trkpt>
      <trkpt lat="43.52672" lon="6.13149">
        <ele>383.3</ele>
        <time>2014-02-23T12:54:42Z</time>
      </trkpt>
      <trkpt lat="43.52662" lon="6.13133">
        <ele>382.7</ele>
        <time>2014-02-23T12:54:56Z</time>
      </trkpt>
      <trkpt lat="43.52656" lon="6.13124">
        <ele>382.8</ele>
        <time>2014-02-23T12:55:02Z</time>
      </trkpt>
      <trkpt lat="43.52651" lon="6.13114">
        <ele>382.3</ele>
        <time>2014-02-23T12:55:10Z</time>
      </trkpt>
      <trkpt lat="43.52647" lon="6.13103">
        <ele>383.3</ele>
        <time>2014-02-23T12:55:18Z</time>
      </trkpt>
      <trkpt lat="43.5265" lon="6.13093">
        <ele>383.4</ele>
        <time>2014-02-23T12:55:34Z</time>
      </trkpt>
      <trkpt lat="43.52656" lon="6.13085">
        <ele>382.5</ele>
        <time>2014-02-23T12:55:39Z</time>
      </trkpt>
      <trkpt lat="43.5266" lon="6.13075">
        <ele>382</ele>
        <time>2014-02-23T12:55:50Z</time>
      </trkpt>
      <trkpt lat="43.5266" lon="6.13073">
        <ele>381.9</ele>
        <time>2014-02-23T12:55:51Z</time>
      </trkpt>
      <trkpt lat="43.52649" lon="6.13093">
        <ele>383</ele>
        <time>2014-02-23T12:56:29Z</time>
      </trkpt>
      <trkpt lat="43.52646" lon="6.13082">
        <ele>383.5</ele>
        <time>2014-02-23T12:56:53Z</time>
      </trkpt>
      <trkpt lat="43.52645" lon="6.1308">
        <ele>383.4</ele>
        <time>2014-02-23T12:56:54Z</time>
      </trkpt>
      <trkpt lat="43.52636" lon="6.13062">
        <ele>383.2</ele>
        <time>2014-02-23T12:57:06Z</time>
      </trkpt>
      <trkpt lat="43.52634" lon="6.1305">
        <ele>383</ele>
        <time>2014-02-23T12:57:12Z</time>
      </trkpt>
      <trkpt lat="43.52629" lon="6.1304">
        <ele>382.5</ele>
        <time>2014-02-23T12:57:20Z</time>
      </trkpt>
      <trkpt lat="43.52624" lon="6.13033">
        <ele>382.4</ele>
        <time>2014-02-23T12:57:24Z</time>
      </trkpt>
      <trkpt lat="43.52618" lon="6.13027">
        <ele>383.1</ele>
        <time>2014-02-23T12:57:28Z</time>
      </trkpt>
      <trkpt lat="43.52611" lon="6.1302">
        <ele>382.9</ele>
        <time>2014-02-23T12:57:36Z</time>
      </trkpt>
      <trkpt lat="43.52605" lon="6.13012">
        <ele>382</ele>
        <time>2014-02-23T12:57:44Z</time>
      </trkpt>
      <trkpt lat="43.52598" lon="6.13004">
        <ele>382.1</ele>
        <time>2014-02-23T12:57:49Z</time>
      </trkpt>
      <trkpt lat="43.52592" lon="6.12995">
        <ele>382.6</ele>
        <time>2014-02-23T12:57:55Z</time>
      </trkpt>
      <trkpt lat="43.52592" lon="6.12994">
        <ele>382.4</ele>
        <time>2014-02-23T12:57:56Z</time>
      </trkpt>
      <trkpt lat="43.5258" lon="6.12981">
        <ele>380.7</ele>
        <time>2014-02-23T12:58:07Z</time>
      </trkpt>
      <trkpt lat="43.52572" lon="6.12974">
        <ele>379.8</ele>
        <time>2014-02-23T12:58:12Z</time>
      </trkpt>
      <trkpt lat="43.52566" lon="6.12971">
        <ele>380.3</ele>
        <time>2014-02-23T12:58:15Z</time>
      </trkpt>
      <trkpt lat="43.52557" lon="6.12967">
        <ele>380.2</ele>
        <time>2014-02-23T12:58:22Z</time>
      </trkpt>
      <trkpt lat="43.52549" lon="6.12966">
        <ele>380.1</ele>
        <time>2014-02-23T12:58:30Z</time>
      </trkpt>
      <trkpt lat="43.52541" lon="6.12965">
        <ele>379.8</ele>
        <time>2014-02-23T12:58:37Z</time>
      </trkpt>
      <trkpt lat="43.52532" lon="6.12965">
        <ele>379.5</ele>
        <time>2014-02-23T12:58:42Z</time>
      </trkpt>
      <trkpt lat="43.52523" lon="6.12966">
        <ele>379.2</ele>
        <time>2014-02-23T12:58:52Z</time>
      </trkpt>
      <trkpt lat="43.52516" lon="6.12967">
        <ele>378.3</ele>
        <time>2014-02-23T12:58:57Z</time>
      </trkpt>
      <trkpt lat="43.52514" lon="6.12968">
        <ele>378.2</ele>
        <time>2014-02-23T12:58:58Z</time>
      </trkpt>
      <trkpt lat="43.52499" lon="6.12971">
        <ele>378.3</ele>
        <time>2014-02-23T12:59:09Z</time>
      </trkpt>
      <trkpt lat="43.52492" lon="6.12973">
        <ele>377.4</ele>
        <time>2014-02-23T12:59:16Z</time>
      </trkpt>
      <trkpt lat="43.52483" lon="6.12974">
        <ele>377.9</ele>
        <time>2014-02-23T12:59:23Z</time>
      </trkpt>
      <trkpt lat="43.52474" lon="6.12974">
        <ele>378.5</ele>
        <time>2014-02-23T12:59:31Z</time>
      </trkpt>
      <trkpt lat="43.52466" lon="6.12977">
        <ele>378.3</ele>
        <time>2014-02-23T12:59:37Z</time>
      </trkpt>
      <trkpt lat="43.52457" lon="6.12977">
        <ele>377.9</ele>
        <time>2014-02-23T12:59:45Z</time>
      </trkpt>
      <trkpt lat="43.52449" lon="6.12978">
        <ele>376.6</ele>
        <time>2014-02-23T12:59:50Z</time>
      </trkpt>
      <trkpt lat="43.52441" lon="6.12977">
        <ele>376.3</ele>
        <time>2014-02-23T12:59:55Z</time>
      </trkpt>
      <trkpt lat="43.52433" lon="6.12978">
        <ele>376.8</ele>
        <time>2014-02-23T13:00:03Z</time>
      </trkpt>
      <trkpt lat="43.52432" lon="6.12978">
        <ele>376.9</ele>
        <time>2014-02-23T13:00:04Z</time>
      </trkpt>
      <trkpt lat="43.52418" lon="6.1298">
        <ele>377.2</ele>
        <time>2014-02-23T13:00:16Z</time>
      </trkpt>
      <trkpt lat="43.5241" lon="6.12979">
        <ele>377.4</ele>
        <time>2014-02-23T13:00:20Z</time>
      </trkpt>
      <trkpt lat="43.52402" lon="6.1298">
        <ele>377.6</ele>
        <time>2014-02-23T13:00:28Z</time>
      </trkpt>
      <trkpt lat="43.52394" lon="6.12985">
        <ele>378</ele>
        <time>2014-02-23T13:00:36Z</time>
      </trkpt>
      <trkpt lat="43.52385" lon="6.12988">
        <ele>377.5</ele>
        <time>2014-02-23T13:00:42Z</time>
      </trkpt>
      <trkpt lat="43.52378" lon="6.12988">
        <ele>376</ele>
        <time>2014-02-23T13:00:49Z</time>
      </trkpt>
      <trkpt lat="43.52369" lon="6.12985">
        <ele>375.6</ele>
        <time>2014-02-23T13:00:56Z</time>
      </trkpt>
      <trkpt lat="43.52361" lon="6.12979">
        <ele>375.5</ele>
        <time>2014-02-23T13:01:02Z</time>
      </trkpt>
      <trkpt lat="43.52354" lon="6.12975">
        <ele>375.5</ele>
        <time>2014-02-23T13:01:07Z</time>
      </trkpt>
      <trkpt lat="43.52351" lon="6.12974">
        <ele>375.3</ele>
        <time>2014-02-23T13:01:08Z</time>
      </trkpt>
      <trkpt lat="43.52337" lon="6.12978">
        <ele>375.7</ele>
        <time>2014-02-23T13:01:18Z</time>
      </trkpt>
      <trkpt lat="43.5233" lon="6.12984">
        <ele>375</ele>
        <time>2014-02-23T13:01:24Z</time>
      </trkpt>
      <trkpt lat="43.52322" lon="6.12987">
        <ele>375.2</ele>
        <time>2014-02-23T13:01:29Z</time>
      </trkpt>
      <trkpt lat="43.52314" lon="6.12991">
        <ele>374.9</ele>
        <time>2014-02-23T13:01:35Z</time>
      </trkpt>
      <trkpt lat="43.52306" lon="6.12996">
        <ele>374.1</ele>
        <time>2014-02-23T13:01:42Z</time>
      </trkpt>
      <trkpt lat="43.52298" lon="6.13001">
        <ele>374.3</ele>
        <time>2014-02-23T13:01:50Z</time>
      </trkpt>
      <trkpt lat="43.52291" lon="6.13007">
        <ele>373.8</ele>
        <time>2014-02-23T13:01:58Z</time>
      </trkpt>
      <trkpt lat="43.52282" lon="6.13009">
        <ele>374.8</ele>
        <time>2014-02-23T13:02:06Z</time>
      </trkpt>
      <trkpt lat="43.52274" lon="6.13014">
        <ele>374</ele>
        <time>2014-02-23T13:02:15Z</time>
      </trkpt>
      <trkpt lat="43.52273" lon="6.13015">
        <ele>374.3</ele>
        <time>2014-02-23T13:02:16Z</time>
      </trkpt>
      <trkpt lat="43.5226" lon="6.13019">
        <ele>373.3</ele>
        <time>2014-02-23T13:02:25Z</time>
      </trkpt>
      <trkpt lat="43.52251" lon="6.13024">
        <ele>373.7</ele>
        <time>2014-02-23T13:02:33Z</time>
      </trkpt>
      <trkpt lat="43.52244" lon="6.1303">
        <ele>373.5</ele>
        <time>2014-02-23T13:02:40Z</time>
      </trkpt>
      <trkpt lat="43.52237" lon="6.13035">
        <ele>373.5</ele>
        <time>2014-02-23T13:02:46Z</time>
      </trkpt>
      <trkpt lat="43.5223" lon="6.13041">
        <ele>373</ele>
        <time>2014-02-23T13:02:51Z</time>
      </trkpt>
      <trkpt lat="43.52225" lon="6.13051">
        <ele>372.9</ele>
        <time>2014-02-23T13:02:58Z</time>
      </trkpt>
      <trkpt lat="43.52224" lon="6.13063">
        <ele>372.7</ele>
        <time>2014-02-23T13:03:06Z</time>
      </trkpt>
      <trkpt lat="43.52219" lon="6.13073">
        <ele>372.8</ele>
        <time>2014-02-23T13:03:15Z</time>
      </trkpt>
      <trkpt lat="43.52214" lon="6.13081">
        <ele>373</ele>
        <time>2014-02-23T13:03:23Z</time>
      </trkpt>
      <trkpt lat="43.52213" lon="6.13083">
        <ele>373</ele>
        <time>2014-02-23T13:03:24Z</time>
      </trkpt>
      <trkpt lat="43.52209" lon="6.13103">
        <ele>374.1</ele>
        <time>2014-02-23T13:03:35Z</time>
      </trkpt>
      <trkpt lat="43.52207" lon="6.13115">
        <ele>373.3</ele>
        <time>2014-02-23T13:03:43Z</time>
      </trkpt>
      <trkpt lat="43.52203" lon="6.13125">
        <ele>371.8</ele>
        <time>2014-02-23T13:03:53Z</time>
      </trkpt>
      <trkpt lat="43.52197" lon="6.13132">
        <ele>371.3</ele>
        <time>2014-02-23T13:03:59Z</time>
      </trkpt>
      <trkpt lat="43.52192" lon="6.13141">
        <ele>370.3</ele>
        <time>2014-02-23T13:04:05Z</time>
      </trkpt>
      <trkpt lat="43.5219" lon="6.13153">
        <ele>369.8</ele>
        <time>2014-02-23T13:04:15Z</time>
      </trkpt>
      <trkpt lat="43.52191" lon="6.13163">
        <ele>368.5</ele>
        <time>2014-02-23T13:04:22Z</time>
      </trkpt>
      <trkpt lat="43.52194" lon="6.13174">
        <ele>366.8</ele>
        <time>2014-02-23T13:04:29Z</time>
      </trkpt>
      <trkpt lat="43.52195" lon="6.13175">
        <ele>367.3</ele>
        <time>2014-02-23T13:04:30Z</time>
      </trkpt>
      <trkpt lat="43.52202" lon="6.13194">
        <ele>364.6</ele>
        <time>2014-02-23T13:04:44Z</time>
      </trkpt>
      <trkpt lat="43.52206" lon="6.13205">
        <ele>365.2</ele>
        <time>2014-02-23T13:04:51Z</time>
      </trkpt>
      <trkpt lat="43.5221" lon="6.13214">
        <ele>365.2</ele>
        <time>2014-02-23T13:04:57Z</time>
      </trkpt>
      <trkpt lat="43.52213" lon="6.13223">
        <ele>365</ele>
        <time>2014-02-23T13:05:04Z</time>
      </trkpt>
      <trkpt lat="43.52215" lon="6.13235">
        <ele>365.4</ele>
        <time>2014-02-23T13:05:11Z</time>
      </trkpt>
      <trkpt lat="43.52221" lon="6.13243">
        <ele>364.8</ele>
        <time>2014-02-23T13:05:17Z</time>
      </trkpt>
      <trkpt lat="43.52227" lon="6.13251">
        <ele>364.6</ele>
        <time>2014-02-23T13:05:24Z</time>
      </trkpt>
      <trkpt lat="43.52231" lon="6.13261">
        <ele>364.2</ele>
        <time>2014-02-23T13:05:32Z</time>
      </trkpt>
      <trkpt lat="43.52232" lon="6.13263">
        <ele>364.3</ele>
        <time>2014-02-23T13:05:33Z</time>
      </trkpt>
      <trkpt lat="43.52242" lon="6.13276">
        <ele>364.5</ele>
        <time>2014-02-23T13:05:46Z</time>
      </trkpt>
      <trkpt lat="43.52249" lon="6.13284">
        <ele>363.7</ele>
        <time>2014-02-23T13:05:54Z</time>
      </trkpt>
      <trkpt lat="43.52248" lon="6.13296">
        <ele>361</ele>
        <time>2014-02-23T13:06:08Z</time>
      </trkpt>
      <trkpt lat="43.5224" lon="6.13298">
        <ele>359.6</ele>
        <time>2014-02-23T13:06:17Z</time>
      </trkpt>
      <trkpt lat="43.52232" lon="6.13293">
        <ele>358.6</ele>
        <time>2014-02-23T13:06:27Z</time>
      </trkpt>
      <trkpt lat="43.52227" lon="6.13285">
        <ele>357.6</ele>
        <time>2014-02-23T13:06:36Z</time>
      </trkpt>
      <trkpt lat="43.52225" lon="6.13284">
        <ele>357.5</ele>
        <time>2014-02-23T13:06:37Z</time>
      </trkpt>
      <trkpt lat="43.52216" lon="6.13269">
        <ele>356.7</ele>
        <time>2014-02-23T13:06:48Z</time>
      </trkpt>
      <trkpt lat="43.52208" lon="6.13264">
        <ele>355.5</ele>
        <time>2014-02-23T13:06:56Z</time>
      </trkpt>
      <trkpt lat="43.52201" lon="6.13256">
        <ele>354.6</ele>
        <time>2014-02-23T13:07:07Z</time>
      </trkpt>
      <trkpt lat="43.52196" lon="6.13247">
        <ele>352.5</ele>
        <time>2014-02-23T13:07:16Z</time>
      </trkpt>
      <trkpt lat="43.52191" lon="6.13239">
        <ele>351.6</ele>
        <time>2014-02-23T13:07:23Z</time>
      </trkpt>
      <trkpt lat="43.52186" lon="6.1323">
        <ele>350.9</ele>
        <time>2014-02-23T13:07:30Z</time>
      </trkpt>
      <trkpt lat="43.5218" lon="6.13222">
        <ele>349.7</ele>
        <time>2014-02-23T13:07:37Z</time>
      </trkpt>
      <trkpt lat="43.52179" lon="6.13221">
        <ele>349.6</ele>
        <time>2014-02-23T13:07:38Z</time>
      </trkpt>
      <trkpt lat="43.52164" lon="6.13216">
        <ele>348.1</ele>
        <time>2014-02-23T13:07:53Z</time>
      </trkpt>
      <trkpt lat="43.52155" lon="6.13213">
        <ele>348.8</ele>
        <time>2014-02-23T13:08:01Z</time>
      </trkpt>
      <trkpt lat="43.52147" lon="6.13212">
        <ele>347.1</ele>
        <time>2014-02-23T13:08:11Z</time>
      </trkpt>
      <trkpt lat="43.52141" lon="6.13219">
        <ele>346.8</ele>
        <time>2014-02-23T13:08:17Z</time>
      </trkpt>
      <trkpt lat="43.52134" lon="6.13224">
        <ele>346.3</ele>
        <time>2014-02-23T13:08:23Z</time>
      </trkpt>
      <trkpt lat="43.52126" lon="6.13228">
        <ele>345.5</ele>
        <time>2014-02-23T13:08:29Z</time>
      </trkpt>
      <trkpt lat="43.52118" lon="6.13229">
        <ele>344.3</ele>
        <time>2014-02-23T13:08:35Z</time>
      </trkpt>
      <trkpt lat="43.5211" lon="6.13225">
        <ele>344.5</ele>
        <time>2014-02-23T13:08:42Z</time>
      </trkpt>
      <trkpt lat="43.52109" lon="6.13226">
        <ele>344.6</ele>
        <time>2014-02-23T13:08:43Z</time>
      </trkpt>
      <trkpt lat="43.52096" lon="6.13237">
        <ele>344.9</ele>
        <time>2014-02-23T13:08:56Z</time>
      </trkpt>
      <trkpt lat="43.52094" lon="6.13249">
        <ele>343.9</ele>
        <time>2014-02-23T13:09:03Z</time>
      </trkpt>
      <trkpt lat="43.52092" lon="6.1326">
        <ele>342.8</ele>
        <time>2014-02-23T13:09:12Z</time>
      </trkpt>
      <trkpt lat="43.52091" lon="6.13271">
        <ele>342</ele>
        <time>2014-02-23T13:09:18Z</time>
      </trkpt>
      <trkpt lat="43.52088" lon="6.13282">
        <ele>340.9</ele>
        <time>2014-02-23T13:09:27Z</time>
      </trkpt>
      <trkpt lat="43.52084" lon="6.13292">
        <ele>340.4</ele>
        <time>2014-02-23T13:09:35Z</time>
      </trkpt>
      <trkpt lat="43.5208" lon="6.13303">
        <ele>338.4</ele>
        <time>2014-02-23T13:09:44Z</time>
      </trkpt>
      <trkpt lat="43.5208" lon="6.13304">
        <ele>338.7</ele>
        <time>2014-02-23T13:09:45Z</time>
      </trkpt>
      <trkpt lat="43.52074" lon="6.13323">
        <ele>337.5</ele>
        <time>2014-02-23T13:09:56Z</time>
      </trkpt>
      <trkpt lat="43.5207" lon="6.13333">
        <ele>336.1</ele>
        <time>2014-02-23T13:10:01Z</time>
      </trkpt>
      <trkpt lat="43.52068" lon="6.13344">
        <ele>335.4</ele>
        <time>2014-02-23T13:10:08Z</time>
      </trkpt>
      <trkpt lat="43.52066" lon="6.13356">
        <ele>334.4</ele>
        <time>2014-02-23T13:10:21Z</time>
      </trkpt>
      <trkpt lat="43.52061" lon="6.13365">
        <ele>334.7</ele>
        <time>2014-02-23T13:11:01Z</time>
      </trkpt>
      <trkpt lat="43.5206" lon="6.13365">
        <ele>334.7</ele>
        <time>2014-02-23T13:11:02Z</time>
      </trkpt>
      <trkpt lat="43.52052" lon="6.13366">
        <ele>336</ele>
        <time>2014-02-23T13:12:29Z</time>
      </trkpt>
      <trkpt lat="43.52039" lon="6.13379">
        <ele>332.7</ele>
        <time>2014-02-23T13:12:55Z</time>
      </trkpt>
      <trkpt lat="43.52031" lon="6.13385">
        <ele>333</ele>
        <time>2014-02-23T13:13:03Z</time>
      </trkpt>
      <trkpt lat="43.52025" lon="6.13393">
        <ele>331.8</ele>
        <time>2014-02-23T13:13:13Z</time>
      </trkpt>
      <trkpt lat="43.52018" lon="6.134">
        <ele>330.4</ele>
        <time>2014-02-23T13:13:25Z</time>
      </trkpt>
      <trkpt lat="43.52011" lon="6.13405">
        <ele>329.5</ele>
        <time>2014-02-23T13:13:34Z</time>
      </trkpt>
      <trkpt lat="43.5201" lon="6.13405">
        <ele>329.5</ele>
        <time>2014-02-23T13:13:35Z</time>
      </trkpt>
      <trkpt lat="43.51996" lon="6.13414">
        <ele>328.2</ele>
        <time>2014-02-23T13:13:53Z</time>
      </trkpt>
      <trkpt lat="43.51988" lon="6.13417">
        <ele>326.2</ele>
        <time>2014-02-23T13:14:02Z</time>
      </trkpt>
      <trkpt lat="43.51981" lon="6.13423">
        <ele>323.6</ele>
        <time>2014-02-23T13:14:11Z</time>
      </trkpt>
      <trkpt lat="43.51975" lon="6.13431">
        <ele>322.9</ele>
        <time>2014-02-23T13:14:20Z</time>
      </trkpt>
      <trkpt lat="43.51969" lon="6.13439">
        <ele>321.2</ele>
        <time>2014-02-23T13:14:28Z</time>
      </trkpt>
      <trkpt lat="43.51965" lon="6.13449">
        <ele>319</ele>
        <time>2014-02-23T13:14:39Z</time>
      </trkpt>
      <trkpt lat="43.51964" lon="6.13451">
        <ele>318.7</ele>
        <time>2014-02-23T13:14:40Z</time>
      </trkpt>
      <trkpt lat="43.51958" lon="6.13471">
        <ele>317</ele>
        <time>2014-02-23T13:14:56Z</time>
      </trkpt>
      <trkpt lat="43.51955" lon="6.13481">
        <ele>315.3</ele>
        <time>2014-02-23T13:15:06Z</time>
      </trkpt>
      <trkpt lat="43.51952" lon="6.13492">
        <ele>313.9</ele>
        <time>2014-02-23T13:15:14Z</time>
      </trkpt>
      <trkpt lat="43.51947" lon="6.13501">
        <ele>313.7</ele>
        <time>2014-02-23T13:15:21Z</time>
      </trkpt>
      <trkpt lat="43.51943" lon="6.13512">
        <ele>312.6</ele>
        <time>2014-02-23T13:15:33Z</time>
      </trkpt>
      <trkpt lat="43.51936" lon="6.13519">
        <ele>313.2</ele>
        <time>2014-02-23T13:15:44Z</time>
      </trkpt>
      <trkpt lat="43.51935" lon="6.13519">
        <ele>313.3</ele>
        <time>2014-02-23T13:15:45Z</time>
      </trkpt>
      <trkpt lat="43.51919" lon="6.13522">
        <ele>314</ele>
        <time>2014-02-23T13:15:59Z</time>
      </trkpt>
      <trkpt lat="43.51911" lon="6.13527">
        <ele>314.3</ele>
        <time>2014-02-23T13:16:06Z</time>
      </trkpt>
      <trkpt lat="43.51904" lon="6.13534">
        <ele>313.5</ele>
        <time>2014-02-23T13:16:14Z</time>
      </trkpt>
      <trkpt lat="43.51897" lon="6.1354">
        <ele>313.7</ele>
        <time>2014-02-23T13:16:22Z</time>
      </trkpt>
      <trkpt lat="43.51889" lon="6.13545">
        <ele>313.7</ele>
        <time>2014-02-23T13:16:30Z</time>
      </trkpt>
      <trkpt lat="43.51881" lon="6.13549">
        <ele>313.8</ele>
        <time>2014-02-23T13:16:39Z</time>
      </trkpt>
      <trkpt lat="43.51873" lon="6.13554">
        <ele>312.9</ele>
        <time>2014-02-23T13:16:47Z</time>
      </trkpt>
      <trkpt lat="43.51872" lon="6.13554">
        <ele>313.1</ele>
        <time>2014-02-23T13:16:48Z</time>
      </trkpt>
      <trkpt lat="43.51857" lon="6.13562">
        <ele>312</ele>
        <time>2014-02-23T13:17:02Z</time>
      </trkpt>
      <trkpt lat="43.51849" lon="6.13565">
        <ele>311.5</ele>
        <time>2014-02-23T13:17:12Z</time>
      </trkpt>
      <trkpt lat="43.51841" lon="6.13567">
        <ele>311</ele>
        <time>2014-02-23T13:17:18Z</time>
      </trkpt>
      <trkpt lat="43.51833" lon="6.13568">
        <ele>310.5</ele>
        <time>2014-02-23T13:17:25Z</time>
      </trkpt>
      <trkpt lat="43.51824" lon="6.13573">
        <ele>310.8</ele>
        <time>2014-02-23T13:17:32Z</time>
      </trkpt>
      <trkpt lat="43.51816" lon="6.13578">
        <ele>309.9</ele>
        <time>2014-02-23T13:17:40Z</time>
      </trkpt>
      <trkpt lat="43.51809" lon="6.13584">
        <ele>309.8</ele>
        <time>2014-02-23T13:17:46Z</time>
      </trkpt>
      <trkpt lat="43.51803" lon="6.13592">
        <ele>308.3</ele>
        <time>2014-02-23T13:17:55Z</time>
      </trkpt>
      <trkpt lat="43.51802" lon="6.13593">
        <ele>308</ele>
        <time>2014-02-23T13:17:56Z</time>
      </trkpt>
      <trkpt lat="43.51792" lon="6.13609">
        <ele>306</ele>
        <time>2014-02-23T13:18:21Z</time>
      </trkpt>
      <trkpt lat="43.51785" lon="6.13617">
        <ele>305.6</ele>
        <time>2014-02-23T13:18:29Z</time>
      </trkpt>
      <trkpt lat="43.51781" lon="6.13627">
        <ele>305.3</ele>
        <time>2014-02-23T13:18:37Z</time>
      </trkpt>
      <trkpt lat="43.51777" lon="6.13637">
        <ele>303.9</ele>
        <time>2014-02-23T13:18:43Z</time>
      </trkpt>
      <trkpt lat="43.51774" lon="6.13648">
        <ele>303.7</ele>
        <time>2014-02-23T13:18:51Z</time>
      </trkpt>
      <trkpt lat="43.51771" lon="6.13659">
        <ele>302.5</ele>
        <time>2014-02-23T13:18:57Z</time>
      </trkpt>
      <trkpt lat="43.5177" lon="6.1366">
        <ele>302.3</ele>
        <time>2014-02-23T13:18:58Z</time>
      </trkpt>
      <trkpt lat="43.51764" lon="6.1368">
        <ele>300.5</ele>
        <time>2014-02-23T13:19:10Z</time>
      </trkpt>
      <trkpt lat="43.51761" lon="6.13689">
        <ele>299.8</ele>
        <time>2014-02-23T13:19:16Z</time>
      </trkpt>
      <trkpt lat="43.51756" lon="6.13698">
        <ele>298.6</ele>
        <time>2014-02-23T13:19:22Z</time>
      </trkpt>
      <trkpt lat="43.51758" lon="6.13709">
        <ele>298.5</ele>
        <time>2014-02-23T13:19:29Z</time>
      </trkpt>
      <trkpt lat="43.51758" lon="6.1372">
        <ele>297.5</ele>
        <time>2014-02-23T13:19:38Z</time>
      </trkpt>
      <trkpt lat="43.51759" lon="6.13732">
        <ele>297.2</ele>
        <time>2014-02-23T13:19:53Z</time>
      </trkpt>
      <trkpt lat="43.51765" lon="6.1374">
        <ele>297.5</ele>
        <time>2014-02-23T13:20:33Z</time>
      </trkpt>
      <trkpt lat="43.51766" lon="6.13741">
        <ele>297.5</ele>
        <time>2014-02-23T13:20:34Z</time>
      </trkpt>
      <trkpt lat="43.51763" lon="6.13763">
        <ele>296.7</ele>
        <time>2014-02-23T13:21:39Z</time>
      </trkpt>
      <trkpt lat="43.51763" lon="6.13764">
        <ele>296.7</ele>
        <time>2014-02-23T13:21:40Z</time>
      </trkpt>
      <trkpt lat="43.51766" lon="6.13786">
        <ele>295.8</ele>
        <time>2014-02-23T13:21:58Z</time>
      </trkpt>
      <trkpt lat="43.5177" lon="6.13796">
        <ele>294.8</ele>
        <time>2014-02-23T13:22:05Z</time>
      </trkpt>
      <trkpt lat="43.51771" lon="6.13807">
        <ele>293.2</ele>
        <time>2014-02-23T13:22:15Z</time>
      </trkpt>
      <trkpt lat="43.51773" lon="6.13818">
        <ele>292.1</ele>
        <time>2014-02-23T13:22:35Z</time>
      </trkpt>
      <trkpt lat="43.51774" lon="6.1383">
        <ele>290.1</ele>
        <time>2014-02-23T13:22:43Z</time>
      </trkpt>
      <trkpt lat="43.51774" lon="6.13831">
        <ele>290.4</ele>
        <time>2014-02-23T13:22:44Z</time>
      </trkpt>
      <trkpt lat="43.51776" lon="6.13854">
        <ele>287.6</ele>
        <time>2014-02-23T13:23:02Z</time>
      </trkpt>
      <trkpt lat="43.51782" lon="6.13863">
        <ele>284.7</ele>
        <time>2014-02-23T13:23:21Z</time>
      </trkpt>
      <trkpt lat="43.51781" lon="6.13874">
        <ele>284</ele>
        <time>2014-02-23T13:23:54Z</time>
      </trkpt>
      <trkpt lat="43.5178" lon="6.13875">
        <ele>283.7</ele>
        <time>2014-02-23T13:23:55Z</time>
      </trkpt>
      <trkpt lat="43.51781" lon="6.13898">
        <ele>280.1</ele>
        <time>2014-02-23T13:24:15Z</time>
      </trkpt>
      <trkpt lat="43.5178" lon="6.1391">
        <ele>278.8</ele>
        <time>2014-02-23T13:24:27Z</time>
      </trkpt>
      <trkpt lat="43.51782" lon="6.13921">
        <ele>276.9</ele>
        <time>2014-02-23T13:24:35Z</time>
      </trkpt>
      <trkpt lat="43.51785" lon="6.13932">
        <ele>275.2</ele>
        <time>2014-02-23T13:24:44Z</time>
      </trkpt>
      <trkpt lat="43.51786" lon="6.13944">
        <ele>274.1</ele>
        <time>2014-02-23T13:24:54Z</time>
      </trkpt>
      <trkpt lat="43.51789" lon="6.13956">
        <ele>273.1</ele>
        <time>2014-02-23T13:25:05Z</time>
      </trkpt>
      <trkpt lat="43.51789" lon="6.13956">
        <ele>272.5</ele>
        <time>2014-02-23T13:25:06Z</time>
      </trkpt>
      <trkpt lat="43.51804" lon="6.13965">
        <ele>269.9</ele>
        <time>2014-02-23T13:25:23Z</time>
      </trkpt>
      <trkpt lat="43.51811" lon="6.13972">
        <ele>270</ele>
        <time>2014-02-23T13:25:31Z</time>
      </trkpt>
      <trkpt lat="43.51815" lon="6.13982">
        <ele>269.8</ele>
        <time>2014-02-23T13:25:40Z</time>
      </trkpt>
      <trkpt lat="43.51819" lon="6.13992">
        <ele>270</ele>
        <time>2014-02-23T13:25:49Z</time>
      </trkpt>
      <trkpt lat="43.51825" lon="6.14001">
        <ele>271.5</ele>
        <time>2014-02-23T13:26:05Z</time>
      </trkpt>
      <trkpt lat="43.51833" lon="6.14005">
        <ele>273</ele>
        <time>2014-02-23T13:26:13Z</time>
      </trkpt>
      <trkpt lat="43.51834" lon="6.14006">
        <ele>273.4</ele>
        <time>2014-02-23T13:26:14Z</time>
      </trkpt>
      <trkpt lat="43.51847" lon="6.14017">
        <ele>274.9</ele>
        <time>2014-02-23T13:26:36Z</time>
      </trkpt>
      <trkpt lat="43.51853" lon="6.14025">
        <ele>275.9</ele>
        <time>2014-02-23T13:26:45Z</time>
      </trkpt>
      <trkpt lat="43.51858" lon="6.14034">
        <ele>276</ele>
        <time>2014-02-23T13:26:52Z</time>
      </trkpt>
      <trkpt lat="43.5186" lon="6.14045">
        <ele>277.7</ele>
        <time>2014-02-23T13:27:00Z</time>
      </trkpt>
      <trkpt lat="43.51863" lon="6.14057">
        <ele>277.5</ele>
        <time>2014-02-23T13:27:10Z</time>
      </trkpt>
      <trkpt lat="43.51865" lon="6.14067">
        <ele>277.7</ele>
        <time>2014-02-23T13:27:18Z</time>
      </trkpt>
      <trkpt lat="43.51865" lon="6.14069">
        <ele>278</ele>
        <time>2014-02-23T13:27:19Z</time>
      </trkpt>
      <trkpt lat="43.51869" lon="6.1409">
        <ele>279.2</ele>
        <time>2014-02-23T13:27:35Z</time>
      </trkpt>
      <trkpt lat="43.51872" lon="6.14101">
        <ele>280.3</ele>
        <time>2014-02-23T13:27:42Z</time>
      </trkpt>
      <trkpt lat="43.51874" lon="6.14113">
        <ele>279.4</ele>
        <time>2014-02-23T13:27:51Z</time>
      </trkpt>
      <trkpt lat="43.51879" lon="6.14123">
        <ele>278.7</ele>
        <time>2014-02-23T13:27:59Z</time>
      </trkpt>
      <trkpt lat="43.51882" lon="6.14134">
        <ele>279.1</ele>
        <time>2014-02-23T13:28:07Z</time>
      </trkpt>
      <trkpt lat="43.51888" lon="6.14143">
        <ele>278.3</ele>
        <time>2014-02-23T13:28:16Z</time>
      </trkpt>
      <trkpt lat="43.51892" lon="6.14153">
        <ele>278</ele>
        <time>2014-02-23T13:28:23Z</time>
      </trkpt>
      <trkpt lat="43.51892" lon="6.14155">
        <ele>278</ele>
        <time>2014-02-23T13:28:24Z</time>
      </trkpt>
      <trkpt lat="43.51894" lon="6.14176">
        <ele>275.6</ele>
        <time>2014-02-23T13:28:42Z</time>
      </trkpt>
      <trkpt lat="43.51897" lon="6.14186">
        <ele>276</ele>
        <time>2014-02-23T13:28:50Z</time>
      </trkpt>
      <trkpt lat="43.51898" lon="6.14198">
        <ele>275.5</ele>
        <time>2014-02-23T13:28:58Z</time>
      </trkpt>
      <trkpt lat="43.51902" lon="6.14209">
        <ele>276.1</ele>
        <time>2014-02-23T13:29:08Z</time>
      </trkpt>
      <trkpt lat="43.51905" lon="6.14219">
        <ele>275.8</ele>
        <time>2014-02-23T13:29:18Z</time>
      </trkpt>
      <trkpt lat="43.51908" lon="6.1423">
        <ele>276.2</ele>
        <time>2014-02-23T13:29:25Z</time>
      </trkpt>
      <trkpt lat="43.51908" lon="6.14231">
        <ele>276.4</ele>
        <time>2014-02-23T13:29:26Z</time>
      </trkpt>
      <trkpt lat="43.51913" lon="6.14252">
        <ele>278.7</ele>
        <time>2014-02-23T13:29:44Z</time>
      </trkpt>
      <trkpt lat="43.51911" lon="6.14263">
        <ele>280.7</ele>
        <time>2014-02-23T13:29:55Z</time>
      </trkpt>
      <trkpt lat="43.51906" lon="6.14274">
        <ele>282.1</ele>
        <time>2014-02-23T13:30:07Z</time>
      </trkpt>
      <trkpt lat="43.51906" lon="6.14286">
        <ele>282.1</ele>
        <time>2014-02-23T13:30:16Z</time>
      </trkpt>
      <trkpt lat="43.51907" lon="6.14298">
        <ele>282.2</ele>
        <time>2014-02-23T13:30:23Z</time>
      </trkpt>
      <trkpt lat="43.5191" lon="6.14308">
        <ele>282.4</ele>
        <time>2014-02-23T13:30:32Z</time>
      </trkpt>
      <trkpt lat="43.51911" lon="6.14309">
        <ele>282.6</ele>
        <time>2014-02-23T13:30:33Z</time>
      </trkpt>
      <trkpt lat="43.51919" lon="6.14329">
        <ele>279.9</ele>
        <time>2014-02-23T13:30:51Z</time>
      </trkpt>
      <trkpt lat="43.51922" lon="6.1434">
        <ele>278.2</ele>
        <time>2014-02-23T13:31:00Z</time>
      </trkpt>
      <trkpt lat="43.51927" lon="6.14349">
        <ele>275.8</ele>
        <time>2014-02-23T13:31:09Z</time>
      </trkpt>
      <trkpt lat="43.51933" lon="6.14357">
        <ele>274.2</ele>
        <time>2014-02-23T13:31:17Z</time>
      </trkpt>
      <trkpt lat="43.51938" lon="6.14365">
        <ele>274</ele>
        <time>2014-02-23T13:31:23Z</time>
      </trkpt>
      <trkpt lat="43.51938" lon="6.14377">
        <ele>273.3</ele>
        <time>2014-02-23T13:31:33Z</time>
      </trkpt>
      <trkpt lat="43.51937" lon="6.14378">
        <ele>273.8</ele>
        <time>2014-02-23T13:31:34Z</time>
      </trkpt>
      <trkpt lat="43.51923" lon="6.14391">
        <ele>276</ele>
        <time>2014-02-23T13:31:59Z</time>
      </trkpt>
      <trkpt lat="43.5192" lon="6.14402">
        <ele>278.4</ele>
        <time>2014-02-23T13:32:14Z</time>
      </trkpt>
      <trkpt lat="43.51916" lon="6.14412">
        <ele>279.9</ele>
        <time>2014-02-23T13:32:26Z</time>
      </trkpt>
      <trkpt lat="43.5191" lon="6.14421">
        <ele>281.5</ele>
        <time>2014-02-23T13:32:36Z</time>
      </trkpt>
      <trkpt lat="43.5191" lon="6.14423">
        <ele>281</ele>
        <time>2014-02-23T13:32:37Z</time>
      </trkpt>
      <trkpt lat="43.51897" lon="6.14436">
        <ele>284.2</ele>
        <time>2014-02-23T13:33:05Z</time>
      </trkpt>
      <trkpt lat="43.51893" lon="6.14447">
        <ele>286.3</ele>
        <time>2014-02-23T13:33:20Z</time>
      </trkpt>
      <trkpt lat="43.51887" lon="6.14455">
        <ele>287.4</ele>
        <time>2014-02-23T13:33:57Z</time>
      </trkpt>
      <trkpt lat="43.51886" lon="6.14455">
        <ele>287.9</ele>
        <time>2014-02-23T13:33:58Z</time>
      </trkpt>
      <trkpt lat="43.51871" lon="6.14463">
        <ele>290.2</ele>
        <time>2014-02-23T13:34:23Z</time>
      </trkpt>
      <trkpt lat="43.51866" lon="6.14472">
        <ele>294</ele>
        <time>2014-02-23T13:34:46Z</time>
      </trkpt>
      <trkpt lat="43.51861" lon="6.14482">
        <ele>296</ele>
        <time>2014-02-23T13:34:59Z</time>
      </trkpt>
      <trkpt lat="43.51861" lon="6.14483">
        <ele>296.1</ele>
        <time>2014-02-23T13:35:00Z</time>
      </trkpt>
      <trkpt lat="43.51858" lon="6.14505">
        <ele>299.8</ele>
        <time>2014-02-23T13:35:26Z</time>
      </trkpt>
      <trkpt lat="43.51854" lon="6.14516">
        <ele>300.3</ele>
        <time>2014-02-23T13:35:36Z</time>
      </trkpt>
      <trkpt lat="43.51853" lon="6.14528">
        <ele>302.4</ele>
        <time>2014-02-23T13:35:48Z</time>
      </trkpt>
      <trkpt lat="43.51853" lon="6.1454">
        <ele>302.1</ele>
        <time>2014-02-23T13:35:57Z</time>
      </trkpt>
      <trkpt lat="43.51849" lon="6.14551">
        <ele>302.6</ele>
        <time>2014-02-23T13:36:07Z</time>
      </trkpt>
      <trkpt lat="43.51848" lon="6.14552">
        <ele>302.6</ele>
        <time>2014-02-23T13:36:08Z</time>
      </trkpt>
      <trkpt lat="43.51853" lon="6.14572">
        <ele>304.6</ele>
        <time>2014-02-23T13:36:28Z</time>
      </trkpt>
      <trkpt lat="43.51861" lon="6.14575">
        <ele>306.9</ele>
        <time>2014-02-23T13:36:40Z</time>
      </trkpt>
      <trkpt lat="43.51869" lon="6.14579">
        <ele>308.1</ele>
        <time>2014-02-23T13:36:49Z</time>
      </trkpt>
      <trkpt lat="43.51878" lon="6.14583">
        <ele>309.9</ele>
        <time>2014-02-23T13:37:01Z</time>
      </trkpt>
      <trkpt lat="43.51886" lon="6.14587">
        <ele>312.8</ele>
        <time>2014-02-23T13:37:13Z</time>
      </trkpt>
      <trkpt lat="43.51887" lon="6.14588">
        <ele>313</ele>
        <time>2014-02-23T13:37:14Z</time>
      </trkpt>
      <trkpt lat="43.519" lon="6.14599">
        <ele>315.7</ele>
        <time>2014-02-23T13:38:02Z</time>
      </trkpt>
      <trkpt lat="43.51907" lon="6.14608">
        <ele>318.1</ele>
        <time>2014-02-23T13:38:19Z</time>
      </trkpt>
      <trkpt lat="43.51907" lon="6.14609">
        <ele>318.4</ele>
        <time>2014-02-23T13:38:20Z</time>
      </trkpt>
      <trkpt lat="43.51922" lon="6.1462">
        <ele>320.1</ele>
        <time>2014-02-23T13:38:53Z</time>
      </trkpt>
      <trkpt lat="43.51928" lon="6.14628">
        <ele>320.7</ele>
        <time>2014-02-23T13:39:10Z</time>
      </trkpt>
      <trkpt lat="43.51934" lon="6.14637">
        <ele>321.9</ele>
        <time>2014-02-23T13:39:26Z</time>
      </trkpt>
      <trkpt lat="43.51935" lon="6.14637">
        <ele>321.8</ele>
        <time>2014-02-23T13:39:27Z</time>
      </trkpt>
      <trkpt lat="43.51951" lon="6.14642">
        <ele>325.5</ele>
        <time>2014-02-23T13:39:54Z</time>
      </trkpt>
      <trkpt lat="43.51959" lon="6.14648">
        <ele>325.6</ele>
        <time>2014-02-23T13:40:11Z</time>
      </trkpt>
      <trkpt lat="43.51965" lon="6.14657">
        <ele>327.7</ele>
        <time>2014-02-23T13:40:25Z</time>
      </trkpt>
      <trkpt lat="43.5197" lon="6.14667">
        <ele>326.9</ele>
        <time>2014-02-23T13:40:35Z</time>
      </trkpt>
      <trkpt lat="43.51971" lon="6.14668">
        <ele>327.5</ele>
        <time>2014-02-23T13:40:36Z</time>
      </trkpt>
      <trkpt lat="43.51978" lon="6.14687">
        <ele>328.2</ele>
        <time>2014-02-23T13:40:58Z</time>
      </trkpt>
      <trkpt lat="43.51986" lon="6.14688">
        <ele>330.9</ele>
        <time>2014-02-23T13:41:32Z</time>
      </trkpt>
      <trkpt lat="43.51995" lon="6.14687">
        <ele>332.6</ele>
        <time>2014-02-23T13:41:51Z</time>
      </trkpt>
      <trkpt lat="43.51995" lon="6.14686">
        <ele>332.3</ele>
        <time>2014-02-23T13:41:52Z</time>
      </trkpt>
      <trkpt lat="43.5201" lon="6.14679">
        <ele>335.6</ele>
        <time>2014-02-23T13:42:26Z</time>
      </trkpt>
      <trkpt lat="43.52016" lon="6.14688">
        <ele>336.2</ele>
        <time>2014-02-23T13:42:38Z</time>
      </trkpt>
      <trkpt lat="43.52022" lon="6.14696">
        <ele>336.2</ele>
        <time>2014-02-23T13:42:49Z</time>
      </trkpt>
      <trkpt lat="43.52027" lon="6.14706">
        <ele>335.5</ele>
        <time>2014-02-23T13:43:02Z</time>
      </trkpt>
      <trkpt lat="43.52027" lon="6.14706">
        <ele>336.1</ele>
        <time>2014-02-23T13:43:03Z</time>
      </trkpt>
      <trkpt lat="43.52035" lon="6.14711">
        <ele>335.9</ele>
        <time>2014-02-23T13:44:38Z</time>
      </trkpt>
      <trkpt lat="43.52043" lon="6.14691">
        <ele>335.9</ele>
        <time>2014-02-23T13:45:29Z</time>
      </trkpt>
      <trkpt lat="43.52033" lon="6.1468">
        <ele>336</ele>
        <time>2014-02-23T13:45:44Z</time>
      </trkpt>
      <trkpt lat="43.52026" lon="6.14679">
        <ele>336.7</ele>
        <time>2014-02-23T13:45:48Z</time>
      </trkpt>
      <trkpt lat="43.52028" lon="6.14683">
        <ele>336.9</ele>
        <time>2014-02-23T13:46:05Z</time>
      </trkpt>
      <trkpt lat="43.52037" lon="6.1468">
        <ele>337.2</ele>
        <time>2014-02-23T13:46:06Z</time>
      </trkpt>
      <trkpt lat="43.52048" lon="6.14678">
        <ele>336</ele>
        <time>2014-02-23T13:46:28Z</time>
      </trkpt>
      <trkpt lat="43.52051" lon="6.14664">
        <ele>337.6</ele>
        <time>2014-02-23T13:46:40Z</time>
      </trkpt>
      <trkpt lat="43.52043" lon="6.14667">
        <ele>336.5</ele>
        <time>2014-02-23T13:46:48Z</time>
      </trkpt>
      <trkpt lat="43.52041" lon="6.14667">
        <ele>337.1</ele>
        <time>2014-02-23T13:46:49Z</time>
      </trkpt>
      <trkpt lat="43.52041" lon="6.14686">
        <ele>336.8</ele>
        <time>2014-02-23T13:47:10Z</time>
      </trkpt>
      <trkpt lat="43.52045" lon="6.14696">
        <ele>336.7</ele>
        <time>2014-02-23T13:47:21Z</time>
      </trkpt>
      <trkpt lat="43.52054" lon="6.14697">
        <ele>336.7</ele>
        <time>2014-02-23T13:48:41Z</time>
      </trkpt>
      <trkpt lat="43.52054" lon="6.14697">
        <ele>336.7</ele>
        <time>2014-02-23T13:48:42Z</time>
      </trkpt>
      <trkpt lat="43.52064" lon="6.14676">
        <ele>340</ele>
        <time>2014-02-23T13:51:10Z</time>
      </trkpt>
      <trkpt lat="43.52064" lon="6.14676">
        <ele>340.3</ele>
        <time>2014-02-23T13:51:11Z</time>
      </trkpt>
      <trkpt lat="43.52069" lon="6.14666">
        <ele>340.8</ele>
        <time>2014-02-23T13:52:12Z</time>
      </trkpt>
      <trkpt lat="43.52071" lon="6.14654">
        <ele>340</ele>
        <time>2014-02-23T13:54:44Z</time>
      </trkpt>
      <trkpt lat="43.52087" lon="6.14648">
        <ele>341</ele>
        <time>2014-02-23T13:55:08Z</time>
      </trkpt>
      <trkpt lat="43.52095" lon="6.14644">
        <ele>340.8</ele>
        <time>2014-02-23T13:55:17Z</time>
      </trkpt>
      <trkpt lat="43.52103" lon="6.14641">
        <ele>341</ele>
        <time>2014-02-23T13:55:26Z</time>
      </trkpt>
      <trkpt lat="43.52111" lon="6.14637">
        <ele>339.7</ele>
        <time>2014-02-23T13:55:35Z</time>
      </trkpt>
      <trkpt lat="43.52119" lon="6.14635">
        <ele>338.8</ele>
        <time>2014-02-23T13:55:44Z</time>
      </trkpt>
      <trkpt lat="43.5212" lon="6.14634">
        <ele>338.6</ele>
        <time>2014-02-23T13:55:45Z</time>
      </trkpt>
      <trkpt lat="43.52135" lon="6.14628">
        <ele>336.3</ele>
        <time>2014-02-23T13:56:03Z</time>
      </trkpt>
      <trkpt lat="43.52143" lon="6.14625">
        <ele>336.4</ele>
        <time>2014-02-23T13:56:10Z</time>
      </trkpt>
      <trkpt lat="43.52151" lon="6.14622">
        <ele>336</ele>
        <time>2014-02-23T13:56:18Z</time>
      </trkpt>
      <trkpt lat="43.52158" lon="6.14616">
        <ele>336.4</ele>
        <time>2014-02-23T13:56:26Z</time>
      </trkpt>
      <trkpt lat="43.52166" lon="6.14611">
        <ele>337.4</ele>
        <time>2014-02-23T13:56:35Z</time>
      </trkpt>
      <trkpt lat="43.52172" lon="6.14605">
        <ele>337.4</ele>
        <time>2014-02-23T13:56:41Z</time>
      </trkpt>
      <trkpt lat="43.52179" lon="6.14599">
        <ele>337.6</ele>
        <time>2014-02-23T13:56:48Z</time>
      </trkpt>
      <trkpt lat="43.5218" lon="6.14598">
        <ele>337.8</ele>
        <time>2014-02-23T13:56:49Z</time>
      </trkpt>
      <trkpt lat="43.52195" lon="6.14589">
        <ele>339</ele>
        <time>2014-02-23T13:57:03Z</time>
      </trkpt>
      <trkpt lat="43.52204" lon="6.14587">
        <ele>339.3</ele>
        <time>2014-02-23T13:57:13Z</time>
      </trkpt>
      <trkpt lat="43.52212" lon="6.14582">
        <ele>339.6</ele>
        <time>2014-02-23T13:57:49Z</time>
      </trkpt>
      <trkpt lat="43.52213" lon="6.14582">
        <ele>339.7</ele>
        <time>2014-02-23T13:57:50Z</time>
      </trkpt>
      <trkpt lat="43.52228" lon="6.14574">
        <ele>338.8</ele>
        <time>2014-02-23T13:58:47Z</time>
      </trkpt>
      <trkpt lat="43.52229" lon="6.14573">
        <ele>339</ele>
        <time>2014-02-23T13:58:48Z</time>
      </trkpt>
      <trkpt lat="43.52198" lon="6.14582">
        <ele>338.9</ele>
        <time>2014-02-23T13:59:35Z</time>
      </trkpt>
      <trkpt lat="43.52206" lon="6.14579">
        <ele>337.7</ele>
        <time>2014-02-23T13:59:46Z</time>
      </trkpt>
      <trkpt lat="43.52215" lon="6.14578">
        <ele>338.2</ele>
        <time>2014-02-23T14:00:05Z</time>
      </trkpt>
      <trkpt lat="43.52224" lon="6.14578">
        <ele>337.3</ele>
        <time>2014-02-23T14:00:16Z</time>
      </trkpt>
      <trkpt lat="43.52231" lon="6.14571">
        <ele>336.5</ele>
        <time>2014-02-23T14:00:28Z</time>
      </trkpt>
      <trkpt lat="43.52238" lon="6.14565">
        <ele>335.4</ele>
        <time>2014-02-23T14:00:40Z</time>
      </trkpt>
      <trkpt lat="43.52239" lon="6.14564">
        <ele>335.5</ele>
        <time>2014-02-23T14:00:41Z</time>
      </trkpt>
      <trkpt lat="43.52251" lon="6.14552">
        <ele>336.5</ele>
        <time>2014-02-23T14:00:59Z</time>
      </trkpt>
      <trkpt lat="43.52257" lon="6.14544">
        <ele>336.3</ele>
        <time>2014-02-23T14:01:08Z</time>
      </trkpt>
      <trkpt lat="43.52262" lon="6.14535">
        <ele>334.9</ele>
        <time>2014-02-23T14:01:16Z</time>
      </trkpt>
      <trkpt lat="43.52266" lon="6.14524">
        <ele>334.6</ele>
        <time>2014-02-23T14:01:25Z</time>
      </trkpt>
      <trkpt lat="43.5227" lon="6.14513">
        <ele>333.4</ele>
        <time>2014-02-23T14:01:34Z</time>
      </trkpt>
      <trkpt lat="43.52276" lon="6.14504">
        <ele>332.4</ele>
        <time>2014-02-23T14:01:45Z</time>
      </trkpt>
      <trkpt lat="43.52276" lon="6.14503">
        <ele>332.2</ele>
        <time>2014-02-23T14:01:46Z</time>
      </trkpt>
      <trkpt lat="43.5229" lon="6.14491">
        <ele>330.5</ele>
        <time>2014-02-23T14:02:04Z</time>
      </trkpt>
      <trkpt lat="43.52296" lon="6.14482">
        <ele>330</ele>
        <time>2014-02-23T14:02:13Z</time>
      </trkpt>
      <trkpt lat="43.52302" lon="6.14474">
        <ele>329.3</ele>
        <time>2014-02-23T14:02:21Z</time>
      </trkpt>
      <trkpt lat="43.52308" lon="6.14465">
        <ele>328.9</ele>
        <time>2014-02-23T14:02:34Z</time>
      </trkpt>
      <trkpt lat="43.52314" lon="6.14457">
        <ele>329.5</ele>
        <time>2014-02-23T14:02:42Z</time>
      </trkpt>
      <trkpt lat="43.52321" lon="6.14451">
        <ele>330</ele>
        <time>2014-02-23T14:02:49Z</time>
      </trkpt>
      <trkpt lat="43.52322" lon="6.14449">
        <ele>330.4</ele>
        <time>2014-02-23T14:02:50Z</time>
      </trkpt>
      <trkpt lat="43.52333" lon="6.14436">
        <ele>330.3</ele>
        <time>2014-02-23T14:03:05Z</time>
      </trkpt>
      <trkpt lat="43.52339" lon="6.14427">
        <ele>330.3</ele>
        <time>2014-02-23T14:03:14Z</time>
      </trkpt>
      <trkpt lat="43.52345" lon="6.14419">
        <ele>330.8</ele>
        <time>2014-02-23T14:03:22Z</time>
      </trkpt>
      <trkpt lat="43.52347" lon="6.14407">
        <ele>331.6</ele>
        <time>2014-02-23T14:03:39Z</time>
      </trkpt>
      <trkpt lat="43.52353" lon="6.14399">
        <ele>331.7</ele>
        <time>2014-02-23T14:03:53Z</time>
      </trkpt>
      <trkpt lat="43.52354" lon="6.14398">
        <ele>332.1</ele>
        <time>2014-02-23T14:03:54Z</time>
      </trkpt>
      <trkpt lat="43.52365" lon="6.14383">
        <ele>331.9</ele>
        <time>2014-02-23T14:04:10Z</time>
      </trkpt>
      <trkpt lat="43.52369" lon="6.14373">
        <ele>332.2</ele>
        <time>2014-02-23T14:04:18Z</time>
      </trkpt>
      <trkpt lat="43.52371" lon="6.14361">
        <ele>332.1</ele>
        <time>2014-02-23T14:04:25Z</time>
      </trkpt>
      <trkpt lat="43.52374" lon="6.1435">
        <ele>331.9</ele>
        <time>2014-02-23T14:04:32Z</time>
      </trkpt>
      <trkpt lat="43.5238" lon="6.1434">
        <ele>331.8</ele>
        <time>2014-02-23T14:04:41Z</time>
      </trkpt>
      <trkpt lat="43.52384" lon="6.14334">
        <ele>331.9</ele>
        <time>2014-02-23T14:04:46Z</time>
      </trkpt>
      <trkpt lat="43.52389" lon="6.14324">
        <ele>331.3</ele>
        <time>2014-02-23T14:04:51Z</time>
      </trkpt>
      <trkpt lat="43.52393" lon="6.14315">
        <ele>330.9</ele>
        <time>2014-02-23T14:04:56Z</time>
      </trkpt>
      <trkpt lat="43.52395" lon="6.14313">
        <ele>330.7</ele>
        <time>2014-02-23T14:04:57Z</time>
      </trkpt>
      <trkpt lat="43.52402" lon="6.14296">
        <ele>328.5</ele>
        <time>2014-02-23T14:05:14Z</time>
      </trkpt>
      <trkpt lat="43.52408" lon="6.14287">
        <ele>329</ele>
        <time>2014-02-23T14:05:21Z</time>
      </trkpt>
      <trkpt lat="43.52413" lon="6.14278">
        <ele>329.2</ele>
        <time>2014-02-23T14:05:29Z</time>
      </trkpt>
      <trkpt lat="43.52417" lon="6.14269">
        <ele>329.3</ele>
        <time>2014-02-23T14:05:35Z</time>
      </trkpt>
      <trkpt lat="43.5242" lon="6.14259">
        <ele>329.6</ele>
        <time>2014-02-23T14:05:40Z</time>
      </trkpt>
      <trkpt lat="43.52424" lon="6.14249">
        <ele>329.7</ele>
        <time>2014-02-23T14:05:45Z</time>
      </trkpt>
      <trkpt lat="43.52428" lon="6.1424">
        <ele>330.3</ele>
        <time>2014-02-23T14:05:52Z</time>
      </trkpt>
      <trkpt lat="43.52429" lon="6.14228">
        <ele>330.1</ele>
        <time>2014-02-23T14:06:00Z</time>
      </trkpt>
      <trkpt lat="43.52429" lon="6.14227">
        <ele>330</ele>
        <time>2014-02-23T14:06:01Z</time>
      </trkpt>
      <trkpt lat="43.52435" lon="6.14208">
        <ele>331.1</ele>
        <time>2014-02-23T14:06:15Z</time>
      </trkpt>
      <trkpt lat="43.52436" lon="6.14196">
        <ele>331.5</ele>
        <time>2014-02-23T14:06:19Z</time>
      </trkpt>
      <trkpt lat="43.52437" lon="6.14185">
        <ele>332.6</ele>
        <time>2014-02-23T14:06:26Z</time>
      </trkpt>
      <trkpt lat="43.52433" lon="6.14174">
        <ele>333.7</ele>
        <time>2014-02-23T14:06:44Z</time>
      </trkpt>
      <trkpt lat="43.52433" lon="6.14162">
        <ele>334.4</ele>
        <time>2014-02-23T14:06:56Z</time>
      </trkpt>
      <trkpt lat="43.52431" lon="6.14151">
        <ele>334.6</ele>
        <time>2014-02-23T14:07:02Z</time>
      </trkpt>
      <trkpt lat="43.52431" lon="6.14149">
        <ele>334.9</ele>
        <time>2014-02-23T14:07:03Z</time>
      </trkpt>
      <trkpt lat="43.52429" lon="6.1413">
        <ele>335.7</ele>
        <time>2014-02-23T14:07:14Z</time>
      </trkpt>
      <trkpt lat="43.52429" lon="6.14118">
        <ele>335.9</ele>
        <time>2014-02-23T14:07:21Z</time>
      </trkpt>
      <trkpt lat="43.52429" lon="6.14107">
        <ele>336.4</ele>
        <time>2014-02-23T14:07:27Z</time>
      </trkpt>
      <trkpt lat="43.52426" lon="6.14097">
        <ele>336.4</ele>
        <time>2014-02-23T14:07:34Z</time>
      </trkpt>
      <trkpt lat="43.52422" lon="6.14086">
        <ele>336.2</ele>
        <time>2014-02-23T14:07:42Z</time>
      </trkpt>
      <trkpt lat="43.5242" lon="6.14075">
        <ele>337.2</ele>
        <time>2014-02-23T14:07:53Z</time>
      </trkpt>
      <trkpt lat="43.52424" lon="6.14064">
        <ele>338.6</ele>
        <time>2014-02-23T14:08:06Z</time>
      </trkpt>
      <trkpt lat="43.52424" lon="6.14063">
        <ele>338.6</ele>
        <time>2014-02-23T14:08:07Z</time>
      </trkpt>
      <trkpt lat="43.52438" lon="6.1405">
        <ele>343.5</ele>
        <time>2014-02-23T14:08:43Z</time>
      </trkpt>
      <trkpt lat="43.52444" lon="6.14041">
        <ele>344.6</ele>
        <time>2014-02-23T14:08:54Z</time>
      </trkpt>
      <trkpt lat="43.52449" lon="6.14031">
        <ele>344.4</ele>
        <time>2014-02-23T14:09:00Z</time>
      </trkpt>
      <trkpt lat="43.52452" lon="6.14022">
        <ele>344.5</ele>
        <time>2014-02-23T14:09:04Z</time>
      </trkpt>
      <trkpt lat="43.52457" lon="6.14013">
        <ele>344.4</ele>
        <time>2014-02-23T14:09:10Z</time>
      </trkpt>
      <trkpt lat="43.52458" lon="6.14012">
        <ele>344.4</ele>
        <time>2014-02-23T14:09:11Z</time>
      </trkpt>
      <trkpt lat="43.52462" lon="6.13991">
        <ele>345.3</ele>
        <time>2014-02-23T14:09:22Z</time>
      </trkpt>
      <trkpt lat="43.52466" lon="6.13981">
        <ele>345.1</ele>
        <time>2014-02-23T14:09:29Z</time>
      </trkpt>
      <trkpt lat="43.52469" lon="6.1397">
        <ele>345.2</ele>
        <time>2014-02-23T14:09:36Z</time>
      </trkpt>
      <trkpt lat="43.52472" lon="6.13958">
        <ele>345</ele>
        <time>2014-02-23T14:09:44Z</time>
      </trkpt>
      <trkpt lat="43.52477" lon="6.13949">
        <ele>345.3</ele>
        <time>2014-02-23T14:09:53Z</time>
      </trkpt>
      <trkpt lat="43.52484" lon="6.13941">
        <ele>345.8</ele>
        <time>2014-02-23T14:10:03Z</time>
      </trkpt>
      <trkpt lat="43.52491" lon="6.13934">
        <ele>347</ele>
        <time>2014-02-23T14:10:11Z</time>
      </trkpt>
      <trkpt lat="43.52491" lon="6.13933">
        <ele>347.1</ele>
        <time>2014-02-23T14:10:12Z</time>
      </trkpt>
      <trkpt lat="43.52502" lon="6.13918">
        <ele>347.6</ele>
        <time>2014-02-23T14:10:24Z</time>
      </trkpt>
      <trkpt lat="43.52508" lon="6.13912">
        <ele>348.6</ele>
        <time>2014-02-23T14:10:32Z</time>
      </trkpt>
      <trkpt lat="43.52512" lon="6.13903">
        <ele>349.7</ele>
        <time>2014-02-23T14:10:38Z</time>
      </trkpt>
      <trkpt lat="43.52516" lon="6.13893">
        <ele>350.3</ele>
        <time>2014-02-23T14:10:45Z</time>
      </trkpt>
      <trkpt lat="43.52522" lon="6.13885">
        <ele>351.3</ele>
        <time>2014-02-23T14:10:54Z</time>
      </trkpt>
      <trkpt lat="43.52527" lon="6.13876">
        <ele>352.3</ele>
        <time>2014-02-23T14:11:04Z</time>
      </trkpt>
      <trkpt lat="43.52535" lon="6.13869">
        <ele>353.9</ele>
        <time>2014-02-23T14:11:15Z</time>
      </trkpt>
      <trkpt lat="43.52535" lon="6.13868">
        <ele>353.9</ele>
        <time>2014-02-23T14:11:16Z</time>
      </trkpt>
      <trkpt lat="43.52541" lon="6.13847">
        <ele>357.5</ele>
        <time>2014-02-23T14:11:48Z</time>
      </trkpt>
      <trkpt lat="43.52545" lon="6.13836">
        <ele>358.8</ele>
        <time>2014-02-23T14:11:57Z</time>
      </trkpt>
      <trkpt lat="43.52547" lon="6.13824">
        <ele>359.8</ele>
        <time>2014-02-23T14:12:06Z</time>
      </trkpt>
      <trkpt lat="43.52551" lon="6.13813">
        <ele>360.4</ele>
        <time>2014-02-23T14:12:14Z</time>
      </trkpt>
      <trkpt lat="43.52554" lon="6.13802">
        <ele>361.6</ele>
        <time>2014-02-23T14:12:24Z</time>
      </trkpt>
      <trkpt lat="43.52555" lon="6.13801">
        <ele>361.7</ele>
        <time>2014-02-23T14:12:25Z</time>
      </trkpt>
      <trkpt lat="43.52558" lon="6.1378">
        <ele>362.1</ele>
        <time>2014-02-23T14:12:42Z</time>
      </trkpt>
      <trkpt lat="43.52558" lon="6.13769">
        <ele>362.4</ele>
        <time>2014-02-23T14:12:51Z</time>
      </trkpt>
      <trkpt lat="43.52559" lon="6.13758">
        <ele>364</ele>
        <time>2014-02-23T14:12:59Z</time>
      </trkpt>
      <trkpt lat="43.52563" lon="6.13748">
        <ele>364.8</ele>
        <time>2014-02-23T14:13:06Z</time>
      </trkpt>
      <trkpt lat="43.52565" lon="6.13736">
        <ele>365.7</ele>
        <time>2014-02-23T14:13:16Z</time>
      </trkpt>
      <trkpt lat="43.52567" lon="6.13725">
        <ele>367.3</ele>
        <time>2014-02-23T14:13:27Z</time>
      </trkpt>
      <trkpt lat="43.52568" lon="6.13724">
        <ele>367.3</ele>
        <time>2014-02-23T14:13:28Z</time>
      </trkpt>
      <trkpt lat="43.52577" lon="6.13705">
        <ele>371.2</ele>
        <time>2014-02-23T14:13:52Z</time>
      </trkpt>
      <trkpt lat="43.52583" lon="6.13698">
        <ele>373.5</ele>
        <time>2014-02-23T14:14:07Z</time>
      </trkpt>
      <trkpt lat="43.52589" lon="6.1369">
        <ele>376.1</ele>
        <time>2014-02-23T14:14:29Z</time>
      </trkpt>
      <trkpt lat="43.5259" lon="6.13689">
        <ele>376.5</ele>
        <time>2014-02-23T14:14:30Z</time>
      </trkpt>
      <trkpt lat="43.526" lon="6.13672">
        <ele>376.6</ele>
        <time>2014-02-23T14:14:44Z</time>
      </trkpt>
      <trkpt lat="43.52606" lon="6.13665">
        <ele>377.6</ele>
        <time>2014-02-23T14:14:52Z</time>
      </trkpt>
      <trkpt lat="43.52611" lon="6.13656">
        <ele>378.1</ele>
        <time>2014-02-23T14:14:59Z</time>
      </trkpt>
      <trkpt lat="43.52616" lon="6.13648">
        <ele>379.1</ele>
        <time>2014-02-23T14:15:12Z</time>
      </trkpt>
      <trkpt lat="43.52621" lon="6.13638">
        <ele>378.7</ele>
        <time>2014-02-23T14:15:29Z</time>
      </trkpt>
      <trkpt lat="43.52627" lon="6.13631">
        <ele>379.1</ele>
        <time>2014-02-23T14:15:38Z</time>
      </trkpt>
      <trkpt lat="43.52628" lon="6.1363">
        <ele>379.2</ele>
        <time>2014-02-23T14:15:39Z</time>
      </trkpt>
      <trkpt lat="43.5264" lon="6.13617">
        <ele>378.8</ele>
        <time>2014-02-23T14:15:54Z</time>
      </trkpt>
      <trkpt lat="43.52648" lon="6.13612">
        <ele>378.7</ele>
        <time>2014-02-23T14:16:03Z</time>
      </trkpt>
      <trkpt lat="43.52655" lon="6.13606">
        <ele>378.8</ele>
        <time>2014-02-23T14:16:12Z</time>
      </trkpt>
      <trkpt lat="43.52662" lon="6.136">
        <ele>379</ele>
        <time>2014-02-23T14:16:21Z</time>
      </trkpt>
      <trkpt lat="43.52671" lon="6.13597">
        <ele>380</ele>
        <time>2014-02-23T14:16:33Z</time>
      </trkpt>
      <trkpt lat="43.52678" lon="6.1359">
        <ele>380.4</ele>
        <time>2014-02-23T14:16:40Z</time>
      </trkpt>
      <trkpt lat="43.52679" lon="6.13589">
        <ele>380.4</ele>
        <time>2014-02-23T14:16:41Z</time>
      </trkpt>
      <trkpt lat="43.52689" lon="6.13573">
        <ele>380.9</ele>
        <time>2014-02-23T14:16:57Z</time>
      </trkpt>
      <trkpt lat="43.52695" lon="6.13565">
        <ele>381.2</ele>
        <time>2014-02-23T14:17:08Z</time>
      </trkpt>
      <trkpt lat="43.52699" lon="6.13554">
        <ele>381.8</ele>
        <time>2014-02-23T14:17:16Z</time>
      </trkpt>
      <trkpt lat="43.52703" lon="6.13544">
        <ele>382.5</ele>
        <time>2014-02-23T14:17:23Z</time>
      </trkpt>
      <trkpt lat="43.52706" lon="6.13535">
        <ele>383.1</ele>
        <time>2014-02-23T14:17:30Z</time>
      </trkpt>
      <trkpt lat="43.52711" lon="6.13525">
        <ele>382.8</ele>
        <time>2014-02-23T14:17:37Z</time>
      </trkpt>
      <trkpt lat="43.52717" lon="6.13518">
        <ele>383.4</ele>
        <time>2014-02-23T14:17:45Z</time>
      </trkpt>
      <trkpt lat="43.52718" lon="6.13516">
        <ele>383.4</ele>
        <time>2014-02-23T14:17:46Z</time>
      </trkpt>
      <trkpt lat="43.52724" lon="6.13498">
        <ele>384.9</ele>
        <time>2014-02-23T14:18:04Z</time>
      </trkpt>
      <trkpt lat="43.52727" lon="6.13486">
        <ele>384.3</ele>
        <time>2014-02-23T14:18:24Z</time>
      </trkpt>
      <trkpt lat="43.52729" lon="6.13475">
        <ele>384.5</ele>
        <time>2014-02-23T14:19:09Z</time>
      </trkpt>
      <trkpt lat="43.52729" lon="6.13474">
        <ele>384.5</ele>
        <time>2014-02-23T14:19:10Z</time>
      </trkpt>
      <trkpt lat="43.52727" lon="6.13452">
        <ele>384.1</ele>
        <time>2014-02-23T14:19:38Z</time>
      </trkpt>
      <trkpt lat="43.52732" lon="6.13442">
        <ele>385.2</ele>
        <time>2014-02-23T14:19:53Z</time>
      </trkpt>
      <trkpt lat="43.52736" lon="6.13432">
        <ele>386</ele>
        <time>2014-02-23T14:20:04Z</time>
      </trkpt>
      <trkpt lat="43.5274" lon="6.13422">
        <ele>386.8</ele>
        <time>2014-02-23T14:20:12Z</time>
      </trkpt>
      <trkpt lat="43.5274" lon="6.1342">
        <ele>386.9</ele>
        <time>2014-02-23T14:20:13Z</time>
      </trkpt>
      <trkpt lat="43.5275" lon="6.13404">
        <ele>388.1</ele>
        <time>2014-02-23T14:20:29Z</time>
      </trkpt>
      <trkpt lat="43.52757" lon="6.13395">
        <ele>388.7</ele>
        <time>2014-02-23T14:20:37Z</time>
      </trkpt>
      <trkpt lat="43.52763" lon="6.13388">
        <ele>389</ele>
        <time>2014-02-23T14:20:46Z</time>
      </trkpt>
      <trkpt lat="43.52771" lon="6.13382">
        <ele>388.9</ele>
        <time>2014-02-23T14:20:54Z</time>
      </trkpt>
      <trkpt lat="43.52779" lon="6.13377">
        <ele>388.9</ele>
        <time>2014-02-23T14:21:00Z</time>
      </trkpt>
      <trkpt lat="43.52786" lon="6.13373">
        <ele>389.1</ele>
        <time>2014-02-23T14:21:06Z</time>
      </trkpt>
      <trkpt lat="43.52793" lon="6.13366">
        <ele>389</ele>
        <time>2014-02-23T14:21:14Z</time>
      </trkpt>
      <trkpt lat="43.52795" lon="6.13365">
        <ele>389</ele>
        <time>2014-02-23T14:21:15Z</time>
      </trkpt>
      <trkpt lat="43.5281" lon="6.13362">
        <ele>387.9</ele>
        <time>2014-02-23T14:21:30Z</time>
      </trkpt>
      <trkpt lat="43.52818" lon="6.13357">
        <ele>387.5</ele>
        <time>2014-02-23T14:21:40Z</time>
      </trkpt>
      <trkpt lat="43.52827" lon="6.13352">
        <ele>387.4</ele>
        <time>2014-02-23T14:21:50Z</time>
      </trkpt>
      <trkpt lat="43.52834" lon="6.13349">
        <ele>387.4</ele>
        <time>2014-02-23T14:21:58Z</time>
      </trkpt>
      <trkpt lat="43.52843" lon="6.1335">
        <ele>387.4</ele>
        <time>2014-02-23T14:22:05Z</time>
      </trkpt>
      <trkpt lat="43.52851" lon="6.13344">
        <ele>386.7</ele>
        <time>2014-02-23T14:22:15Z</time>
      </trkpt>
      <trkpt lat="43.52851" lon="6.13343">
        <ele>386.6</ele>
        <time>2014-02-23T14:22:16Z</time>
      </trkpt>
      <trkpt lat="43.52866" lon="6.13332">
        <ele>385.5</ele>
        <time>2014-02-23T14:22:38Z</time>
      </trkpt>
      <trkpt lat="43.52873" lon="6.13325">
        <ele>385.2</ele>
        <time>2014-02-23T14:22:46Z</time>
      </trkpt>
      <trkpt lat="43.52881" lon="6.13322">
        <ele>384.8</ele>
        <time>2014-02-23T14:22:54Z</time>
      </trkpt>
      <trkpt lat="43.52889" lon="6.13318">
        <ele>384.4</ele>
        <time>2014-02-23T14:23:02Z</time>
      </trkpt>
      <trkpt lat="43.52896" lon="6.1331">
        <ele>385.3</ele>
        <time>2014-02-23T14:23:09Z</time>
      </trkpt>
      <trkpt lat="43.52903" lon="6.13304">
        <ele>384.5</ele>
        <time>2014-02-23T14:23:18Z</time>
      </trkpt>
      <trkpt lat="43.52904" lon="6.13303">
        <ele>384.6</ele>
        <time>2014-02-23T14:23:19Z</time>
      </trkpt>
      <trkpt lat="43.5292" lon="6.13297">
        <ele>384.6</ele>
        <time>2014-02-23T14:23:31Z</time>
      </trkpt>
      <trkpt lat="43.52927" lon="6.13291">
        <ele>385.2</ele>
        <time>2014-02-23T14:23:38Z</time>
      </trkpt>
      <trkpt lat="43.52934" lon="6.13287">
        <ele>385.3</ele>
        <time>2014-02-23T14:23:46Z</time>
      </trkpt>
      <trkpt lat="43.52942" lon="6.13281">
        <ele>384.7</ele>
        <time>2014-02-23T14:23:52Z</time>
      </trkpt>
      <trkpt lat="43.5295" lon="6.13276">
        <ele>385.3</ele>
        <time>2014-02-23T14:24:00Z</time>
      </trkpt>
      <trkpt lat="43.52957" lon="6.13272">
        <ele>385.1</ele>
        <time>2014-02-23T14:24:07Z</time>
      </trkpt>
      <trkpt lat="43.52964" lon="6.13266">
        <ele>385.4</ele>
        <time>2014-02-23T14:24:14Z</time>
      </trkpt>
      <trkpt lat="43.52971" lon="6.1326">
        <ele>385.9</ele>
        <time>2014-02-23T14:24:22Z</time>
      </trkpt>
      <trkpt lat="43.52972" lon="6.13259">
        <ele>386</ele>
        <time>2014-02-23T14:24:23Z</time>
      </trkpt>
      <trkpt lat="43.52986" lon="6.13247">
        <ele>386.1</ele>
        <time>2014-02-23T14:24:36Z</time>
      </trkpt>
      <trkpt lat="43.52994" lon="6.13242">
        <ele>386.2</ele>
        <time>2014-02-23T14:24:44Z</time>
      </trkpt>
      <trkpt lat="43.53001" lon="6.13237">
        <ele>386.6</ele>
        <time>2014-02-23T14:24:51Z</time>
      </trkpt>
      <trkpt lat="43.53009" lon="6.13233">
        <ele>386.8</ele>
        <time>2014-02-23T14:24:59Z</time>
      </trkpt>
      <trkpt lat="43.53017" lon="6.13231">
        <ele>386.8</ele>
        <time>2014-02-23T14:25:08Z</time>
      </trkpt>
      <trkpt lat="43.53024" lon="6.13224">
        <ele>386.6</ele>
        <time>2014-02-23T14:25:15Z</time>
      </trkpt>
      <trkpt lat="43.5303" lon="6.13215">
        <ele>387.6</ele>
        <time>2014-02-23T14:25:24Z</time>
      </trkpt>
      <trkpt lat="43.53031" lon="6.13214">
        <ele>387.5</ele>
        <time>2014-02-23T14:25:25Z</time>
      </trkpt>
      <trkpt lat="43.53042" lon="6.132">
        <ele>387.4</ele>
        <time>2014-02-23T14:25:34Z</time>
      </trkpt>
      <trkpt lat="43.53047" lon="6.13192">
        <ele>387.8</ele>
        <time>2014-02-23T14:25:42Z</time>
      </trkpt>
      <trkpt lat="43.53051" lon="6.13182">
        <ele>387.9</ele>
        <time>2014-02-23T14:25:51Z</time>
      </trkpt>
      <trkpt lat="43.53056" lon="6.13172">
        <ele>388.5</ele>
        <time>2014-02-23T14:26:00Z</time>
      </trkpt>
      <trkpt lat="43.53061" lon="6.13163">
        <ele>388.7</ele>
        <time>2014-02-23T14:26:09Z</time>
      </trkpt>
      <trkpt lat="43.53064" lon="6.13152">
        <ele>389</ele>
        <time>2014-02-23T14:26:18Z</time>
      </trkpt>
      <trkpt lat="43.53068" lon="6.13142">
        <ele>389.3</ele>
        <time>2014-02-23T14:26:26Z</time>
      </trkpt>
      <trkpt lat="43.53068" lon="6.1314">
        <ele>389.3</ele>
        <time>2014-02-23T14:26:27Z</time>
      </trkpt>
      <trkpt lat="43.53077" lon="6.13123">
        <ele>389.5</ele>
        <time>2014-02-23T14:26:44Z</time>
      </trkpt>
      <trkpt lat="43.53083" lon="6.13114">
        <ele>389.1</ele>
        <time>2014-02-23T14:26:52Z</time>
      </trkpt>
      <trkpt lat="43.53087" lon="6.13106">
        <ele>389.5</ele>
        <time>2014-02-23T14:26:59Z</time>
      </trkpt>
      <trkpt lat="43.53093" lon="6.13099">
        <ele>389.8</ele>
        <time>2014-02-23T14:27:05Z</time>
      </trkpt>
      <trkpt lat="43.531" lon="6.13092">
        <ele>389.4</ele>
        <time>2014-02-23T14:27:12Z</time>
      </trkpt>
      <trkpt lat="43.53106" lon="6.13084">
        <ele>389.3</ele>
        <time>2014-02-23T14:27:21Z</time>
      </trkpt>
      <trkpt lat="43.53112" lon="6.13075">
        <ele>389.1</ele>
        <time>2014-02-23T14:27:29Z</time>
      </trkpt>
      <trkpt lat="43.53112" lon="6.13074">
        <ele>389.1</ele>
        <time>2014-02-23T14:27:30Z</time>
      </trkpt>
      <trkpt lat="43.53123" lon="6.13057">
        <ele>388.4</ele>
        <time>2014-02-23T14:27:46Z</time>
      </trkpt>
      <trkpt lat="43.53129" lon="6.1305">
        <ele>387.6</ele>
        <time>2014-02-23T14:27:55Z</time>
      </trkpt>
      <trkpt lat="43.53137" lon="6.13045">
        <ele>388.1</ele>
        <time>2014-02-23T14:28:04Z</time>
      </trkpt>
      <trkpt lat="43.53144" lon="6.13039">
        <ele>387.6</ele>
        <time>2014-02-23T14:28:12Z</time>
      </trkpt>
      <trkpt lat="43.5315" lon="6.1303">
        <ele>386.7</ele>
        <time>2014-02-23T14:28:19Z</time>
      </trkpt>
      <trkpt lat="43.53158" lon="6.13023">
        <ele>386.3</ele>
        <time>2014-02-23T14:28:27Z</time>
      </trkpt>
      <trkpt lat="43.53165" lon="6.13016">
        <ele>386.8</ele>
        <time>2014-02-23T14:28:35Z</time>
      </trkpt>
      <trkpt lat="43.53166" lon="6.13015">
        <ele>387.1</ele>
        <time>2014-02-23T14:28:36Z</time>
      </trkpt>
      <trkpt lat="43.5318" lon="6.13005">
        <ele>386.3</ele>
        <time>2014-02-23T14:28:51Z</time>
      </trkpt>
      <trkpt lat="43.53188" lon="6.12999">
        <ele>386</ele>
        <time>2014-02-23T14:28:59Z</time>
      </trkpt>
      <trkpt lat="43.53195" lon="6.12991">
        <ele>385.8</ele>
        <time>2014-02-23T14:29:07Z</time>
      </trkpt>
      <trkpt lat="43.53202" lon="6.12986">
        <ele>385.7</ele>
        <time>2014-02-23T14:29:15Z</time>
      </trkpt>
      <trkpt lat="43.53208" lon="6.12981">
        <ele>385.7</ele>
        <time>2014-02-23T14:29:22Z</time>
      </trkpt>
      <trkpt lat="43.53216" lon="6.12975">
        <ele>386.2</ele>
        <time>2014-02-23T14:29:30Z</time>
      </trkpt>
      <trkpt lat="43.53223" lon="6.12969">
        <ele>385.7</ele>
        <time>2014-02-23T14:29:39Z</time>
      </trkpt>
      <trkpt lat="43.53224" lon="6.12969">
        <ele>385.8</ele>
        <time>2014-02-23T14:29:40Z</time>
      </trkpt>
      <trkpt lat="43.53233" lon="6.12951">
        <ele>385.9</ele>
        <time>2014-02-23T14:29:53Z</time>
      </trkpt>
      <trkpt lat="43.53238" lon="6.12941">
        <ele>385.9</ele>
        <time>2014-02-23T14:30:01Z</time>
      </trkpt>
      <trkpt lat="43.53244" lon="6.12933">
        <ele>386.4</ele>
        <time>2014-02-23T14:30:09Z</time>
      </trkpt>
      <trkpt lat="43.53249" lon="6.12925">
        <ele>386.3</ele>
        <time>2014-02-23T14:30:16Z</time>
      </trkpt>
      <trkpt lat="43.53255" lon="6.12916">
        <ele>386.5</ele>
        <time>2014-02-23T14:30:23Z</time>
      </trkpt>
      <trkpt lat="43.53263" lon="6.1291">
        <ele>386.4</ele>
        <time>2014-02-23T14:30:31Z</time>
      </trkpt>
      <trkpt lat="43.5327" lon="6.12903">
        <ele>386.6</ele>
        <time>2014-02-23T14:30:41Z</time>
      </trkpt>
      <trkpt lat="43.5327" lon="6.12903">
        <ele>386.8</ele>
        <time>2014-02-23T14:30:42Z</time>
      </trkpt>
      <trkpt lat="43.53282" lon="6.12886">
        <ele>386.2</ele>
        <time>2014-02-23T14:30:57Z</time>
      </trkpt>
      <trkpt lat="43.53288" lon="6.12877">
        <ele>386.2</ele>
        <time>2014-02-23T14:31:05Z</time>
      </trkpt>
      <trkpt lat="43.53295" lon="6.12872">
        <ele>386.3</ele>
        <time>2014-02-23T14:31:13Z</time>
      </trkpt>
      <trkpt lat="43.53302" lon="6.12865">
        <ele>386.5</ele>
        <time>2014-02-23T14:31:21Z</time>
      </trkpt>
      <trkpt lat="43.53308" lon="6.12858">
        <ele>386.7</ele>
        <time>2014-02-23T14:31:27Z</time>
      </trkpt>
      <trkpt lat="43.53315" lon="6.1285">
        <ele>386.8</ele>
        <time>2014-02-23T14:31:34Z</time>
      </trkpt>
      <trkpt lat="43.53319" lon="6.12841">
        <ele>387.2</ele>
        <time>2014-02-23T14:31:41Z</time>
      </trkpt>
      <trkpt lat="43.53326" lon="6.12835">
        <ele>387</ele>
        <time>2014-02-23T14:31:49Z</time>
      </trkpt>
      <trkpt lat="43.53327" lon="6.12834">
        <ele>387.5</ele>
        <time>2014-02-23T14:31:50Z</time>
      </trkpt>
      <trkpt lat="43.53339" lon="6.1282">
        <ele>387.7</ele>
        <time>2014-02-23T14:32:04Z</time>
      </trkpt>
      <trkpt lat="43.53347" lon="6.12816">
        <ele>388.1</ele>
        <time>2014-02-23T14:32:11Z</time>
      </trkpt>
      <trkpt lat="43.53353" lon="6.12808">
        <ele>388.6</ele>
        <time>2014-02-23T14:32:20Z</time>
      </trkpt>
      <trkpt lat="43.53359" lon="6.12799">
        <ele>388.2</ele>
        <time>2014-02-23T14:32:29Z</time>
      </trkpt>
      <trkpt lat="43.53365" lon="6.12791">
        <ele>388.7</ele>
        <time>2014-02-23T14:32:37Z</time>
      </trkpt>
      <trkpt lat="43.53369" lon="6.12781">
        <ele>388.7</ele>
        <time>2014-02-23T14:32:45Z</time>
      </trkpt>
      <trkpt lat="43.53373" lon="6.12772">
        <ele>388.5</ele>
        <time>2014-02-23T14:32:54Z</time>
      </trkpt>
      <trkpt lat="43.53374" lon="6.1277">
        <ele>388.5</ele>
        <time>2014-02-23T14:32:55Z</time>
      </trkpt>
      <trkpt lat="43.5338" lon="6.1275">
        <ele>389.4</ele>
        <time>2014-02-23T14:33:07Z</time>
      </trkpt>
      <trkpt lat="43.53385" lon="6.1274">
        <ele>389.6</ele>
        <time>2014-02-23T14:33:16Z</time>
      </trkpt>
      <trkpt lat="43.53392" lon="6.12733">
        <ele>390.2</ele>
        <time>2014-02-23T14:33:27Z</time>
      </trkpt>
      <trkpt lat="43.534" lon="6.12727">
        <ele>390.6</ele>
        <time>2014-02-23T14:33:36Z</time>
      </trkpt>
      <trkpt lat="43.53407" lon="6.12722">
        <ele>390.7</ele>
        <time>2014-02-23T14:33:42Z</time>
      </trkpt>
      <trkpt lat="43.53415" lon="6.12718">
        <ele>390.6</ele>
        <time>2014-02-23T14:33:50Z</time>
      </trkpt>
      <trkpt lat="43.53422" lon="6.12712">
        <ele>390.8</ele>
        <time>2014-02-23T14:33:57Z</time>
      </trkpt>
      <trkpt lat="43.53423" lon="6.12713">
        <ele>390.8</ele>
        <time>2014-02-23T14:33:58Z</time>
      </trkpt>
      <trkpt lat="43.53437" lon="6.1271">
        <ele>390.7</ele>
        <time>2014-02-23T14:34:12Z</time>
      </trkpt>
      <trkpt lat="43.53446" lon="6.12706">
        <ele>390.8</ele>
        <time>2014-02-23T14:34:19Z</time>
      </trkpt>
      <trkpt lat="43.53454" lon="6.12701">
        <ele>391.2</ele>
        <time>2014-02-23T14:34:27Z</time>
      </trkpt>
      <trkpt lat="43.53461" lon="6.12695">
        <ele>391.6</ele>
        <time>2014-02-23T14:34:36Z</time>
      </trkpt>
      <trkpt lat="43.53469" lon="6.12689">
        <ele>391.9</ele>
        <time>2014-02-23T14:34:45Z</time>
      </trkpt>
      <trkpt lat="43.53472" lon="6.12678">
        <ele>392.1</ele>
        <time>2014-02-23T14:34:54Z</time>
      </trkpt>
      <trkpt lat="43.53472" lon="6.12666">
        <ele>392.8</ele>
        <time>2014-02-23T14:35:02Z</time>
      </trkpt>
      <trkpt lat="43.53472" lon="6.12664">
        <ele>392.8</ele>
        <time>2014-02-23T14:35:03Z</time>
      </trkpt>
      <trkpt lat="43.53471" lon="6.12644">
        <ele>393.3</ele>
        <time>2014-02-23T14:35:16Z</time>
      </trkpt>
      <trkpt lat="43.53468" lon="6.12634">
        <ele>393.4</ele>
        <time>2014-02-23T14:35:23Z</time>
      </trkpt>
      <trkpt lat="43.53466" lon="6.12622">
        <ele>393</ele>
        <time>2014-02-23T14:35:30Z</time>
      </trkpt>
      <trkpt lat="43.53462" lon="6.12613">
        <ele>393</ele>
        <time>2014-02-23T14:35:37Z</time>
      </trkpt>
      <trkpt lat="43.53457" lon="6.12602">
        <ele>392.7</ele>
        <time>2014-02-23T14:35:45Z</time>
      </trkpt>
      <trkpt lat="43.53453" lon="6.12592">
        <ele>393.5</ele>
        <time>2014-02-23T14:35:53Z</time>
      </trkpt>
      <trkpt lat="43.53448" lon="6.12584">
        <ele>393</ele>
        <time>2014-02-23T14:35:59Z</time>
      </trkpt>
      <trkpt lat="43.53442" lon="6.12574">
        <ele>392.9</ele>
        <time>2014-02-23T14:36:08Z</time>
      </trkpt>
      <trkpt lat="43.53442" lon="6.12573">
        <ele>393</ele>
        <time>2014-02-23T14:36:09Z</time>
      </trkpt>
    </trkseg>
  </trk>
</gpx>